<?xml version="1.0" encoding="UTF-8" standalone="no" ?>
<gpx xmlns="http://www.topografix.com/GPX/1/1" xmlns:xsi="http://www.w3.org/2001/XMLSchema-instance" xsi:schemaLocation="http://www.topografix.com/GPX/1/1 http://www.topografix.com/GPX/1/1/gpx.xsd" version="1.1" creator="VisuGPX - https://www.visugpx.com">
  <metadata>
    <name>source de l'aube 7 km</name>
    <desc><![CDATA[philman52]]></desc>
  </metadata>
  <trk>
    <name><![CDATA[Randonnée du matin 2]]></name>
    <extensions>
      <line xmlns="http://www.topografix.com/GPX/gpx_style/0/2">
        <color>0000FF</color>
        <width>4</width>
      </line>
    </extensions>
    <trkseg>
      <trkpt lat="47.75617" lon="5.12416">
        <ele>448.35</ele>
        <time>2021-09-23T07:32:00Z</time>
      </trkpt>
      <trkpt lat="47.75619" lon="5.12419">
        <ele>448.26</ele>
        <time>2021-09-23T07:32:06Z</time>
      </trkpt>
      <trkpt lat="47.75613" lon="5.12427">
        <ele>449.19</ele>
        <time>2021-09-23T07:35:12Z</time>
      </trkpt>
      <trkpt lat="47.75616" lon="5.12429">
        <ele>448.99</ele>
        <time>2021-09-23T07:36:10Z</time>
      </trkpt>
      <trkpt lat="47.75618" lon="5.12427">
        <ele>448.72</ele>
        <time>2021-09-23T07:36:46Z</time>
      </trkpt>
      <trkpt lat="47.75616" lon="5.12424">
        <ele>448.78</ele>
        <time>2021-09-23T07:37:42Z</time>
      </trkpt>
      <trkpt lat="47.75617" lon="5.12429">
        <ele>448.9</ele>
        <time>2021-09-23T07:37:51Z</time>
      </trkpt>
      <trkpt lat="47.75617" lon="5.12433">
        <ele>449.08</ele>
        <time>2021-09-23T07:37:54Z</time>
      </trkpt>
      <trkpt lat="47.75617" lon="5.12438">
        <ele>449.29</ele>
        <time>2021-09-23T07:37:57Z</time>
      </trkpt>
      <trkpt lat="47.75617" lon="5.12442">
        <ele>449.47</ele>
        <time>2021-09-23T07:38:02Z</time>
      </trkpt>
      <trkpt lat="47.75616" lon="5.12446">
        <ele>449.61</ele>
        <time>2021-09-23T07:38:05Z</time>
      </trkpt>
      <trkpt lat="47.75614" lon="5.1245">
        <ele>449.63</ele>
        <time>2021-09-23T07:38:08Z</time>
      </trkpt>
      <trkpt lat="47.75612" lon="5.12454">
        <ele>449.61</ele>
        <time>2021-09-23T07:38:11Z</time>
      </trkpt>
      <trkpt lat="47.75609" lon="5.12458">
        <ele>449.17</ele>
        <time>2021-09-23T07:38:14Z</time>
      </trkpt>
      <trkpt lat="47.75608" lon="5.12463">
        <ele>448.77</ele>
        <time>2021-09-23T07:38:17Z</time>
      </trkpt>
      <trkpt lat="47.75605" lon="5.12468">
        <ele>447.93</ele>
        <time>2021-09-23T07:38:20Z</time>
      </trkpt>
      <trkpt lat="47.75603" lon="5.12472">
        <ele>447.26</ele>
        <time>2021-09-23T07:38:22Z</time>
      </trkpt>
      <trkpt lat="47.75602" lon="5.12477">
        <ele>446.57</ele>
        <time>2021-09-23T07:38:24Z</time>
      </trkpt>
      <trkpt lat="47.756" lon="5.12481">
        <ele>445.84</ele>
        <time>2021-09-23T07:38:26Z</time>
      </trkpt>
      <trkpt lat="47.75599" lon="5.12485">
        <ele>445.35</ele>
        <time>2021-09-23T07:38:28Z</time>
      </trkpt>
      <trkpt lat="47.75597" lon="5.1249">
        <ele>444.69</ele>
        <time>2021-09-23T07:38:31Z</time>
      </trkpt>
      <trkpt lat="47.75597" lon="5.12495">
        <ele>444.34</ele>
        <time>2021-09-23T07:38:34Z</time>
      </trkpt>
      <trkpt lat="47.75596" lon="5.125">
        <ele>443.91</ele>
        <time>2021-09-23T07:38:37Z</time>
      </trkpt>
      <trkpt lat="47.75595" lon="5.12505">
        <ele>444.1</ele>
        <time>2021-09-23T07:38:40Z</time>
      </trkpt>
      <trkpt lat="47.75593" lon="5.12509">
        <ele>444.13</ele>
        <time>2021-09-23T07:38:43Z</time>
      </trkpt>
      <trkpt lat="47.75592" lon="5.12514">
        <ele>444.29</ele>
        <time>2021-09-23T07:38:45Z</time>
      </trkpt>
      <trkpt lat="47.75591" lon="5.12519">
        <ele>444.42</ele>
        <time>2021-09-23T07:38:47Z</time>
      </trkpt>
      <trkpt lat="47.7559" lon="5.12524">
        <ele>444.55</ele>
        <time>2021-09-23T07:38:49Z</time>
      </trkpt>
      <trkpt lat="47.75589" lon="5.12529">
        <ele>444.54</ele>
        <time>2021-09-23T07:38:51Z</time>
      </trkpt>
      <trkpt lat="47.75587" lon="5.12532">
        <ele>444.13</ele>
        <time>2021-09-23T07:38:53Z</time>
      </trkpt>
      <trkpt lat="47.75585" lon="5.12537">
        <ele>443.56</ele>
        <time>2021-09-23T07:38:56Z</time>
      </trkpt>
      <trkpt lat="47.75584" lon="5.12542">
        <ele>443.07</ele>
        <time>2021-09-23T07:38:59Z</time>
      </trkpt>
      <trkpt lat="47.75584" lon="5.12547">
        <ele>442.72</ele>
        <time>2021-09-23T07:39:02Z</time>
      </trkpt>
      <trkpt lat="47.75583" lon="5.12552">
        <ele>442.25</ele>
        <time>2021-09-23T07:39:05Z</time>
      </trkpt>
      <trkpt lat="47.75582" lon="5.12557">
        <ele>442</ele>
        <time>2021-09-23T07:39:07Z</time>
      </trkpt>
      <trkpt lat="47.75581" lon="5.12562">
        <ele>442.13</ele>
        <time>2021-09-23T07:39:10Z</time>
      </trkpt>
      <trkpt lat="47.75579" lon="5.12566">
        <ele>442.16</ele>
        <time>2021-09-23T07:39:12Z</time>
      </trkpt>
      <trkpt lat="47.75578" lon="5.1257">
        <ele>442.23</ele>
        <time>2021-09-23T07:39:14Z</time>
      </trkpt>
      <trkpt lat="47.75576" lon="5.12575">
        <ele>442.25</ele>
        <time>2021-09-23T07:39:16Z</time>
      </trkpt>
      <trkpt lat="47.75574" lon="5.12579">
        <ele>442.22</ele>
        <time>2021-09-23T07:39:18Z</time>
      </trkpt>
      <trkpt lat="47.75572" lon="5.12583">
        <ele>442.18</ele>
        <time>2021-09-23T07:39:20Z</time>
      </trkpt>
      <trkpt lat="47.7557" lon="5.12587">
        <ele>441.9</ele>
        <time>2021-09-23T07:39:22Z</time>
      </trkpt>
      <trkpt lat="47.75569" lon="5.1259">
        <ele>441.74</ele>
        <time>2021-09-23T07:39:24Z</time>
      </trkpt>
      <trkpt lat="47.75567" lon="5.12595">
        <ele>441.48</ele>
        <time>2021-09-23T07:39:27Z</time>
      </trkpt>
      <trkpt lat="47.75566" lon="5.126">
        <ele>441.3</ele>
        <time>2021-09-23T07:39:30Z</time>
      </trkpt>
      <trkpt lat="47.75564" lon="5.12604">
        <ele>441.16</ele>
        <time>2021-09-23T07:39:33Z</time>
      </trkpt>
      <trkpt lat="47.75563" lon="5.1261">
        <ele>441.02</ele>
        <time>2021-09-23T07:39:36Z</time>
      </trkpt>
      <trkpt lat="47.75562" lon="5.12615">
        <ele>441.11</ele>
        <time>2021-09-23T07:39:38Z</time>
      </trkpt>
      <trkpt lat="47.75561" lon="5.12619">
        <ele>441.23</ele>
        <time>2021-09-23T07:39:40Z</time>
      </trkpt>
      <trkpt lat="47.7556" lon="5.12625">
        <ele>441.42</ele>
        <time>2021-09-23T07:39:43Z</time>
      </trkpt>
      <trkpt lat="47.75559" lon="5.12629">
        <ele>441.56</ele>
        <time>2021-09-23T07:39:46Z</time>
      </trkpt>
      <trkpt lat="47.75558" lon="5.12633">
        <ele>441.72</ele>
        <time>2021-09-23T07:39:49Z</time>
      </trkpt>
      <trkpt lat="47.75558" lon="5.12638">
        <ele>441.88</ele>
        <time>2021-09-23T07:39:51Z</time>
      </trkpt>
      <trkpt lat="47.75557" lon="5.12643">
        <ele>442.53</ele>
        <time>2021-09-23T07:39:53Z</time>
      </trkpt>
      <trkpt lat="47.75557" lon="5.12648">
        <ele>443.24</ele>
        <time>2021-09-23T07:39:55Z</time>
      </trkpt>
      <trkpt lat="47.75556" lon="5.12652">
        <ele>443.86</ele>
        <time>2021-09-23T07:39:57Z</time>
      </trkpt>
      <trkpt lat="47.75554" lon="5.12657">
        <ele>444.76</ele>
        <time>2021-09-23T07:40:00Z</time>
      </trkpt>
      <trkpt lat="47.75552" lon="5.12663">
        <ele>445.76</ele>
        <time>2021-09-23T07:40:03Z</time>
      </trkpt>
      <trkpt lat="47.75552" lon="5.12667">
        <ele>446.29</ele>
        <time>2021-09-23T07:40:05Z</time>
      </trkpt>
      <trkpt lat="47.75551" lon="5.12671">
        <ele>446.77</ele>
        <time>2021-09-23T07:40:07Z</time>
      </trkpt>
      <trkpt lat="47.75549" lon="5.12676">
        <ele>447.4</ele>
        <time>2021-09-23T07:40:10Z</time>
      </trkpt>
      <trkpt lat="47.75547" lon="5.1268">
        <ele>447.91</ele>
        <time>2021-09-23T07:40:13Z</time>
      </trkpt>
      <trkpt lat="47.75545" lon="5.12683">
        <ele>448.3</ele>
        <time>2021-09-23T07:40:16Z</time>
      </trkpt>
      <trkpt lat="47.75543" lon="5.12687">
        <ele>448.77</ele>
        <time>2021-09-23T07:40:19Z</time>
      </trkpt>
      <trkpt lat="47.75543" lon="5.12692">
        <ele>449.23</ele>
        <time>2021-09-23T07:40:21Z</time>
      </trkpt>
      <trkpt lat="47.75543" lon="5.12698">
        <ele>449.59</ele>
        <time>2021-09-23T07:40:23Z</time>
      </trkpt>
      <trkpt lat="47.75543" lon="5.12704">
        <ele>449.83</ele>
        <time>2021-09-23T07:40:25Z</time>
      </trkpt>
      <trkpt lat="47.75542" lon="5.1271">
        <ele>450.06</ele>
        <time>2021-09-23T07:40:27Z</time>
      </trkpt>
      <trkpt lat="47.75541" lon="5.12714">
        <ele>450.19</ele>
        <time>2021-09-23T07:40:29Z</time>
      </trkpt>
      <trkpt lat="47.75539" lon="5.12718">
        <ele>450.28</ele>
        <time>2021-09-23T07:40:31Z</time>
      </trkpt>
      <trkpt lat="47.75537" lon="5.1272">
        <ele>450.28</ele>
        <time>2021-09-23T07:40:33Z</time>
      </trkpt>
      <trkpt lat="47.75533" lon="5.12723">
        <ele>450.1</ele>
        <time>2021-09-23T07:40:36Z</time>
      </trkpt>
      <trkpt lat="47.75531" lon="5.12727">
        <ele>449.6</ele>
        <time>2021-09-23T07:40:39Z</time>
      </trkpt>
      <trkpt lat="47.75529" lon="5.12731">
        <ele>449.1</ele>
        <time>2021-09-23T07:40:42Z</time>
      </trkpt>
      <trkpt lat="47.75528" lon="5.12735">
        <ele>448.63</ele>
        <time>2021-09-23T07:40:44Z</time>
      </trkpt>
      <trkpt lat="47.75528" lon="5.1274">
        <ele>448.09</ele>
        <time>2021-09-23T07:40:46Z</time>
      </trkpt>
      <trkpt lat="47.75528" lon="5.12745">
        <ele>447.55</ele>
        <time>2021-09-23T07:40:49Z</time>
      </trkpt>
      <trkpt lat="47.75528" lon="5.12751">
        <ele>447.01</ele>
        <time>2021-09-23T07:40:51Z</time>
      </trkpt>
      <trkpt lat="47.75528" lon="5.12756">
        <ele>447.01</ele>
        <time>2021-09-23T07:40:53Z</time>
      </trkpt>
      <trkpt lat="47.75527" lon="5.12761">
        <ele>447.02</ele>
        <time>2021-09-23T07:40:55Z</time>
      </trkpt>
      <trkpt lat="47.75526" lon="5.12765">
        <ele>447.07</ele>
        <time>2021-09-23T07:40:57Z</time>
      </trkpt>
      <trkpt lat="47.75524" lon="5.1277">
        <ele>447.2</ele>
        <time>2021-09-23T07:41:00Z</time>
      </trkpt>
      <trkpt lat="47.75522" lon="5.12775">
        <ele>447.37</ele>
        <time>2021-09-23T07:41:03Z</time>
      </trkpt>
      <trkpt lat="47.75521" lon="5.12779">
        <ele>447.25</ele>
        <time>2021-09-23T07:41:05Z</time>
      </trkpt>
      <trkpt lat="47.75519" lon="5.12784">
        <ele>446.37</ele>
        <time>2021-09-23T07:41:08Z</time>
      </trkpt>
      <trkpt lat="47.75517" lon="5.12788">
        <ele>445.65</ele>
        <time>2021-09-23T07:41:10Z</time>
      </trkpt>
      <trkpt lat="47.75516" lon="5.12792">
        <ele>444.85</ele>
        <time>2021-09-23T07:41:12Z</time>
      </trkpt>
      <trkpt lat="47.75513" lon="5.12796">
        <ele>444.09</ele>
        <time>2021-09-23T07:41:15Z</time>
      </trkpt>
      <trkpt lat="47.75511" lon="5.128">
        <ele>443.24</ele>
        <time>2021-09-23T07:41:17Z</time>
      </trkpt>
      <trkpt lat="47.7551" lon="5.12805">
        <ele>442.13</ele>
        <time>2021-09-23T07:41:19Z</time>
      </trkpt>
      <trkpt lat="47.75509" lon="5.1281">
        <ele>441.68</ele>
        <time>2021-09-23T07:41:21Z</time>
      </trkpt>
      <trkpt lat="47.75508" lon="5.12815">
        <ele>441.32</ele>
        <time>2021-09-23T07:41:23Z</time>
      </trkpt>
      <trkpt lat="47.75507" lon="5.1282">
        <ele>440.96</ele>
        <time>2021-09-23T07:41:25Z</time>
      </trkpt>
      <trkpt lat="47.75506" lon="5.12824">
        <ele>440.67</ele>
        <time>2021-09-23T07:41:27Z</time>
      </trkpt>
      <trkpt lat="47.75505" lon="5.12828">
        <ele>440.38</ele>
        <time>2021-09-23T07:41:29Z</time>
      </trkpt>
      <trkpt lat="47.75504" lon="5.12833">
        <ele>440.02</ele>
        <time>2021-09-23T07:41:31Z</time>
      </trkpt>
      <trkpt lat="47.75503" lon="5.12837">
        <ele>440.13</ele>
        <time>2021-09-23T07:41:33Z</time>
      </trkpt>
      <trkpt lat="47.75501" lon="5.12842">
        <ele>440.31</ele>
        <time>2021-09-23T07:41:36Z</time>
      </trkpt>
      <trkpt lat="47.75499" lon="5.12847">
        <ele>440.49</ele>
        <time>2021-09-23T07:41:39Z</time>
      </trkpt>
      <trkpt lat="47.75498" lon="5.12851">
        <ele>440.6</ele>
        <time>2021-09-23T07:41:41Z</time>
      </trkpt>
      <trkpt lat="47.75496" lon="5.12856">
        <ele>440.63</ele>
        <time>2021-09-23T07:41:44Z</time>
      </trkpt>
      <trkpt lat="47.75494" lon="5.12861">
        <ele>440.57</ele>
        <time>2021-09-23T07:41:47Z</time>
      </trkpt>
      <trkpt lat="47.75492" lon="5.12864">
        <ele>440.57</ele>
        <time>2021-09-23T07:41:49Z</time>
      </trkpt>
      <trkpt lat="47.75489" lon="5.12867">
        <ele>440.46</ele>
        <time>2021-09-23T07:41:51Z</time>
      </trkpt>
      <trkpt lat="47.75487" lon="5.12869">
        <ele>440.37</ele>
        <time>2021-09-23T07:41:53Z</time>
      </trkpt>
      <trkpt lat="47.75484" lon="5.12872">
        <ele>440.18</ele>
        <time>2021-09-23T07:41:56Z</time>
      </trkpt>
      <trkpt lat="47.75481" lon="5.12874">
        <ele>439.93</ele>
        <time>2021-09-23T07:41:58Z</time>
      </trkpt>
      <trkpt lat="47.75477" lon="5.12876">
        <ele>439.53</ele>
        <time>2021-09-23T07:42:00Z</time>
      </trkpt>
      <trkpt lat="47.75474" lon="5.12877">
        <ele>439.2</ele>
        <time>2021-09-23T07:42:02Z</time>
      </trkpt>
      <trkpt lat="47.7547" lon="5.12878">
        <ele>439</ele>
        <time>2021-09-23T07:42:04Z</time>
      </trkpt>
      <trkpt lat="47.75467" lon="5.12879">
        <ele>439</ele>
        <time>2021-09-23T07:42:06Z</time>
      </trkpt>
      <trkpt lat="47.75464" lon="5.1288">
        <ele>439</ele>
        <time>2021-09-23T07:42:08Z</time>
      </trkpt>
      <trkpt lat="47.75461" lon="5.12881">
        <ele>439</ele>
        <time>2021-09-23T07:42:11Z</time>
      </trkpt>
      <trkpt lat="47.75457" lon="5.12883">
        <ele>439</ele>
        <time>2021-09-23T07:42:14Z</time>
      </trkpt>
      <trkpt lat="47.75455" lon="5.12885">
        <ele>439</ele>
        <time>2021-09-23T07:42:16Z</time>
      </trkpt>
      <trkpt lat="47.75452" lon="5.12886">
        <ele>439</ele>
        <time>2021-09-23T07:42:18Z</time>
      </trkpt>
      <trkpt lat="47.75449" lon="5.12888">
        <ele>439</ele>
        <time>2021-09-23T07:42:20Z</time>
      </trkpt>
      <trkpt lat="47.75446" lon="5.12889">
        <ele>439</ele>
        <time>2021-09-23T07:42:23Z</time>
      </trkpt>
      <trkpt lat="47.75442" lon="5.1289">
        <ele>439.39</ele>
        <time>2021-09-23T07:42:26Z</time>
      </trkpt>
      <trkpt lat="47.75439" lon="5.12892">
        <ele>439.9</ele>
        <time>2021-09-23T07:42:29Z</time>
      </trkpt>
      <trkpt lat="47.75435" lon="5.12894">
        <ele>440.54</ele>
        <time>2021-09-23T07:42:32Z</time>
      </trkpt>
      <trkpt lat="47.75431" lon="5.12895">
        <ele>441.16</ele>
        <time>2021-09-23T07:42:35Z</time>
      </trkpt>
      <trkpt lat="47.75429" lon="5.12895">
        <ele>441.44</ele>
        <time>2021-09-23T07:42:37Z</time>
      </trkpt>
      <trkpt lat="47.75425" lon="5.12896">
        <ele>442.06</ele>
        <time>2021-09-23T07:42:39Z</time>
      </trkpt>
      <trkpt lat="47.75422" lon="5.12896">
        <ele>442.49</ele>
        <time>2021-09-23T07:42:41Z</time>
      </trkpt>
      <trkpt lat="47.75419" lon="5.12897">
        <ele>442.96</ele>
        <time>2021-09-23T07:42:44Z</time>
      </trkpt>
      <trkpt lat="47.75415" lon="5.12897">
        <ele>443.47</ele>
        <time>2021-09-23T07:42:47Z</time>
      </trkpt>
      <trkpt lat="47.75412" lon="5.12897">
        <ele>443.8</ele>
        <time>2021-09-23T07:42:50Z</time>
      </trkpt>
      <trkpt lat="47.75407" lon="5.12898">
        <ele>444.37</ele>
        <time>2021-09-23T07:42:53Z</time>
      </trkpt>
      <trkpt lat="47.75404" lon="5.12899">
        <ele>444.73</ele>
        <time>2021-09-23T07:42:55Z</time>
      </trkpt>
      <trkpt lat="47.754" lon="5.12899">
        <ele>445.16</ele>
        <time>2021-09-23T07:42:57Z</time>
      </trkpt>
      <trkpt lat="47.75396" lon="5.12899">
        <ele>445.6</ele>
        <time>2021-09-23T07:42:59Z</time>
      </trkpt>
      <trkpt lat="47.75393" lon="5.129">
        <ele>445.96</ele>
        <time>2021-09-23T07:43:01Z</time>
      </trkpt>
      <trkpt lat="47.7539" lon="5.12901">
        <ele>446.32</ele>
        <time>2021-09-23T07:43:04Z</time>
      </trkpt>
      <trkpt lat="47.75386" lon="5.12902">
        <ele>446.53</ele>
        <time>2021-09-23T07:43:07Z</time>
      </trkpt>
      <trkpt lat="47.75384" lon="5.12903">
        <ele>446.59</ele>
        <time>2021-09-23T07:43:09Z</time>
      </trkpt>
      <trkpt lat="47.7538" lon="5.12904">
        <ele>446.69</ele>
        <time>2021-09-23T07:43:12Z</time>
      </trkpt>
      <trkpt lat="47.75377" lon="5.12904">
        <ele>446.74</ele>
        <time>2021-09-23T07:43:14Z</time>
      </trkpt>
      <trkpt lat="47.75374" lon="5.12905">
        <ele>446.81</ele>
        <time>2021-09-23T07:43:16Z</time>
      </trkpt>
      <trkpt lat="47.75371" lon="5.12905">
        <ele>446.85</ele>
        <time>2021-09-23T07:43:18Z</time>
      </trkpt>
      <trkpt lat="47.75367" lon="5.12905">
        <ele>446.91</ele>
        <time>2021-09-23T07:43:20Z</time>
      </trkpt>
      <trkpt lat="47.75364" lon="5.12906">
        <ele>446.96</ele>
        <time>2021-09-23T07:43:22Z</time>
      </trkpt>
      <trkpt lat="47.75361" lon="5.12906">
        <ele>447.01</ele>
        <time>2021-09-23T07:43:24Z</time>
      </trkpt>
      <trkpt lat="47.75357" lon="5.12908">
        <ele>447.34</ele>
        <time>2021-09-23T07:43:27Z</time>
      </trkpt>
      <trkpt lat="47.75354" lon="5.12908">
        <ele>447.59</ele>
        <time>2021-09-23T07:43:29Z</time>
      </trkpt>
      <trkpt lat="47.75351" lon="5.12909">
        <ele>447.83</ele>
        <time>2021-09-23T07:43:31Z</time>
      </trkpt>
      <trkpt lat="47.75348" lon="5.1291">
        <ele>448.06</ele>
        <time>2021-09-23T07:43:33Z</time>
      </trkpt>
      <trkpt lat="47.75345" lon="5.1291">
        <ele>448.3</ele>
        <time>2021-09-23T07:43:35Z</time>
      </trkpt>
      <trkpt lat="47.75343" lon="5.12911">
        <ele>448.44</ele>
        <time>2021-09-23T07:43:37Z</time>
      </trkpt>
      <trkpt lat="47.75339" lon="5.12912">
        <ele>448.73</ele>
        <time>2021-09-23T07:43:40Z</time>
      </trkpt>
      <trkpt lat="47.75335" lon="5.12912">
        <ele>449.04</ele>
        <time>2021-09-23T07:43:43Z</time>
      </trkpt>
      <trkpt lat="47.75332" lon="5.12913">
        <ele>449.12</ele>
        <time>2021-09-23T07:43:45Z</time>
      </trkpt>
      <trkpt lat="47.75328" lon="5.12913">
        <ele>449.08</ele>
        <time>2021-09-23T07:43:48Z</time>
      </trkpt>
      <trkpt lat="47.75324" lon="5.12915">
        <ele>449.02</ele>
        <time>2021-09-23T07:43:51Z</time>
      </trkpt>
      <trkpt lat="47.75322" lon="5.12916">
        <ele>449</ele>
        <time>2021-09-23T07:43:53Z</time>
      </trkpt>
      <trkpt lat="47.75319" lon="5.12918">
        <ele>449.02</ele>
        <time>2021-09-23T07:43:55Z</time>
      </trkpt>
      <trkpt lat="47.75315" lon="5.12919">
        <ele>449</ele>
        <time>2021-09-23T07:43:57Z</time>
      </trkpt>
      <trkpt lat="47.7531" lon="5.12921">
        <ele>448.92</ele>
        <time>2021-09-23T07:43:59Z</time>
      </trkpt>
      <trkpt lat="47.75306" lon="5.12922">
        <ele>448.82</ele>
        <time>2021-09-23T07:44:01Z</time>
      </trkpt>
      <trkpt lat="47.75303" lon="5.12923">
        <ele>448.49</ele>
        <time>2021-09-23T07:44:03Z</time>
      </trkpt>
      <trkpt lat="47.753" lon="5.12923">
        <ele>448.15</ele>
        <time>2021-09-23T07:44:06Z</time>
      </trkpt>
      <trkpt lat="47.75297" lon="5.12924">
        <ele>447.83</ele>
        <time>2021-09-23T07:44:09Z</time>
      </trkpt>
      <trkpt lat="47.75294" lon="5.12924">
        <ele>447.51</ele>
        <time>2021-09-23T07:44:12Z</time>
      </trkpt>
      <trkpt lat="47.75291" lon="5.12924">
        <ele>447.19</ele>
        <time>2021-09-23T07:44:16Z</time>
      </trkpt>
      <trkpt lat="47.75287" lon="5.12925">
        <ele>446.83</ele>
        <time>2021-09-23T07:44:19Z</time>
      </trkpt>
      <trkpt lat="47.75283" lon="5.12926">
        <ele>446.51</ele>
        <time>2021-09-23T07:44:22Z</time>
      </trkpt>
      <trkpt lat="47.7528" lon="5.12927">
        <ele>446.32</ele>
        <time>2021-09-23T07:44:25Z</time>
      </trkpt>
      <trkpt lat="47.75277" lon="5.12928">
        <ele>446.33</ele>
        <time>2021-09-23T07:44:27Z</time>
      </trkpt>
      <trkpt lat="47.75273" lon="5.12928">
        <ele>446.91</ele>
        <time>2021-09-23T07:44:29Z</time>
      </trkpt>
      <trkpt lat="47.7527" lon="5.1293">
        <ele>447.45</ele>
        <time>2021-09-23T07:44:31Z</time>
      </trkpt>
      <trkpt lat="47.75267" lon="5.12931">
        <ele>447.87</ele>
        <time>2021-09-23T07:44:33Z</time>
      </trkpt>
      <trkpt lat="47.75263" lon="5.12931">
        <ele>448.37</ele>
        <time>2021-09-23T07:44:36Z</time>
      </trkpt>
      <trkpt lat="47.7526" lon="5.12931">
        <ele>448.74</ele>
        <time>2021-09-23T07:44:39Z</time>
      </trkpt>
      <trkpt lat="47.75256" lon="5.12931">
        <ele>449.23</ele>
        <time>2021-09-23T07:44:42Z</time>
      </trkpt>
      <trkpt lat="47.75253" lon="5.12932">
        <ele>449.55</ele>
        <time>2021-09-23T07:44:44Z</time>
      </trkpt>
      <trkpt lat="47.75249" lon="5.12933">
        <ele>449.83</ele>
        <time>2021-09-23T07:44:46Z</time>
      </trkpt>
      <trkpt lat="47.75246" lon="5.12934">
        <ele>449.79</ele>
        <time>2021-09-23T07:44:48Z</time>
      </trkpt>
      <trkpt lat="47.75243" lon="5.12934">
        <ele>449.81</ele>
        <time>2021-09-23T07:44:50Z</time>
      </trkpt>
      <trkpt lat="47.7524" lon="5.12934">
        <ele>449.84</ele>
        <time>2021-09-23T07:44:52Z</time>
      </trkpt>
      <trkpt lat="47.75237" lon="5.12934">
        <ele>449.87</ele>
        <time>2021-09-23T07:44:54Z</time>
      </trkpt>
      <trkpt lat="47.75234" lon="5.12935">
        <ele>449.86</ele>
        <time>2021-09-23T07:44:56Z</time>
      </trkpt>
      <trkpt lat="47.75231" lon="5.12936">
        <ele>449.88</ele>
        <time>2021-09-23T07:44:58Z</time>
      </trkpt>
      <trkpt lat="47.75228" lon="5.12936">
        <ele>449.92</ele>
        <time>2021-09-23T07:45:00Z</time>
      </trkpt>
      <trkpt lat="47.75225" lon="5.12936">
        <ele>449.96</ele>
        <time>2021-09-23T07:45:02Z</time>
      </trkpt>
      <trkpt lat="47.75222" lon="5.12936">
        <ele>449.96</ele>
        <time>2021-09-23T07:45:04Z</time>
      </trkpt>
      <trkpt lat="47.75218" lon="5.12936">
        <ele>449.24</ele>
        <time>2021-09-23T07:45:07Z</time>
      </trkpt>
      <trkpt lat="47.75216" lon="5.12936">
        <ele>448.88</ele>
        <time>2021-09-23T07:45:09Z</time>
      </trkpt>
      <trkpt lat="47.75212" lon="5.12936">
        <ele>448.16</ele>
        <time>2021-09-23T07:45:11Z</time>
      </trkpt>
      <trkpt lat="47.75209" lon="5.12936">
        <ele>447.62</ele>
        <time>2021-09-23T07:45:13Z</time>
      </trkpt>
      <trkpt lat="47.75206" lon="5.12935">
        <ele>447.08</ele>
        <time>2021-09-23T07:45:15Z</time>
      </trkpt>
      <trkpt lat="47.75203" lon="5.12935">
        <ele>446.54</ele>
        <time>2021-09-23T07:45:17Z</time>
      </trkpt>
      <trkpt lat="47.75199" lon="5.12934">
        <ele>445.82</ele>
        <time>2021-09-23T07:45:19Z</time>
      </trkpt>
      <trkpt lat="47.75195" lon="5.12932">
        <ele>445.1</ele>
        <time>2021-09-23T07:45:21Z</time>
      </trkpt>
      <trkpt lat="47.75191" lon="5.1293">
        <ele>444.13</ele>
        <time>2021-09-23T07:45:23Z</time>
      </trkpt>
      <trkpt lat="47.75187" lon="5.12929">
        <ele>443.12</ele>
        <time>2021-09-23T07:45:25Z</time>
      </trkpt>
      <trkpt lat="47.75185" lon="5.12928">
        <ele>442.62</ele>
        <time>2021-09-23T07:45:27Z</time>
      </trkpt>
      <trkpt lat="47.75182" lon="5.12925">
        <ele>441.86</ele>
        <time>2021-09-23T07:45:30Z</time>
      </trkpt>
      <trkpt lat="47.7518" lon="5.12921">
        <ele>441.36</ele>
        <time>2021-09-23T07:45:33Z</time>
      </trkpt>
      <trkpt lat="47.75179" lon="5.12916">
        <ele>441.12</ele>
        <time>2021-09-23T07:45:36Z</time>
      </trkpt>
      <trkpt lat="47.75178" lon="5.12911">
        <ele>440.98</ele>
        <time>2021-09-23T07:45:39Z</time>
      </trkpt>
      <trkpt lat="47.75178" lon="5.12906">
        <ele>441.08</ele>
        <time>2021-09-23T07:45:43Z</time>
      </trkpt>
      <trkpt lat="47.75178" lon="5.12901">
        <ele>441.19</ele>
        <time>2021-09-23T07:45:46Z</time>
      </trkpt>
      <trkpt lat="47.75177" lon="5.12895">
        <ele>441.09</ele>
        <time>2021-09-23T07:45:49Z</time>
      </trkpt>
      <trkpt lat="47.75176" lon="5.12891">
        <ele>440.97</ele>
        <time>2021-09-23T07:45:51Z</time>
      </trkpt>
      <trkpt lat="47.75176" lon="5.12887">
        <ele>441.02</ele>
        <time>2021-09-23T07:45:53Z</time>
      </trkpt>
      <trkpt lat="47.75176" lon="5.12881">
        <ele>441.02</ele>
        <time>2021-09-23T07:45:56Z</time>
      </trkpt>
      <trkpt lat="47.75176" lon="5.12876">
        <ele>441.02</ele>
        <time>2021-09-23T07:45:58Z</time>
      </trkpt>
      <trkpt lat="47.75176" lon="5.12871">
        <ele>441.02</ele>
        <time>2021-09-23T07:46:00Z</time>
      </trkpt>
      <trkpt lat="47.75175" lon="5.12866">
        <ele>440.8</ele>
        <time>2021-09-23T07:46:03Z</time>
      </trkpt>
      <trkpt lat="47.75174" lon="5.12861">
        <ele>440.58</ele>
        <time>2021-09-23T07:46:06Z</time>
      </trkpt>
      <trkpt lat="47.75174" lon="5.12855">
        <ele>440.53</ele>
        <time>2021-09-23T07:46:08Z</time>
      </trkpt>
      <trkpt lat="47.75174" lon="5.12851">
        <ele>440.49</ele>
        <time>2021-09-23T07:46:09Z</time>
      </trkpt>
      <trkpt lat="47.75174" lon="5.12844">
        <ele>440.42</ele>
        <time>2021-09-23T07:46:11Z</time>
      </trkpt>
      <trkpt lat="47.75174" lon="5.12839">
        <ele>440.37</ele>
        <time>2021-09-23T07:46:13Z</time>
      </trkpt>
      <trkpt lat="47.75176" lon="5.12835">
        <ele>440.7</ele>
        <time>2021-09-23T07:46:16Z</time>
      </trkpt>
      <trkpt lat="47.7518" lon="5.12833">
        <ele>441.38</ele>
        <time>2021-09-23T07:46:19Z</time>
      </trkpt>
      <trkpt lat="47.75182" lon="5.12831">
        <ele>441.64</ele>
        <time>2021-09-23T07:46:24Z</time>
      </trkpt>
      <trkpt lat="47.75185" lon="5.1283">
        <ele>442.14</ele>
        <time>2021-09-23T07:46:30Z</time>
      </trkpt>
      <trkpt lat="47.75189" lon="5.12829">
        <ele>442.83</ele>
        <time>2021-09-23T07:46:33Z</time>
      </trkpt>
      <trkpt lat="47.75192" lon="5.1283">
        <ele>443.43</ele>
        <time>2021-09-23T07:46:36Z</time>
      </trkpt>
      <trkpt lat="47.75196" lon="5.1283">
        <ele>444.1</ele>
        <time>2021-09-23T07:46:39Z</time>
      </trkpt>
      <trkpt lat="47.75199" lon="5.12829">
        <ele>444.5</ele>
        <time>2021-09-23T07:46:42Z</time>
      </trkpt>
      <trkpt lat="47.75202" lon="5.12828">
        <ele>444.9</ele>
        <time>2021-09-23T07:46:46Z</time>
      </trkpt>
      <trkpt lat="47.75205" lon="5.12829">
        <ele>445.36</ele>
        <time>2021-09-23T07:46:49Z</time>
      </trkpt>
      <trkpt lat="47.75207" lon="5.1283">
        <ele>445.69</ele>
        <time>2021-09-23T07:46:57Z</time>
      </trkpt>
      <trkpt lat="47.75205" lon="5.12829">
        <ele>445.36</ele>
        <time>2021-09-23T07:47:38Z</time>
      </trkpt>
      <trkpt lat="47.75204" lon="5.12824">
        <ele>445.04</ele>
        <time>2021-09-23T07:48:06Z</time>
      </trkpt>
      <trkpt lat="47.75205" lon="5.1282">
        <ele>445.04</ele>
        <time>2021-09-23T07:48:09Z</time>
      </trkpt>
      <trkpt lat="47.75208" lon="5.1282">
        <ele>445.47</ele>
        <time>2021-09-23T07:48:14Z</time>
      </trkpt>
      <trkpt lat="47.75208" lon="5.12825">
        <ele>445.65</ele>
        <time>2021-09-23T07:48:18Z</time>
      </trkpt>
      <trkpt lat="47.75206" lon="5.12829">
        <ele>445.51</ele>
        <time>2021-09-23T07:48:22Z</time>
      </trkpt>
      <trkpt lat="47.75203" lon="5.12831">
        <ele>445.15</ele>
        <time>2021-09-23T07:48:26Z</time>
      </trkpt>
      <trkpt lat="47.752" lon="5.12832">
        <ele>444.75</ele>
        <time>2021-09-23T07:48:31Z</time>
      </trkpt>
      <trkpt lat="47.75197" lon="5.12833">
        <ele>444.36</ele>
        <time>2021-09-23T07:48:36Z</time>
      </trkpt>
      <trkpt lat="47.75194" lon="5.12836">
        <ele>444.01</ele>
        <time>2021-09-23T07:48:40Z</time>
      </trkpt>
      <trkpt lat="47.75191" lon="5.12837">
        <ele>443.5</ele>
        <time>2021-09-23T07:48:43Z</time>
      </trkpt>
      <trkpt lat="47.7519" lon="5.12833">
        <ele>443.19</ele>
        <time>2021-09-23T07:48:53Z</time>
      </trkpt>
      <trkpt lat="47.75193" lon="5.12831">
        <ele>443.65</ele>
        <time>2021-09-23T07:49:02Z</time>
      </trkpt>
      <trkpt lat="47.75195" lon="5.12832">
        <ele>444.03</ele>
        <time>2021-09-23T07:49:18Z</time>
      </trkpt>
      <trkpt lat="47.75194" lon="5.12836">
        <ele>444.01</ele>
        <time>2021-09-23T07:49:32Z</time>
      </trkpt>
      <trkpt lat="47.75192" lon="5.12838">
        <ele>443.71</ele>
        <time>2021-09-23T07:49:45Z</time>
      </trkpt>
      <trkpt lat="47.75189" lon="5.12841">
        <ele>443.24</ele>
        <time>2021-09-23T07:50:00Z</time>
      </trkpt>
      <trkpt lat="47.75186" lon="5.12842">
        <ele>442.7</ele>
        <time>2021-09-23T07:50:04Z</time>
      </trkpt>
      <trkpt lat="47.75182" lon="5.12841">
        <ele>441.91</ele>
        <time>2021-09-23T07:50:07Z</time>
      </trkpt>
      <trkpt lat="47.75179" lon="5.12839">
        <ele>441.31</ele>
        <time>2021-09-23T07:50:10Z</time>
      </trkpt>
      <trkpt lat="47.75178" lon="5.12834">
        <ele>441.05</ele>
        <time>2021-09-23T07:50:13Z</time>
      </trkpt>
      <trkpt lat="47.75177" lon="5.12829">
        <ele>440.61</ele>
        <time>2021-09-23T07:50:17Z</time>
      </trkpt>
      <trkpt lat="47.75174" lon="5.1283">
        <ele>440.11</ele>
        <time>2021-09-23T07:50:23Z</time>
      </trkpt>
      <trkpt lat="47.75171" lon="5.12832">
        <ele>439.69</ele>
        <time>2021-09-23T07:50:28Z</time>
      </trkpt>
      <trkpt lat="47.75169" lon="5.12836">
        <ele>439.43</ele>
        <time>2021-09-23T07:50:33Z</time>
      </trkpt>
      <trkpt lat="47.75168" lon="5.12839">
        <ele>439.25</ele>
        <time>2021-09-23T07:50:36Z</time>
      </trkpt>
      <trkpt lat="47.75166" lon="5.12842">
        <ele>438.82</ele>
        <time>2021-09-23T07:50:40Z</time>
      </trkpt>
      <trkpt lat="47.75163" lon="5.12844">
        <ele>437.99</ele>
        <time>2021-09-23T07:50:44Z</time>
      </trkpt>
      <trkpt lat="47.75161" lon="5.12846">
        <ele>437.46</ele>
        <time>2021-09-23T07:50:50Z</time>
      </trkpt>
      <trkpt lat="47.75159" lon="5.12851">
        <ele>436.97</ele>
        <time>2021-09-23T07:50:55Z</time>
      </trkpt>
      <trkpt lat="47.75158" lon="5.12854">
        <ele>436.74</ele>
        <time>2021-09-23T07:50:58Z</time>
      </trkpt>
      <trkpt lat="47.75156" lon="5.12857">
        <ele>436.26</ele>
        <time>2021-09-23T07:51:02Z</time>
      </trkpt>
      <trkpt lat="47.75153" lon="5.1286">
        <ele>435.54</ele>
        <time>2021-09-23T07:51:07Z</time>
      </trkpt>
      <trkpt lat="47.75152" lon="5.12864">
        <ele>435.36</ele>
        <time>2021-09-23T07:51:11Z</time>
      </trkpt>
      <trkpt lat="47.7515" lon="5.12868">
        <ele>434.95</ele>
        <time>2021-09-23T07:51:15Z</time>
      </trkpt>
      <trkpt lat="47.75148" lon="5.12871">
        <ele>434.54</ele>
        <time>2021-09-23T07:51:18Z</time>
      </trkpt>
      <trkpt lat="47.75145" lon="5.12874">
        <ele>433.9</ele>
        <time>2021-09-23T07:51:22Z</time>
      </trkpt>
      <trkpt lat="47.75143" lon="5.12878">
        <ele>433.55</ele>
        <time>2021-09-23T07:51:25Z</time>
      </trkpt>
      <trkpt lat="47.75141" lon="5.12882">
        <ele>433.23</ele>
        <time>2021-09-23T07:51:29Z</time>
      </trkpt>
      <trkpt lat="47.7514" lon="5.12886">
        <ele>433.14</ele>
        <time>2021-09-23T07:51:34Z</time>
      </trkpt>
      <trkpt lat="47.75138" lon="5.1289">
        <ele>432.85</ele>
        <time>2021-09-23T07:51:38Z</time>
      </trkpt>
      <trkpt lat="47.75136" lon="5.12894">
        <ele>432.54</ele>
        <time>2021-09-23T07:51:41Z</time>
      </trkpt>
      <trkpt lat="47.75134" lon="5.12897">
        <ele>432.18</ele>
        <time>2021-09-23T07:51:44Z</time>
      </trkpt>
      <trkpt lat="47.75133" lon="5.12902">
        <ele>432.1</ele>
        <time>2021-09-23T07:51:49Z</time>
      </trkpt>
      <trkpt lat="47.75131" lon="5.12907">
        <ele>431.76</ele>
        <time>2021-09-23T07:51:52Z</time>
      </trkpt>
      <trkpt lat="47.75129" lon="5.1291">
        <ele>431.35</ele>
        <time>2021-09-23T07:51:55Z</time>
      </trkpt>
      <trkpt lat="47.75127" lon="5.12914">
        <ele>430.95</ele>
        <time>2021-09-23T07:51:59Z</time>
      </trkpt>
      <trkpt lat="47.75124" lon="5.12918">
        <ele>430.2</ele>
        <time>2021-09-23T07:52:04Z</time>
      </trkpt>
      <trkpt lat="47.75122" lon="5.1292">
        <ele>429.6</ele>
        <time>2021-09-23T07:52:07Z</time>
      </trkpt>
      <trkpt lat="47.7512" lon="5.12923">
        <ele>428.93</ele>
        <time>2021-09-23T07:52:12Z</time>
      </trkpt>
      <trkpt lat="47.75119" lon="5.12928">
        <ele>428.4</ele>
        <time>2021-09-23T07:52:17Z</time>
      </trkpt>
      <trkpt lat="47.75119" lon="5.12932">
        <ele>428.2</ele>
        <time>2021-09-23T07:52:20Z</time>
      </trkpt>
      <trkpt lat="47.75119" lon="5.12936">
        <ele>427.99</ele>
        <time>2021-09-23T07:52:23Z</time>
      </trkpt>
      <trkpt lat="47.75117" lon="5.12938">
        <ele>427.27</ele>
        <time>2021-09-23T07:52:27Z</time>
      </trkpt>
      <trkpt lat="47.75114" lon="5.1294">
        <ele>426.22</ele>
        <time>2021-09-23T07:52:31Z</time>
      </trkpt>
      <trkpt lat="47.75112" lon="5.12945">
        <ele>425.31</ele>
        <time>2021-09-23T07:52:36Z</time>
      </trkpt>
      <trkpt lat="47.7511" lon="5.1295">
        <ele>425.17</ele>
        <time>2021-09-23T07:52:39Z</time>
      </trkpt>
      <trkpt lat="47.75108" lon="5.12953">
        <ele>425.23</ele>
        <time>2021-09-23T07:52:42Z</time>
      </trkpt>
      <trkpt lat="47.75105" lon="5.12957">
        <ele>425.33</ele>
        <time>2021-09-23T07:52:45Z</time>
      </trkpt>
      <trkpt lat="47.75103" lon="5.12961">
        <ele>425.48</ele>
        <time>2021-09-23T07:52:48Z</time>
      </trkpt>
      <trkpt lat="47.75103" lon="5.12966">
        <ele>425.71</ele>
        <time>2021-09-23T07:52:51Z</time>
      </trkpt>
      <trkpt lat="47.75102" lon="5.1297">
        <ele>425.89</ele>
        <time>2021-09-23T07:52:56Z</time>
      </trkpt>
      <trkpt lat="47.75099" lon="5.12972">
        <ele>425.99</ele>
        <time>2021-09-23T07:53:02Z</time>
      </trkpt>
      <trkpt lat="47.75097" lon="5.12975">
        <ele>426</ele>
        <time>2021-09-23T07:53:06Z</time>
      </trkpt>
      <trkpt lat="47.75095" lon="5.12978">
        <ele>426</ele>
        <time>2021-09-23T07:53:09Z</time>
      </trkpt>
      <trkpt lat="47.75092" lon="5.12981">
        <ele>426</ele>
        <time>2021-09-23T07:53:13Z</time>
      </trkpt>
      <trkpt lat="47.7509" lon="5.12984">
        <ele>426</ele>
        <time>2021-09-23T07:53:17Z</time>
      </trkpt>
      <trkpt lat="47.75089" lon="5.12987">
        <ele>426</ele>
        <time>2021-09-23T07:53:21Z</time>
      </trkpt>
      <trkpt lat="47.75088" lon="5.12992">
        <ele>426</ele>
        <time>2021-09-23T07:53:24Z</time>
      </trkpt>
      <trkpt lat="47.75088" lon="5.12996">
        <ele>426</ele>
        <time>2021-09-23T07:53:27Z</time>
      </trkpt>
      <trkpt lat="47.75087" lon="5.13001">
        <ele>425.94</ele>
        <time>2021-09-23T07:53:30Z</time>
      </trkpt>
      <trkpt lat="47.75085" lon="5.13005">
        <ele>425.66</ele>
        <time>2021-09-23T07:53:33Z</time>
      </trkpt>
      <trkpt lat="47.75083" lon="5.13008">
        <ele>425.44</ele>
        <time>2021-09-23T07:53:37Z</time>
      </trkpt>
      <trkpt lat="47.75083" lon="5.13013">
        <ele>425.08</ele>
        <time>2021-09-23T07:53:41Z</time>
      </trkpt>
      <trkpt lat="47.75082" lon="5.13018">
        <ele>424.77</ele>
        <time>2021-09-23T07:53:49Z</time>
      </trkpt>
      <trkpt lat="47.7508" lon="5.1302">
        <ele>424.71</ele>
        <time>2021-09-23T07:53:53Z</time>
      </trkpt>
      <trkpt lat="47.75077" lon="5.13023">
        <ele>424.61</ele>
        <time>2021-09-23T07:53:57Z</time>
      </trkpt>
      <trkpt lat="47.75075" lon="5.13027">
        <ele>424.36</ele>
        <time>2021-09-23T07:54:00Z</time>
      </trkpt>
      <trkpt lat="47.75074" lon="5.13032">
        <ele>424.08</ele>
        <time>2021-09-23T07:54:04Z</time>
      </trkpt>
      <trkpt lat="47.75073" lon="5.13037">
        <ele>423.83</ele>
        <time>2021-09-23T07:54:07Z</time>
      </trkpt>
      <trkpt lat="47.75073" lon="5.13042">
        <ele>423.54</ele>
        <time>2021-09-23T07:54:09Z</time>
      </trkpt>
      <trkpt lat="47.75071" lon="5.13046">
        <ele>423.42</ele>
        <time>2021-09-23T07:54:12Z</time>
      </trkpt>
      <trkpt lat="47.75069" lon="5.13049">
        <ele>423.38</ele>
        <time>2021-09-23T07:54:17Z</time>
      </trkpt>
      <trkpt lat="47.75066" lon="5.13051">
        <ele>423.47</ele>
        <time>2021-09-23T07:54:22Z</time>
      </trkpt>
      <trkpt lat="47.75064" lon="5.13054">
        <ele>423.47</ele>
        <time>2021-09-23T07:54:27Z</time>
      </trkpt>
      <trkpt lat="47.75062" lon="5.13057">
        <ele>423.4</ele>
        <time>2021-09-23T07:54:31Z</time>
      </trkpt>
      <trkpt lat="47.75059" lon="5.13058">
        <ele>423.51</ele>
        <time>2021-09-23T07:54:34Z</time>
      </trkpt>
      <trkpt lat="47.75057" lon="5.13062">
        <ele>423.22</ele>
        <time>2021-09-23T07:54:39Z</time>
      </trkpt>
      <trkpt lat="47.75056" lon="5.13067">
        <ele>422.75</ele>
        <time>2021-09-23T07:54:41Z</time>
      </trkpt>
      <trkpt lat="47.75056" lon="5.13072">
        <ele>422.21</ele>
        <time>2021-09-23T07:54:43Z</time>
      </trkpt>
      <trkpt lat="47.75055" lon="5.13077">
        <ele>421.61</ele>
        <time>2021-09-23T07:54:45Z</time>
      </trkpt>
      <trkpt lat="47.75054" lon="5.13081">
        <ele>421.07</ele>
        <time>2021-09-23T07:54:47Z</time>
      </trkpt>
      <trkpt lat="47.75052" lon="5.13085">
        <ele>420.64</ele>
        <time>2021-09-23T07:54:51Z</time>
      </trkpt>
      <trkpt lat="47.7505" lon="5.13089">
        <ele>420.52</ele>
        <time>2021-09-23T07:54:58Z</time>
      </trkpt>
      <trkpt lat="47.75047" lon="5.13092">
        <ele>420.36</ele>
        <time>2021-09-23T07:55:05Z</time>
      </trkpt>
      <trkpt lat="47.75044" lon="5.13094">
        <ele>420.23</ele>
        <time>2021-09-23T07:55:08Z</time>
      </trkpt>
      <trkpt lat="47.75042" lon="5.13098">
        <ele>420.31</ele>
        <time>2021-09-23T07:55:11Z</time>
      </trkpt>
      <trkpt lat="47.75043" lon="5.13103">
        <ele>420.6</ele>
        <time>2021-09-23T07:55:14Z</time>
      </trkpt>
      <trkpt lat="47.75043" lon="5.13108">
        <ele>420.85</ele>
        <time>2021-09-23T07:55:17Z</time>
      </trkpt>
      <trkpt lat="47.75043" lon="5.13112">
        <ele>420.97</ele>
        <time>2021-09-23T07:55:21Z</time>
      </trkpt>
      <trkpt lat="47.7504" lon="5.13114">
        <ele>420.9</ele>
        <time>2021-09-23T07:55:27Z</time>
      </trkpt>
      <trkpt lat="47.75037" lon="5.13117">
        <ele>420.79</ele>
        <time>2021-09-23T07:55:31Z</time>
      </trkpt>
      <trkpt lat="47.75035" lon="5.1312">
        <ele>420.68</ele>
        <time>2021-09-23T07:55:34Z</time>
      </trkpt>
      <trkpt lat="47.75032" lon="5.13124">
        <ele>420.54</ele>
        <time>2021-09-23T07:55:37Z</time>
      </trkpt>
      <trkpt lat="47.7503" lon="5.13127">
        <ele>420.43</ele>
        <time>2021-09-23T07:55:40Z</time>
      </trkpt>
      <trkpt lat="47.75027" lon="5.1313">
        <ele>420.21</ele>
        <time>2021-09-23T07:55:43Z</time>
      </trkpt>
      <trkpt lat="47.75025" lon="5.13133">
        <ele>419.85</ele>
        <time>2021-09-23T07:55:46Z</time>
      </trkpt>
      <trkpt lat="47.75023" lon="5.13137">
        <ele>419.52</ele>
        <time>2021-09-23T07:55:49Z</time>
      </trkpt>
      <trkpt lat="47.75021" lon="5.13141">
        <ele>419.36</ele>
        <time>2021-09-23T07:55:52Z</time>
      </trkpt>
      <trkpt lat="47.7502" lon="5.13144">
        <ele>419.4</ele>
        <time>2021-09-23T07:55:55Z</time>
      </trkpt>
      <trkpt lat="47.75019" lon="5.13148">
        <ele>419.48</ele>
        <time>2021-09-23T07:55:58Z</time>
      </trkpt>
      <trkpt lat="47.75017" lon="5.13152">
        <ele>419.49</ele>
        <time>2021-09-23T07:56:01Z</time>
      </trkpt>
      <trkpt lat="47.75015" lon="5.13158">
        <ele>419.62</ele>
        <time>2021-09-23T07:56:04Z</time>
      </trkpt>
      <trkpt lat="47.75014" lon="5.13162">
        <ele>419.76</ele>
        <time>2021-09-23T07:56:08Z</time>
      </trkpt>
      <trkpt lat="47.75012" lon="5.13166">
        <ele>419.83</ele>
        <time>2021-09-23T07:56:11Z</time>
      </trkpt>
      <trkpt lat="47.7501" lon="5.13169">
        <ele>419.77</ele>
        <time>2021-09-23T07:56:13Z</time>
      </trkpt>
      <trkpt lat="47.75007" lon="5.13173">
        <ele>419.67</ele>
        <time>2021-09-23T07:56:15Z</time>
      </trkpt>
      <trkpt lat="47.75004" lon="5.13176">
        <ele>419.58</ele>
        <time>2021-09-23T07:56:18Z</time>
      </trkpt>
      <trkpt lat="47.75004" lon="5.13181">
        <ele>419.73</ele>
        <time>2021-09-23T07:56:22Z</time>
      </trkpt>
      <trkpt lat="47.75004" lon="5.13186">
        <ele>419.88</ele>
        <time>2021-09-23T07:56:25Z</time>
      </trkpt>
      <trkpt lat="47.75004" lon="5.13191">
        <ele>420.04</ele>
        <time>2021-09-23T07:56:28Z</time>
      </trkpt>
      <trkpt lat="47.75001" lon="5.13193">
        <ele>419.99</ele>
        <time>2021-09-23T07:56:34Z</time>
      </trkpt>
      <trkpt lat="47.74998" lon="5.13194">
        <ele>419.77</ele>
        <time>2021-09-23T07:56:39Z</time>
      </trkpt>
      <trkpt lat="47.74996" lon="5.13197">
        <ele>419.5</ele>
        <time>2021-09-23T07:56:43Z</time>
      </trkpt>
      <trkpt lat="47.74994" lon="5.13202">
        <ele>419.2</ele>
        <time>2021-09-23T07:56:46Z</time>
      </trkpt>
      <trkpt lat="47.74993" lon="5.13206">
        <ele>419.04</ele>
        <time>2021-09-23T07:56:48Z</time>
      </trkpt>
      <trkpt lat="47.7499" lon="5.1321">
        <ele>418.76</ele>
        <time>2021-09-23T07:56:51Z</time>
      </trkpt>
      <trkpt lat="47.74988" lon="5.13213">
        <ele>418.61</ele>
        <time>2021-09-23T07:56:55Z</time>
      </trkpt>
      <trkpt lat="47.74986" lon="5.13217">
        <ele>418.49</ele>
        <time>2021-09-23T07:56:59Z</time>
      </trkpt>
      <trkpt lat="47.74985" lon="5.13221">
        <ele>418.46</ele>
        <time>2021-09-23T07:57:02Z</time>
      </trkpt>
      <trkpt lat="47.74983" lon="5.13224">
        <ele>418.39</ele>
        <time>2021-09-23T07:57:05Z</time>
      </trkpt>
      <trkpt lat="47.74981" lon="5.13228">
        <ele>418.32</ele>
        <time>2021-09-23T07:57:08Z</time>
      </trkpt>
      <trkpt lat="47.74979" lon="5.13233">
        <ele>418.24</ele>
        <time>2021-09-23T07:57:11Z</time>
      </trkpt>
      <trkpt lat="47.74979" lon="5.13237">
        <ele>418.24</ele>
        <time>2021-09-23T07:57:13Z</time>
      </trkpt>
      <trkpt lat="47.74977" lon="5.13242">
        <ele>418.17</ele>
        <time>2021-09-23T07:57:16Z</time>
      </trkpt>
      <trkpt lat="47.74975" lon="5.13245">
        <ele>418.1</ele>
        <time>2021-09-23T07:57:20Z</time>
      </trkpt>
      <trkpt lat="47.74973" lon="5.13249">
        <ele>418.03</ele>
        <time>2021-09-23T07:57:24Z</time>
      </trkpt>
      <trkpt lat="47.74971" lon="5.13254">
        <ele>417.74</ele>
        <time>2021-09-23T07:57:28Z</time>
      </trkpt>
      <trkpt lat="47.74968" lon="5.13259">
        <ele>417.32</ele>
        <time>2021-09-23T07:57:31Z</time>
      </trkpt>
      <trkpt lat="47.74966" lon="5.13261">
        <ele>417.11</ele>
        <time>2021-09-23T07:57:33Z</time>
      </trkpt>
      <trkpt lat="47.74964" lon="5.13264">
        <ele>416.91</ele>
        <time>2021-09-23T07:57:36Z</time>
      </trkpt>
      <trkpt lat="47.74962" lon="5.13267">
        <ele>416.73</ele>
        <time>2021-09-23T07:57:39Z</time>
      </trkpt>
      <trkpt lat="47.74962" lon="5.13273">
        <ele>416.68</ele>
        <time>2021-09-23T07:57:42Z</time>
      </trkpt>
      <trkpt lat="47.74961" lon="5.13278">
        <ele>416.61</ele>
        <time>2021-09-23T07:57:45Z</time>
      </trkpt>
      <trkpt lat="47.7496" lon="5.13283">
        <ele>416.83</ele>
        <time>2021-09-23T07:57:48Z</time>
      </trkpt>
      <trkpt lat="47.74958" lon="5.13285">
        <ele>416.88</ele>
        <time>2021-09-23T07:57:51Z</time>
      </trkpt>
      <trkpt lat="47.74955" lon="5.13287">
        <ele>416.92</ele>
        <time>2021-09-23T07:57:54Z</time>
      </trkpt>
      <trkpt lat="47.74952" lon="5.1329">
        <ele>417.03</ele>
        <time>2021-09-23T07:57:58Z</time>
      </trkpt>
      <trkpt lat="47.7495" lon="5.13293">
        <ele>417.19</ele>
        <time>2021-09-23T07:58:04Z</time>
      </trkpt>
      <trkpt lat="47.74948" lon="5.13295">
        <ele>417.29</ele>
        <time>2021-09-23T07:58:07Z</time>
      </trkpt>
      <trkpt lat="47.74946" lon="5.13299">
        <ele>417.54</ele>
        <time>2021-09-23T07:58:10Z</time>
      </trkpt>
      <trkpt lat="47.74944" lon="5.13303">
        <ele>417.8</ele>
        <time>2021-09-23T07:58:14Z</time>
      </trkpt>
      <trkpt lat="47.74943" lon="5.13307">
        <ele>418</ele>
        <time>2021-09-23T07:58:18Z</time>
      </trkpt>
      <trkpt lat="47.74941" lon="5.1331">
        <ele>418.04</ele>
        <time>2021-09-23T07:58:22Z</time>
      </trkpt>
      <trkpt lat="47.74939" lon="5.13313">
        <ele>418.07</ele>
        <time>2021-09-23T07:58:25Z</time>
      </trkpt>
      <trkpt lat="47.74937" lon="5.13317">
        <ele>418.14</ele>
        <time>2021-09-23T07:58:29Z</time>
      </trkpt>
      <trkpt lat="47.74936" lon="5.13321">
        <ele>418.25</ele>
        <time>2021-09-23T07:58:33Z</time>
      </trkpt>
      <trkpt lat="47.74935" lon="5.13327">
        <ele>418.43</ele>
        <time>2021-09-23T07:58:37Z</time>
      </trkpt>
      <trkpt lat="47.74933" lon="5.13332">
        <ele>418.54</ele>
        <time>2021-09-23T07:58:40Z</time>
      </trkpt>
      <trkpt lat="47.74932" lon="5.13336">
        <ele>418.6</ele>
        <time>2021-09-23T07:58:42Z</time>
      </trkpt>
      <trkpt lat="47.7493" lon="5.1334">
        <ele>418.6</ele>
        <time>2021-09-23T07:58:45Z</time>
      </trkpt>
      <trkpt lat="47.74928" lon="5.13343">
        <ele>418.55</ele>
        <time>2021-09-23T07:58:48Z</time>
      </trkpt>
      <trkpt lat="47.74926" lon="5.13345">
        <ele>418.48</ele>
        <time>2021-09-23T07:58:51Z</time>
      </trkpt>
      <trkpt lat="47.74923" lon="5.13347">
        <ele>418.34</ele>
        <time>2021-09-23T07:58:55Z</time>
      </trkpt>
      <trkpt lat="47.74921" lon="5.13351">
        <ele>418.26</ele>
        <time>2021-09-23T07:58:59Z</time>
      </trkpt>
      <trkpt lat="47.74919" lon="5.13355">
        <ele>418.15</ele>
        <time>2021-09-23T07:59:02Z</time>
      </trkpt>
      <trkpt lat="47.74917" lon="5.13359">
        <ele>418.02</ele>
        <time>2021-09-23T07:59:04Z</time>
      </trkpt>
      <trkpt lat="47.74916" lon="5.13363">
        <ele>417.97</ele>
        <time>2021-09-23T07:59:06Z</time>
      </trkpt>
      <trkpt lat="47.74914" lon="5.13367">
        <ele>417.88</ele>
        <time>2021-09-23T07:59:09Z</time>
      </trkpt>
      <trkpt lat="47.74912" lon="5.13371">
        <ele>417.77</ele>
        <time>2021-09-23T07:59:13Z</time>
      </trkpt>
      <trkpt lat="47.7491" lon="5.13375">
        <ele>417.64</ele>
        <time>2021-09-23T07:59:17Z</time>
      </trkpt>
      <trkpt lat="47.74908" lon="5.13379">
        <ele>417.49</ele>
        <time>2021-09-23T07:59:21Z</time>
      </trkpt>
      <trkpt lat="47.74907" lon="5.13382">
        <ele>417.39</ele>
        <time>2021-09-23T07:59:25Z</time>
      </trkpt>
      <trkpt lat="47.74905" lon="5.13386">
        <ele>417.2</ele>
        <time>2021-09-23T07:59:32Z</time>
      </trkpt>
      <trkpt lat="47.74904" lon="5.1339">
        <ele>417.1</ele>
        <time>2021-09-23T07:59:35Z</time>
      </trkpt>
      <trkpt lat="47.74904" lon="5.13395">
        <ele>417.17</ele>
        <time>2021-09-23T07:59:38Z</time>
      </trkpt>
      <trkpt lat="47.74904" lon="5.13399">
        <ele>417.22</ele>
        <time>2021-09-23T07:59:42Z</time>
      </trkpt>
      <trkpt lat="47.74902" lon="5.13403">
        <ele>417.24</ele>
        <time>2021-09-23T07:59:48Z</time>
      </trkpt>
      <trkpt lat="47.749" lon="5.13406">
        <ele>417.29</ele>
        <time>2021-09-23T07:59:52Z</time>
      </trkpt>
      <trkpt lat="47.74898" lon="5.13409">
        <ele>417.39</ele>
        <time>2021-09-23T07:59:56Z</time>
      </trkpt>
      <trkpt lat="47.74896" lon="5.13414">
        <ele>417.63</ele>
        <time>2021-09-23T08:00:02Z</time>
      </trkpt>
      <trkpt lat="47.74894" lon="5.13418">
        <ele>417.85</ele>
        <time>2021-09-23T08:00:05Z</time>
      </trkpt>
      <trkpt lat="47.74892" lon="5.1342">
        <ele>417.98</ele>
        <time>2021-09-23T08:00:08Z</time>
      </trkpt>
      <trkpt lat="47.7489" lon="5.13423">
        <ele>418.17</ele>
        <time>2021-09-23T08:00:12Z</time>
      </trkpt>
      <trkpt lat="47.74887" lon="5.13427">
        <ele>418.46</ele>
        <time>2021-09-23T08:00:16Z</time>
      </trkpt>
      <trkpt lat="47.74885" lon="5.1343">
        <ele>418.63</ele>
        <time>2021-09-23T08:00:21Z</time>
      </trkpt>
      <trkpt lat="47.74883" lon="5.13434">
        <ele>418.78</ele>
        <time>2021-09-23T08:00:25Z</time>
      </trkpt>
      <trkpt lat="47.7488" lon="5.13436">
        <ele>418.89</ele>
        <time>2021-09-23T08:00:28Z</time>
      </trkpt>
      <trkpt lat="47.74878" lon="5.13438">
        <ele>418.95</ele>
        <time>2021-09-23T08:00:31Z</time>
      </trkpt>
      <trkpt lat="47.74877" lon="5.13442">
        <ele>418.99</ele>
        <time>2021-09-23T08:00:38Z</time>
      </trkpt>
      <trkpt lat="47.74877" lon="5.13447">
        <ele>419.08</ele>
        <time>2021-09-23T08:00:42Z</time>
      </trkpt>
      <trkpt lat="47.74877" lon="5.13452">
        <ele>419.23</ele>
        <time>2021-09-23T08:00:45Z</time>
      </trkpt>
      <trkpt lat="47.74875" lon="5.13456">
        <ele>419.42</ele>
        <time>2021-09-23T08:00:50Z</time>
      </trkpt>
      <trkpt lat="47.74874" lon="5.1346">
        <ele>419.6</ele>
        <time>2021-09-23T08:00:55Z</time>
      </trkpt>
      <trkpt lat="47.74874" lon="5.13467">
        <ele>419.87</ele>
        <time>2021-09-23T08:00:57Z</time>
      </trkpt>
      <trkpt lat="47.74874" lon="5.13474">
        <ele>420.07</ele>
        <time>2021-09-23T08:00:59Z</time>
      </trkpt>
      <trkpt lat="47.74873" lon="5.13479">
        <ele>420.11</ele>
        <time>2021-09-23T08:01:02Z</time>
      </trkpt>
      <trkpt lat="47.74871" lon="5.13483">
        <ele>420.18</ele>
        <time>2021-09-23T08:01:06Z</time>
      </trkpt>
      <trkpt lat="47.74869" lon="5.13479">
        <ele>420.33</ele>
        <time>2021-09-23T08:01:14Z</time>
      </trkpt>
      <trkpt lat="47.74866" lon="5.13478">
        <ele>420.51</ele>
        <time>2021-09-23T08:01:20Z</time>
      </trkpt>
      <trkpt lat="47.74864" lon="5.13481">
        <ele>420.54</ele>
        <time>2021-09-23T08:01:25Z</time>
      </trkpt>
      <trkpt lat="47.74863" lon="5.13485">
        <ele>420.47</ele>
        <time>2021-09-23T08:01:29Z</time>
      </trkpt>
      <trkpt lat="47.74861" lon="5.1349">
        <ele>420.35</ele>
        <time>2021-09-23T08:01:33Z</time>
      </trkpt>
      <trkpt lat="47.7486" lon="5.13494">
        <ele>420.12</ele>
        <time>2021-09-23T08:01:36Z</time>
      </trkpt>
      <trkpt lat="47.74858" lon="5.13498">
        <ele>419.83</ele>
        <time>2021-09-23T08:01:39Z</time>
      </trkpt>
      <trkpt lat="47.74855" lon="5.135">
        <ele>419.56</ele>
        <time>2021-09-23T08:01:43Z</time>
      </trkpt>
      <trkpt lat="47.74852" lon="5.135">
        <ele>419.34</ele>
        <time>2021-09-23T08:01:47Z</time>
      </trkpt>
      <trkpt lat="47.74849" lon="5.135">
        <ele>419.13</ele>
        <time>2021-09-23T08:01:52Z</time>
      </trkpt>
      <trkpt lat="47.74847" lon="5.13499">
        <ele>418.98</ele>
        <time>2021-09-23T08:02:07Z</time>
      </trkpt>
      <trkpt lat="47.74845" lon="5.13503">
        <ele>419.06</ele>
        <time>2021-09-23T08:03:02Z</time>
      </trkpt>
      <trkpt lat="47.74845" lon="5.13507">
        <ele>419.34</ele>
        <time>2021-09-23T08:03:07Z</time>
      </trkpt>
      <trkpt lat="47.74846" lon="5.13512">
        <ele>419.78</ele>
        <time>2021-09-23T08:03:10Z</time>
      </trkpt>
      <trkpt lat="47.74846" lon="5.13517">
        <ele>420.14</ele>
        <time>2021-09-23T08:03:14Z</time>
      </trkpt>
      <trkpt lat="47.74846" lon="5.13522">
        <ele>420.5</ele>
        <time>2021-09-23T08:03:18Z</time>
      </trkpt>
      <trkpt lat="47.74846" lon="5.13526">
        <ele>420.78</ele>
        <time>2021-09-23T08:03:26Z</time>
      </trkpt>
      <trkpt lat="47.74844" lon="5.1353">
        <ele>420.98</ele>
        <time>2021-09-23T08:03:31Z</time>
      </trkpt>
      <trkpt lat="47.74842" lon="5.13526">
        <ele>420.5</ele>
        <time>2021-09-23T08:03:38Z</time>
      </trkpt>
      <trkpt lat="47.74841" lon="5.13523">
        <ele>420.21</ele>
        <time>2021-09-23T08:03:43Z</time>
      </trkpt>
      <trkpt lat="47.74839" lon="5.13526">
        <ele>420.28</ele>
        <time>2021-09-23T08:03:49Z</time>
      </trkpt>
      <trkpt lat="47.74837" lon="5.13529">
        <ele>420.39</ele>
        <time>2021-09-23T08:04:01Z</time>
      </trkpt>
      <trkpt lat="47.74835" lon="5.13528">
        <ele>420.14</ele>
        <time>2021-09-23T08:04:16Z</time>
      </trkpt>
      <trkpt lat="47.74825" lon="5.13518">
        <ele>419.7</ele>
        <time>2021-09-23T08:06:55Z</time>
      </trkpt>
      <trkpt lat="47.74824" lon="5.135">
        <ele>418.67</ele>
        <time>2021-09-23T08:07:08Z</time>
      </trkpt>
      <trkpt lat="47.74822" lon="5.13482">
        <ele>417.9</ele>
        <time>2021-09-23T08:07:20Z</time>
      </trkpt>
      <trkpt lat="47.74819" lon="5.13465">
        <ele>417.63</ele>
        <time>2021-09-23T08:07:35Z</time>
      </trkpt>
      <trkpt lat="47.74815" lon="5.13448">
        <ele>417.68</ele>
        <time>2021-09-23T08:07:47Z</time>
      </trkpt>
      <trkpt lat="47.74812" lon="5.1343">
        <ele>416.67</ele>
        <time>2021-09-23T08:07:59Z</time>
      </trkpt>
      <trkpt lat="47.74812" lon="5.13413">
        <ele>415.59</ele>
        <time>2021-09-23T08:08:12Z</time>
      </trkpt>
      <trkpt lat="47.74812" lon="5.13395">
        <ele>413.95</ele>
        <time>2021-09-23T08:08:22Z</time>
      </trkpt>
      <trkpt lat="47.74812" lon="5.13378">
        <ele>412.22</ele>
        <time>2021-09-23T08:08:30Z</time>
      </trkpt>
      <trkpt lat="47.74812" lon="5.13368">
        <ele>411.14</ele>
        <time>2021-09-23T08:08:35Z</time>
      </trkpt>
      <trkpt lat="47.7481" lon="5.1336">
        <ele>409.87</ele>
        <time>2021-09-23T08:08:40Z</time>
      </trkpt>
      <trkpt lat="47.7481" lon="5.13352">
        <ele>409.2</ele>
        <time>2021-09-23T08:08:43Z</time>
      </trkpt>
      <trkpt lat="47.7481" lon="5.13347">
        <ele>408.78</ele>
        <time>2021-09-23T08:08:45Z</time>
      </trkpt>
      <trkpt lat="47.7481" lon="5.13343">
        <ele>408.45</ele>
        <time>2021-09-23T08:08:47Z</time>
      </trkpt>
      <trkpt lat="47.7481" lon="5.13337">
        <ele>407.95</ele>
        <time>2021-09-23T08:08:50Z</time>
      </trkpt>
      <trkpt lat="47.74809" lon="5.13332">
        <ele>407.41</ele>
        <time>2021-09-23T08:08:53Z</time>
      </trkpt>
      <trkpt lat="47.74808" lon="5.13328">
        <ele>406.98</ele>
        <time>2021-09-23T08:08:56Z</time>
      </trkpt>
      <trkpt lat="47.74807" lon="5.13324">
        <ele>406.55</ele>
        <time>2021-09-23T08:09:00Z</time>
      </trkpt>
      <trkpt lat="47.74807" lon="5.13318">
        <ele>406.13</ele>
        <time>2021-09-23T08:09:03Z</time>
      </trkpt>
      <trkpt lat="47.74807" lon="5.13313">
        <ele>405.78</ele>
        <time>2021-09-23T08:09:05Z</time>
      </trkpt>
      <trkpt lat="47.74807" lon="5.13309">
        <ele>405.5</ele>
        <time>2021-09-23T08:09:08Z</time>
      </trkpt>
      <trkpt lat="47.74807" lon="5.13304">
        <ele>405.25</ele>
        <time>2021-09-23T08:09:12Z</time>
      </trkpt>
      <trkpt lat="47.74806" lon="5.133">
        <ele>405.07</ele>
        <time>2021-09-23T08:09:15Z</time>
      </trkpt>
      <trkpt lat="47.74803" lon="5.13297">
        <ele>405</ele>
        <time>2021-09-23T08:09:18Z</time>
      </trkpt>
      <trkpt lat="47.74801" lon="5.13293">
        <ele>405</ele>
        <time>2021-09-23T08:09:21Z</time>
      </trkpt>
      <trkpt lat="47.748" lon="5.13289">
        <ele>405</ele>
        <time>2021-09-23T08:09:23Z</time>
      </trkpt>
      <trkpt lat="47.74798" lon="5.13285">
        <ele>405</ele>
        <time>2021-09-23T08:09:25Z</time>
      </trkpt>
      <trkpt lat="47.74798" lon="5.13281">
        <ele>405</ele>
        <time>2021-09-23T08:09:27Z</time>
      </trkpt>
      <trkpt lat="47.74797" lon="5.13275">
        <ele>404.84</ele>
        <time>2021-09-23T08:09:30Z</time>
      </trkpt>
      <trkpt lat="47.74797" lon="5.13269">
        <ele>404.49</ele>
        <time>2021-09-23T08:09:33Z</time>
      </trkpt>
      <trkpt lat="47.74796" lon="5.13265">
        <ele>404.22</ele>
        <time>2021-09-23T08:09:35Z</time>
      </trkpt>
      <trkpt lat="47.74796" lon="5.13259">
        <ele>403.86</ele>
        <time>2021-09-23T08:09:38Z</time>
      </trkpt>
      <trkpt lat="47.74797" lon="5.13255">
        <ele>403.67</ele>
        <time>2021-09-23T08:09:41Z</time>
      </trkpt>
      <trkpt lat="47.74797" lon="5.13251">
        <ele>403.44</ele>
        <time>2021-09-23T08:09:43Z</time>
      </trkpt>
      <trkpt lat="47.74797" lon="5.13247">
        <ele>403.6</ele>
        <time>2021-09-23T08:09:45Z</time>
      </trkpt>
      <trkpt lat="47.74796" lon="5.13242">
        <ele>403.89</ele>
        <time>2021-09-23T08:09:49Z</time>
      </trkpt>
      <trkpt lat="47.74795" lon="5.13238">
        <ele>404.1</ele>
        <time>2021-09-23T08:09:52Z</time>
      </trkpt>
      <trkpt lat="47.74794" lon="5.13234">
        <ele>404.32</ele>
        <time>2021-09-23T08:09:54Z</time>
      </trkpt>
      <trkpt lat="47.74793" lon="5.1323">
        <ele>404.54</ele>
        <time>2021-09-23T08:09:56Z</time>
      </trkpt>
      <trkpt lat="47.74792" lon="5.13226">
        <ele>404.75</ele>
        <time>2021-09-23T08:09:59Z</time>
      </trkpt>
      <trkpt lat="47.74792" lon="5.1322">
        <ele>404.86</ele>
        <time>2021-09-23T08:10:02Z</time>
      </trkpt>
      <trkpt lat="47.74792" lon="5.13214">
        <ele>404.43</ele>
        <time>2021-09-23T08:10:04Z</time>
      </trkpt>
      <trkpt lat="47.74792" lon="5.13208">
        <ele>404</ele>
        <time>2021-09-23T08:10:06Z</time>
      </trkpt>
      <trkpt lat="47.74791" lon="5.13203">
        <ele>403.57</ele>
        <time>2021-09-23T08:10:09Z</time>
      </trkpt>
      <trkpt lat="47.74791" lon="5.13198">
        <ele>403.21</ele>
        <time>2021-09-23T08:10:12Z</time>
      </trkpt>
      <trkpt lat="47.74791" lon="5.13194">
        <ele>402.9</ele>
        <time>2021-09-23T08:10:15Z</time>
      </trkpt>
      <trkpt lat="47.7479" lon="5.13189">
        <ele>402.29</ele>
        <time>2021-09-23T08:10:18Z</time>
      </trkpt>
      <trkpt lat="47.7479" lon="5.13184">
        <ele>401.75</ele>
        <time>2021-09-23T08:10:21Z</time>
      </trkpt>
      <trkpt lat="47.74789" lon="5.13179">
        <ele>401.14</ele>
        <time>2021-09-23T08:10:24Z</time>
      </trkpt>
      <trkpt lat="47.74789" lon="5.13175">
        <ele>400.71</ele>
        <time>2021-09-23T08:10:27Z</time>
      </trkpt>
      <trkpt lat="47.74788" lon="5.1317">
        <ele>400.1</ele>
        <time>2021-09-23T08:10:31Z</time>
      </trkpt>
      <trkpt lat="47.74787" lon="5.13165">
        <ele>399.6</ele>
        <time>2021-09-23T08:10:34Z</time>
      </trkpt>
      <trkpt lat="47.74787" lon="5.13161">
        <ele>399.46</ele>
        <time>2021-09-23T08:10:36Z</time>
      </trkpt>
      <trkpt lat="47.74786" lon="5.13155">
        <ele>399.17</ele>
        <time>2021-09-23T08:10:39Z</time>
      </trkpt>
      <trkpt lat="47.74786" lon="5.1315">
        <ele>398.99</ele>
        <time>2021-09-23T08:10:42Z</time>
      </trkpt>
      <trkpt lat="47.74785" lon="5.13145">
        <ele>398.74</ele>
        <time>2021-09-23T08:10:45Z</time>
      </trkpt>
      <trkpt lat="47.74785" lon="5.13139">
        <ele>398.52</ele>
        <time>2021-09-23T08:10:48Z</time>
      </trkpt>
      <trkpt lat="47.74785" lon="5.13134">
        <ele>398.34</ele>
        <time>2021-09-23T08:10:51Z</time>
      </trkpt>
      <trkpt lat="47.74785" lon="5.1313">
        <ele>398.2</ele>
        <time>2021-09-23T08:10:54Z</time>
      </trkpt>
      <trkpt lat="47.74784" lon="5.13125">
        <ele>397.95</ele>
        <time>2021-09-23T08:10:57Z</time>
      </trkpt>
      <trkpt lat="47.74783" lon="5.13119">
        <ele>397.66</ele>
        <time>2021-09-23T08:11:00Z</time>
      </trkpt>
      <trkpt lat="47.74784" lon="5.13115">
        <ele>397.59</ele>
        <time>2021-09-23T08:11:03Z</time>
      </trkpt>
      <trkpt lat="47.74785" lon="5.13111">
        <ele>397.52</ele>
        <time>2021-09-23T08:11:07Z</time>
      </trkpt>
      <trkpt lat="47.74787" lon="5.13106">
        <ele>397.6</ele>
        <time>2021-09-23T08:11:11Z</time>
      </trkpt>
      <trkpt lat="47.74789" lon="5.13102">
        <ele>397.68</ele>
        <time>2021-09-23T08:11:13Z</time>
      </trkpt>
      <trkpt lat="47.74791" lon="5.13099">
        <ele>397.74</ele>
        <time>2021-09-23T08:11:15Z</time>
      </trkpt>
      <trkpt lat="47.74793" lon="5.13095">
        <ele>397.78</ele>
        <time>2021-09-23T08:11:18Z</time>
      </trkpt>
      <trkpt lat="47.74795" lon="5.13091">
        <ele>397.79</ele>
        <time>2021-09-23T08:11:22Z</time>
      </trkpt>
      <trkpt lat="47.74797" lon="5.13088">
        <ele>397.81</ele>
        <time>2021-09-23T08:11:24Z</time>
      </trkpt>
      <trkpt lat="47.74799" lon="5.13084">
        <ele>397.78</ele>
        <time>2021-09-23T08:11:26Z</time>
      </trkpt>
      <trkpt lat="47.74802" lon="5.13081">
        <ele>397.87</ele>
        <time>2021-09-23T08:11:29Z</time>
      </trkpt>
      <trkpt lat="47.74804" lon="5.13078">
        <ele>397.94</ele>
        <time>2021-09-23T08:11:32Z</time>
      </trkpt>
      <trkpt lat="47.74806" lon="5.13075">
        <ele>398.05</ele>
        <time>2021-09-23T08:11:36Z</time>
      </trkpt>
      <trkpt lat="47.74809" lon="5.1307">
        <ele>398.38</ele>
        <time>2021-09-23T08:11:39Z</time>
      </trkpt>
      <trkpt lat="47.74811" lon="5.13066">
        <ele>398.54</ele>
        <time>2021-09-23T08:11:42Z</time>
      </trkpt>
      <trkpt lat="47.74813" lon="5.13062">
        <ele>398.66</ele>
        <time>2021-09-23T08:11:45Z</time>
      </trkpt>
      <trkpt lat="47.74815" lon="5.13059">
        <ele>398.76</ele>
        <time>2021-09-23T08:11:48Z</time>
      </trkpt>
      <trkpt lat="47.74816" lon="5.13055">
        <ele>398.75</ele>
        <time>2021-09-23T08:11:53Z</time>
      </trkpt>
      <trkpt lat="47.74819" lon="5.13051">
        <ele>398.97</ele>
        <time>2021-09-23T08:11:57Z</time>
      </trkpt>
      <trkpt lat="47.7482" lon="5.13048">
        <ele>399.04</ele>
        <time>2021-09-23T08:12:00Z</time>
      </trkpt>
      <trkpt lat="47.74822" lon="5.13044">
        <ele>399.18</ele>
        <time>2021-09-23T08:12:03Z</time>
      </trkpt>
      <trkpt lat="47.74824" lon="5.13038">
        <ele>399.33</ele>
        <time>2021-09-23T08:12:06Z</time>
      </trkpt>
      <trkpt lat="47.74825" lon="5.13034">
        <ele>399.4</ele>
        <time>2021-09-23T08:12:09Z</time>
      </trkpt>
      <trkpt lat="47.74826" lon="5.1303">
        <ele>399.47</ele>
        <time>2021-09-23T08:12:12Z</time>
      </trkpt>
      <trkpt lat="47.74828" lon="5.13026">
        <ele>399.55</ele>
        <time>2021-09-23T08:12:14Z</time>
      </trkpt>
      <trkpt lat="47.74829" lon="5.13023">
        <ele>399.52</ele>
        <time>2021-09-23T08:12:16Z</time>
      </trkpt>
      <trkpt lat="47.7483" lon="5.13017">
        <ele>399.37</ele>
        <time>2021-09-23T08:12:19Z</time>
      </trkpt>
      <trkpt lat="47.74831" lon="5.13012">
        <ele>399.26</ele>
        <time>2021-09-23T08:12:22Z</time>
      </trkpt>
      <trkpt lat="47.74832" lon="5.13008">
        <ele>399.19</ele>
        <time>2021-09-23T08:12:26Z</time>
      </trkpt>
      <trkpt lat="47.74834" lon="5.13004">
        <ele>399.19</ele>
        <time>2021-09-23T08:12:31Z</time>
      </trkpt>
      <trkpt lat="47.74836" lon="5.12999">
        <ele>399.16</ele>
        <time>2021-09-23T08:12:34Z</time>
      </trkpt>
      <trkpt lat="47.74837" lon="5.12994">
        <ele>399.05</ele>
        <time>2021-09-23T08:12:37Z</time>
      </trkpt>
      <trkpt lat="47.74839" lon="5.1299">
        <ele>399.05</ele>
        <time>2021-09-23T08:12:40Z</time>
      </trkpt>
      <trkpt lat="47.7484" lon="5.12986">
        <ele>398.98</ele>
        <time>2021-09-23T08:12:43Z</time>
      </trkpt>
      <trkpt lat="47.74842" lon="5.12983">
        <ele>399.01</ele>
        <time>2021-09-23T08:12:45Z</time>
      </trkpt>
      <trkpt lat="47.74845" lon="5.12979">
        <ele>399.08</ele>
        <time>2021-09-23T08:12:47Z</time>
      </trkpt>
      <trkpt lat="47.74847" lon="5.12975">
        <ele>399.08</ele>
        <time>2021-09-23T08:12:49Z</time>
      </trkpt>
      <trkpt lat="47.74848" lon="5.12971">
        <ele>399.06</ele>
        <time>2021-09-23T08:12:51Z</time>
      </trkpt>
      <trkpt lat="47.7485" lon="5.12966">
        <ele>399.2</ele>
        <time>2021-09-23T08:12:54Z</time>
      </trkpt>
      <trkpt lat="47.74851" lon="5.12962">
        <ele>399.27</ele>
        <time>2021-09-23T08:12:56Z</time>
      </trkpt>
      <trkpt lat="47.74852" lon="5.12958">
        <ele>399.34</ele>
        <time>2021-09-23T08:12:58Z</time>
      </trkpt>
      <trkpt lat="47.74854" lon="5.12953">
        <ele>399.49</ele>
        <time>2021-09-23T08:13:01Z</time>
      </trkpt>
      <trkpt lat="47.74856" lon="5.1295">
        <ele>399.63</ele>
        <time>2021-09-23T08:13:04Z</time>
      </trkpt>
      <trkpt lat="47.74858" lon="5.12944">
        <ele>399.82</ele>
        <time>2021-09-23T08:13:07Z</time>
      </trkpt>
      <trkpt lat="47.7486" lon="5.1294">
        <ele>400.39</ele>
        <time>2021-09-23T08:13:10Z</time>
      </trkpt>
      <trkpt lat="47.74862" lon="5.12937">
        <ele>400.77</ele>
        <time>2021-09-23T08:13:13Z</time>
      </trkpt>
      <trkpt lat="47.74865" lon="5.12933">
        <ele>401.01</ele>
        <time>2021-09-23T08:13:16Z</time>
      </trkpt>
      <trkpt lat="47.74867" lon="5.1293">
        <ele>401.12</ele>
        <time>2021-09-23T08:13:19Z</time>
      </trkpt>
      <trkpt lat="47.74869" lon="5.12926">
        <ele>401.24</ele>
        <time>2021-09-23T08:13:22Z</time>
      </trkpt>
      <trkpt lat="47.7487" lon="5.12921">
        <ele>401.45</ele>
        <time>2021-09-23T08:13:25Z</time>
      </trkpt>
      <trkpt lat="47.74871" lon="5.12916">
        <ele>401.53</ele>
        <time>2021-09-23T08:13:28Z</time>
      </trkpt>
      <trkpt lat="47.74872" lon="5.12912">
        <ele>401.16</ele>
        <time>2021-09-23T08:13:31Z</time>
      </trkpt>
      <trkpt lat="47.74873" lon="5.12907">
        <ele>400.79</ele>
        <time>2021-09-23T08:13:34Z</time>
      </trkpt>
      <trkpt lat="47.74875" lon="5.12904">
        <ele>400.54</ele>
        <time>2021-09-23T08:13:36Z</time>
      </trkpt>
      <trkpt lat="47.74877" lon="5.129">
        <ele>400.37</ele>
        <time>2021-09-23T08:13:39Z</time>
      </trkpt>
      <trkpt lat="47.74879" lon="5.12896">
        <ele>400.32</ele>
        <time>2021-09-23T08:13:42Z</time>
      </trkpt>
      <trkpt lat="47.74881" lon="5.12893">
        <ele>400.39</ele>
        <time>2021-09-23T08:13:44Z</time>
      </trkpt>
      <trkpt lat="47.74883" lon="5.12889">
        <ele>400.57</ele>
        <time>2021-09-23T08:13:47Z</time>
      </trkpt>
      <trkpt lat="47.74884" lon="5.12884">
        <ele>400.82</ele>
        <time>2021-09-23T08:13:50Z</time>
      </trkpt>
      <trkpt lat="47.74884" lon="5.1288">
        <ele>400.97</ele>
        <time>2021-09-23T08:13:53Z</time>
      </trkpt>
      <trkpt lat="47.74885" lon="5.12876">
        <ele>401.18</ele>
        <time>2021-09-23T08:13:56Z</time>
      </trkpt>
      <trkpt lat="47.74886" lon="5.12871">
        <ele>401.44</ele>
        <time>2021-09-23T08:13:58Z</time>
      </trkpt>
      <trkpt lat="47.74887" lon="5.12867">
        <ele>401.65</ele>
        <time>2021-09-23T08:14:01Z</time>
      </trkpt>
      <trkpt lat="47.74889" lon="5.12863">
        <ele>401.93</ele>
        <time>2021-09-23T08:14:05Z</time>
      </trkpt>
      <trkpt lat="47.74891" lon="5.12859">
        <ele>401.77</ele>
        <time>2021-09-23T08:14:07Z</time>
      </trkpt>
      <trkpt lat="47.74892" lon="5.12855">
        <ele>401.42</ele>
        <time>2021-09-23T08:14:09Z</time>
      </trkpt>
      <trkpt lat="47.74894" lon="5.1285">
        <ele>400.94</ele>
        <time>2021-09-23T08:14:11Z</time>
      </trkpt>
      <trkpt lat="47.74895" lon="5.12847">
        <ele>400.65</ele>
        <time>2021-09-23T08:14:13Z</time>
      </trkpt>
      <trkpt lat="47.74897" lon="5.12843">
        <ele>400.21</ele>
        <time>2021-09-23T08:14:15Z</time>
      </trkpt>
      <trkpt lat="47.74899" lon="5.12839">
        <ele>399.75</ele>
        <time>2021-09-23T08:14:18Z</time>
      </trkpt>
      <trkpt lat="47.749" lon="5.12835">
        <ele>399.34</ele>
        <time>2021-09-23T08:14:21Z</time>
      </trkpt>
      <trkpt lat="47.74901" lon="5.1283">
        <ele>399.01</ele>
        <time>2021-09-23T08:14:24Z</time>
      </trkpt>
      <trkpt lat="47.74903" lon="5.12825">
        <ele>398.85</ele>
        <time>2021-09-23T08:14:27Z</time>
      </trkpt>
      <trkpt lat="47.74905" lon="5.12821">
        <ele>398.87</ele>
        <time>2021-09-23T08:14:30Z</time>
      </trkpt>
      <trkpt lat="47.74907" lon="5.12818">
        <ele>399.01</ele>
        <time>2021-09-23T08:14:32Z</time>
      </trkpt>
      <trkpt lat="47.74909" lon="5.12814">
        <ele>399.3</ele>
        <time>2021-09-23T08:14:34Z</time>
      </trkpt>
      <trkpt lat="47.74911" lon="5.12811">
        <ele>399.67</ele>
        <time>2021-09-23T08:14:36Z</time>
      </trkpt>
      <trkpt lat="47.74912" lon="5.12807">
        <ele>400.07</ele>
        <time>2021-09-23T08:14:38Z</time>
      </trkpt>
      <trkpt lat="47.74913" lon="5.12803">
        <ele>400.08</ele>
        <time>2021-09-23T08:14:40Z</time>
      </trkpt>
      <trkpt lat="47.74913" lon="5.12798">
        <ele>399.56</ele>
        <time>2021-09-23T08:14:42Z</time>
      </trkpt>
      <trkpt lat="47.74914" lon="5.12794">
        <ele>399.31</ele>
        <time>2021-09-23T08:14:44Z</time>
      </trkpt>
      <trkpt lat="47.74915" lon="5.12789">
        <ele>398.95</ele>
        <time>2021-09-23T08:14:47Z</time>
      </trkpt>
      <trkpt lat="47.74916" lon="5.12786">
        <ele>398.78</ele>
        <time>2021-09-23T08:14:50Z</time>
      </trkpt>
      <trkpt lat="47.74917" lon="5.12782">
        <ele>398.46</ele>
        <time>2021-09-23T08:14:53Z</time>
      </trkpt>
      <trkpt lat="47.74919" lon="5.12777">
        <ele>398.01</ele>
        <time>2021-09-23T08:14:57Z</time>
      </trkpt>
      <trkpt lat="47.74919" lon="5.12772">
        <ele>397.53</ele>
        <time>2021-09-23T08:15:01Z</time>
      </trkpt>
      <trkpt lat="47.7492" lon="5.12767">
        <ele>397.14</ele>
        <time>2021-09-23T08:15:03Z</time>
      </trkpt>
      <trkpt lat="47.7492" lon="5.12763">
        <ele>396.78</ele>
        <time>2021-09-23T08:15:05Z</time>
      </trkpt>
      <trkpt lat="47.74921" lon="5.12758">
        <ele>396.46</ele>
        <time>2021-09-23T08:15:07Z</time>
      </trkpt>
      <trkpt lat="47.74923" lon="5.12754">
        <ele>396.44</ele>
        <time>2021-09-23T08:15:10Z</time>
      </trkpt>
      <trkpt lat="47.74924" lon="5.12751">
        <ele>396.39</ele>
        <time>2021-09-23T08:15:13Z</time>
      </trkpt>
      <trkpt lat="47.74927" lon="5.12746">
        <ele>396.86</ele>
        <time>2021-09-23T08:15:15Z</time>
      </trkpt>
      <trkpt lat="47.74929" lon="5.12742">
        <ele>397.22</ele>
        <time>2021-09-23T08:15:17Z</time>
      </trkpt>
      <trkpt lat="47.74931" lon="5.12739">
        <ele>397.58</ele>
        <time>2021-09-23T08:15:19Z</time>
      </trkpt>
      <trkpt lat="47.74933" lon="5.12735">
        <ele>397.94</ele>
        <time>2021-09-23T08:15:22Z</time>
      </trkpt>
      <trkpt lat="47.74935" lon="5.12731">
        <ele>398.3</ele>
        <time>2021-09-23T08:15:25Z</time>
      </trkpt>
      <trkpt lat="47.74936" lon="5.12726">
        <ele>398.48</ele>
        <time>2021-09-23T08:15:28Z</time>
      </trkpt>
      <trkpt lat="47.74938" lon="5.12721">
        <ele>398.88</ele>
        <time>2021-09-23T08:15:31Z</time>
      </trkpt>
      <trkpt lat="47.7494" lon="5.12716">
        <ele>399.42</ele>
        <time>2021-09-23T08:15:34Z</time>
      </trkpt>
      <trkpt lat="47.74941" lon="5.12712">
        <ele>399.75</ele>
        <time>2021-09-23T08:15:37Z</time>
      </trkpt>
      <trkpt lat="47.74942" lon="5.12706">
        <ele>400.14</ele>
        <time>2021-09-23T08:15:40Z</time>
      </trkpt>
      <trkpt lat="47.74944" lon="5.12703">
        <ele>400.61</ele>
        <time>2021-09-23T08:15:43Z</time>
      </trkpt>
      <trkpt lat="47.74946" lon="5.127">
        <ele>400.82</ele>
        <time>2021-09-23T08:15:46Z</time>
      </trkpt>
      <trkpt lat="47.74949" lon="5.12695">
        <ele>400.99</ele>
        <time>2021-09-23T08:15:49Z</time>
      </trkpt>
      <trkpt lat="47.74951" lon="5.12691">
        <ele>400.81</ele>
        <time>2021-09-23T08:15:51Z</time>
      </trkpt>
      <trkpt lat="47.74952" lon="5.12686">
        <ele>400.56</ele>
        <time>2021-09-23T08:15:53Z</time>
      </trkpt>
      <trkpt lat="47.74954" lon="5.12682">
        <ele>400.41</ele>
        <time>2021-09-23T08:15:55Z</time>
      </trkpt>
      <trkpt lat="47.74956" lon="5.12678">
        <ele>400.31</ele>
        <time>2021-09-23T08:15:57Z</time>
      </trkpt>
      <trkpt lat="47.74957" lon="5.12672">
        <ele>400.11</ele>
        <time>2021-09-23T08:16:00Z</time>
      </trkpt>
      <trkpt lat="47.74957" lon="5.12667">
        <ele>399.92</ele>
        <time>2021-09-23T08:16:03Z</time>
      </trkpt>
      <trkpt lat="47.74959" lon="5.12662">
        <ele>399.63</ele>
        <time>2021-09-23T08:16:06Z</time>
      </trkpt>
      <trkpt lat="47.7496" lon="5.12656">
        <ele>399.18</ele>
        <time>2021-09-23T08:16:09Z</time>
      </trkpt>
      <trkpt lat="47.74963" lon="5.12652">
        <ele>399.1</ele>
        <time>2021-09-23T08:16:12Z</time>
      </trkpt>
      <trkpt lat="47.74964" lon="5.12646">
        <ele>398.7</ele>
        <time>2021-09-23T08:16:15Z</time>
      </trkpt>
      <trkpt lat="47.74965" lon="5.12642">
        <ele>398.47</ele>
        <time>2021-09-23T08:16:17Z</time>
      </trkpt>
      <trkpt lat="47.74966" lon="5.12638">
        <ele>398.31</ele>
        <time>2021-09-23T08:16:19Z</time>
      </trkpt>
      <trkpt lat="47.74967" lon="5.12634">
        <ele>398.37</ele>
        <time>2021-09-23T08:16:21Z</time>
      </trkpt>
      <trkpt lat="47.74968" lon="5.1263">
        <ele>398.45</ele>
        <time>2021-09-23T08:16:24Z</time>
      </trkpt>
      <trkpt lat="47.74969" lon="5.12625">
        <ele>398.54</ele>
        <time>2021-09-23T08:16:28Z</time>
      </trkpt>
      <trkpt lat="47.74969" lon="5.1262">
        <ele>398.49</ele>
        <time>2021-09-23T08:16:31Z</time>
      </trkpt>
      <trkpt lat="47.74971" lon="5.12615">
        <ele>398.79</ele>
        <time>2021-09-23T08:16:34Z</time>
      </trkpt>
      <trkpt lat="47.74972" lon="5.1261">
        <ele>398.84</ele>
        <time>2021-09-23T08:16:37Z</time>
      </trkpt>
      <trkpt lat="47.74972" lon="5.12606">
        <ele>398.42</ele>
        <time>2021-09-23T08:16:39Z</time>
      </trkpt>
      <trkpt lat="47.74973" lon="5.12601">
        <ele>397.9</ele>
        <time>2021-09-23T08:16:42Z</time>
      </trkpt>
      <trkpt lat="47.74974" lon="5.12596">
        <ele>397.37</ele>
        <time>2021-09-23T08:16:46Z</time>
      </trkpt>
      <trkpt lat="47.74975" lon="5.12592">
        <ele>396.97</ele>
        <time>2021-09-23T08:16:49Z</time>
      </trkpt>
      <trkpt lat="47.74976" lon="5.12586">
        <ele>396.4</ele>
        <time>2021-09-23T08:16:52Z</time>
      </trkpt>
      <trkpt lat="47.74977" lon="5.12582">
        <ele>396.13</ele>
        <time>2021-09-23T08:16:54Z</time>
      </trkpt>
      <trkpt lat="47.74978" lon="5.12578">
        <ele>396.06</ele>
        <time>2021-09-23T08:16:56Z</time>
      </trkpt>
      <trkpt lat="47.7498" lon="5.12574">
        <ele>396.04</ele>
        <time>2021-09-23T08:16:58Z</time>
      </trkpt>
      <trkpt lat="47.74981" lon="5.1257">
        <ele>395.99</ele>
        <time>2021-09-23T08:17:00Z</time>
      </trkpt>
      <trkpt lat="47.74982" lon="5.12564">
        <ele>395.9</ele>
        <time>2021-09-23T08:17:03Z</time>
      </trkpt>
      <trkpt lat="47.74984" lon="5.1256">
        <ele>395.94</ele>
        <time>2021-09-23T08:17:06Z</time>
      </trkpt>
      <trkpt lat="47.74985" lon="5.12556">
        <ele>395.93</ele>
        <time>2021-09-23T08:17:09Z</time>
      </trkpt>
      <trkpt lat="47.74986" lon="5.12551">
        <ele>395.91</ele>
        <time>2021-09-23T08:17:12Z</time>
      </trkpt>
      <trkpt lat="47.74987" lon="5.12545">
        <ele>395.86</ele>
        <time>2021-09-23T08:17:15Z</time>
      </trkpt>
      <trkpt lat="47.74988" lon="5.12541">
        <ele>395.84</ele>
        <time>2021-09-23T08:17:17Z</time>
      </trkpt>
      <trkpt lat="47.74991" lon="5.12537">
        <ele>395.9</ele>
        <time>2021-09-23T08:17:20Z</time>
      </trkpt>
      <trkpt lat="47.74994" lon="5.12534">
        <ele>395.96</ele>
        <time>2021-09-23T08:17:23Z</time>
      </trkpt>
      <trkpt lat="47.74996" lon="5.1253">
        <ele>395.92</ele>
        <time>2021-09-23T08:17:26Z</time>
      </trkpt>
      <trkpt lat="47.74998" lon="5.12527">
        <ele>395.95</ele>
        <time>2021-09-23T08:17:28Z</time>
      </trkpt>
      <trkpt lat="47.74999" lon="5.12523">
        <ele>396.12</ele>
        <time>2021-09-23T08:17:30Z</time>
      </trkpt>
      <trkpt lat="47.75001" lon="5.12519">
        <ele>396.41</ele>
        <time>2021-09-23T08:17:32Z</time>
      </trkpt>
      <trkpt lat="47.75004" lon="5.12517">
        <ele>396.76</ele>
        <time>2021-09-23T08:17:35Z</time>
      </trkpt>
      <trkpt lat="47.75007" lon="5.12514">
        <ele>397.13</ele>
        <time>2021-09-23T08:17:39Z</time>
      </trkpt>
      <trkpt lat="47.7501" lon="5.1251">
        <ele>397.49</ele>
        <time>2021-09-23T08:17:42Z</time>
      </trkpt>
      <trkpt lat="47.75012" lon="5.12507">
        <ele>397.72</ele>
        <time>2021-09-23T08:17:45Z</time>
      </trkpt>
      <trkpt lat="47.75015" lon="5.12505">
        <ele>398</ele>
        <time>2021-09-23T08:17:48Z</time>
      </trkpt>
      <trkpt lat="47.75017" lon="5.12502">
        <ele>398.2</ele>
        <time>2021-09-23T08:17:51Z</time>
      </trkpt>
      <trkpt lat="47.7502" lon="5.12499">
        <ele>398.39</ele>
        <time>2021-09-23T08:17:54Z</time>
      </trkpt>
      <trkpt lat="47.75023" lon="5.12495">
        <ele>398.36</ele>
        <time>2021-09-23T08:17:57Z</time>
      </trkpt>
      <trkpt lat="47.75025" lon="5.12492">
        <ele>398.28</ele>
        <time>2021-09-23T08:18:00Z</time>
      </trkpt>
      <trkpt lat="47.75028" lon="5.1249">
        <ele>398.31</ele>
        <time>2021-09-23T08:18:03Z</time>
      </trkpt>
      <trkpt lat="47.75031" lon="5.12487">
        <ele>398.47</ele>
        <time>2021-09-23T08:18:06Z</time>
      </trkpt>
      <trkpt lat="47.75033" lon="5.12483">
        <ele>398.41</ele>
        <time>2021-09-23T08:18:09Z</time>
      </trkpt>
      <trkpt lat="47.75036" lon="5.12479">
        <ele>398.45</ele>
        <time>2021-09-23T08:18:12Z</time>
      </trkpt>
      <trkpt lat="47.75038" lon="5.12475">
        <ele>398.34</ele>
        <time>2021-09-23T08:18:15Z</time>
      </trkpt>
      <trkpt lat="47.7504" lon="5.12471">
        <ele>398.21</ele>
        <time>2021-09-23T08:18:18Z</time>
      </trkpt>
      <trkpt lat="47.75043" lon="5.12469">
        <ele>398.35</ele>
        <time>2021-09-23T08:18:21Z</time>
      </trkpt>
      <trkpt lat="47.75045" lon="5.12466">
        <ele>398.27</ele>
        <time>2021-09-23T08:18:24Z</time>
      </trkpt>
      <trkpt lat="47.75047" lon="5.12463">
        <ele>398.18</ele>
        <time>2021-09-23T08:18:27Z</time>
      </trkpt>
      <trkpt lat="47.75049" lon="5.1246">
        <ele>398.08</ele>
        <time>2021-09-23T08:18:30Z</time>
      </trkpt>
      <trkpt lat="47.75052" lon="5.12457">
        <ele>398.04</ele>
        <time>2021-09-23T08:18:33Z</time>
      </trkpt>
      <trkpt lat="47.75055" lon="5.12454">
        <ele>397.99</ele>
        <time>2021-09-23T08:18:36Z</time>
      </trkpt>
      <trkpt lat="47.75058" lon="5.12451">
        <ele>398.22</ele>
        <time>2021-09-23T08:18:39Z</time>
      </trkpt>
      <trkpt lat="47.7506" lon="5.12449">
        <ele>398.43</ele>
        <time>2021-09-23T08:18:41Z</time>
      </trkpt>
      <trkpt lat="47.75063" lon="5.12447">
        <ele>398.86</ele>
        <time>2021-09-23T08:18:43Z</time>
      </trkpt>
      <trkpt lat="47.75066" lon="5.12443">
        <ele>399.22</ele>
        <time>2021-09-23T08:18:46Z</time>
      </trkpt>
      <trkpt lat="47.75069" lon="5.12439">
        <ele>399.71</ele>
        <time>2021-09-23T08:18:49Z</time>
      </trkpt>
      <trkpt lat="47.75071" lon="5.12435">
        <ele>399.96</ele>
        <time>2021-09-23T08:18:52Z</time>
      </trkpt>
      <trkpt lat="47.75073" lon="5.1243">
        <ele>400.11</ele>
        <time>2021-09-23T08:18:55Z</time>
      </trkpt>
      <trkpt lat="47.75075" lon="5.12425">
        <ele>400.22</ele>
        <time>2021-09-23T08:18:58Z</time>
      </trkpt>
      <trkpt lat="47.75077" lon="5.12421">
        <ele>400.33</ele>
        <time>2021-09-23T08:19:01Z</time>
      </trkpt>
      <trkpt lat="47.75079" lon="5.12417">
        <ele>400.4</ele>
        <time>2021-09-23T08:19:04Z</time>
      </trkpt>
      <trkpt lat="47.75081" lon="5.12414">
        <ele>400.66</ele>
        <time>2021-09-23T08:19:07Z</time>
      </trkpt>
      <trkpt lat="47.75084" lon="5.1241">
        <ele>401.12</ele>
        <time>2021-09-23T08:19:10Z</time>
      </trkpt>
      <trkpt lat="47.75086" lon="5.12406">
        <ele>401.43</ele>
        <time>2021-09-23T08:19:13Z</time>
      </trkpt>
      <trkpt lat="47.75088" lon="5.12401">
        <ele>401.63</ele>
        <time>2021-09-23T08:19:16Z</time>
      </trkpt>
      <trkpt lat="47.7509" lon="5.12396">
        <ele>401.73</ele>
        <time>2021-09-23T08:19:19Z</time>
      </trkpt>
      <trkpt lat="47.75092" lon="5.12392">
        <ele>401.76</ele>
        <time>2021-09-23T08:19:22Z</time>
      </trkpt>
      <trkpt lat="47.75095" lon="5.1239">
        <ele>401.91</ele>
        <time>2021-09-23T08:19:25Z</time>
      </trkpt>
      <trkpt lat="47.75098" lon="5.12387">
        <ele>401.81</ele>
        <time>2021-09-23T08:19:28Z</time>
      </trkpt>
      <trkpt lat="47.75101" lon="5.12385">
        <ele>401.72</ele>
        <time>2021-09-23T08:19:30Z</time>
      </trkpt>
      <trkpt lat="47.75103" lon="5.12383">
        <ele>401.54</ele>
        <time>2021-09-23T08:19:32Z</time>
      </trkpt>
      <trkpt lat="47.75105" lon="5.1238">
        <ele>401.17</ele>
        <time>2021-09-23T08:19:34Z</time>
      </trkpt>
      <trkpt lat="47.75108" lon="5.12377">
        <ele>400.78</ele>
        <time>2021-09-23T08:19:37Z</time>
      </trkpt>
      <trkpt lat="47.7511" lon="5.12374">
        <ele>400.3</ele>
        <time>2021-09-23T08:19:39Z</time>
      </trkpt>
      <trkpt lat="47.75111" lon="5.1237">
        <ele>399.6</ele>
        <time>2021-09-23T08:19:41Z</time>
      </trkpt>
      <trkpt lat="47.75113" lon="5.12365">
        <ele>399.02</ele>
        <time>2021-09-23T08:19:44Z</time>
      </trkpt>
      <trkpt lat="47.75116" lon="5.12362">
        <ele>399.03</ele>
        <time>2021-09-23T08:19:47Z</time>
      </trkpt>
      <trkpt lat="47.75119" lon="5.12358">
        <ele>399.69</ele>
        <time>2021-09-23T08:19:50Z</time>
      </trkpt>
      <trkpt lat="47.75121" lon="5.12354">
        <ele>400.37</ele>
        <time>2021-09-23T08:19:53Z</time>
      </trkpt>
      <trkpt lat="47.75123" lon="5.12349">
        <ele>401.07</ele>
        <time>2021-09-23T08:19:56Z</time>
      </trkpt>
      <trkpt lat="47.75126" lon="5.12345">
        <ele>401.8</ele>
        <time>2021-09-23T08:19:59Z</time>
      </trkpt>
      <trkpt lat="47.75128" lon="5.12341">
        <ele>402.33</ele>
        <time>2021-09-23T08:20:02Z</time>
      </trkpt>
      <trkpt lat="47.7513" lon="5.12337">
        <ele>402.82</ele>
        <time>2021-09-23T08:20:05Z</time>
      </trkpt>
      <trkpt lat="47.75132" lon="5.12333">
        <ele>403.23</ele>
        <time>2021-09-23T08:20:08Z</time>
      </trkpt>
      <trkpt lat="47.75133" lon="5.12328">
        <ele>403.02</ele>
        <time>2021-09-23T08:20:11Z</time>
      </trkpt>
      <trkpt lat="47.75135" lon="5.12324">
        <ele>402.96</ele>
        <time>2021-09-23T08:20:14Z</time>
      </trkpt>
      <trkpt lat="47.75137" lon="5.12321">
        <ele>402.94</ele>
        <time>2021-09-23T08:20:19Z</time>
      </trkpt>
      <trkpt lat="47.75139" lon="5.12316">
        <ele>402.75</ele>
        <time>2021-09-23T08:20:23Z</time>
      </trkpt>
      <trkpt lat="47.75141" lon="5.12313">
        <ele>402.45</ele>
        <time>2021-09-23T08:20:26Z</time>
      </trkpt>
      <trkpt lat="47.75143" lon="5.12309">
        <ele>402.17</ele>
        <time>2021-09-23T08:20:28Z</time>
      </trkpt>
      <trkpt lat="47.75145" lon="5.12305">
        <ele>401.95</ele>
        <time>2021-09-23T08:20:30Z</time>
      </trkpt>
      <trkpt lat="47.75148" lon="5.12301">
        <ele>401.67</ele>
        <time>2021-09-23T08:20:33Z</time>
      </trkpt>
      <trkpt lat="47.75151" lon="5.12296">
        <ele>401.42</ele>
        <time>2021-09-23T08:20:36Z</time>
      </trkpt>
      <trkpt lat="47.75152" lon="5.12292">
        <ele>401.23</ele>
        <time>2021-09-23T08:20:38Z</time>
      </trkpt>
      <trkpt lat="47.75154" lon="5.12288">
        <ele>401.14</ele>
        <time>2021-09-23T08:20:41Z</time>
      </trkpt>
      <trkpt lat="47.75156" lon="5.12285">
        <ele>401.15</ele>
        <time>2021-09-23T08:20:44Z</time>
      </trkpt>
      <trkpt lat="47.75158" lon="5.1228">
        <ele>401.14</ele>
        <time>2021-09-23T08:20:47Z</time>
      </trkpt>
      <trkpt lat="47.7516" lon="5.12275">
        <ele>401.23</ele>
        <time>2021-09-23T08:20:50Z</time>
      </trkpt>
      <trkpt lat="47.75161" lon="5.1227">
        <ele>401.27</ele>
        <time>2021-09-23T08:20:53Z</time>
      </trkpt>
      <trkpt lat="47.75163" lon="5.12266">
        <ele>401.49</ele>
        <time>2021-09-23T08:20:56Z</time>
      </trkpt>
      <trkpt lat="47.75165" lon="5.12261">
        <ele>401.75</ele>
        <time>2021-09-23T08:21:00Z</time>
      </trkpt>
      <trkpt lat="47.75166" lon="5.12256">
        <ele>401.89</ele>
        <time>2021-09-23T08:21:03Z</time>
      </trkpt>
      <trkpt lat="47.75168" lon="5.12251">
        <ele>401.85</ele>
        <time>2021-09-23T08:21:06Z</time>
      </trkpt>
      <trkpt lat="47.7517" lon="5.12247">
        <ele>401.23</ele>
        <time>2021-09-23T08:21:09Z</time>
      </trkpt>
      <trkpt lat="47.75171" lon="5.12242">
        <ele>400.47</ele>
        <time>2021-09-23T08:21:13Z</time>
      </trkpt>
      <trkpt lat="47.75171" lon="5.12237">
        <ele>399.81</ele>
        <time>2021-09-23T08:21:16Z</time>
      </trkpt>
      <trkpt lat="47.75173" lon="5.12233">
        <ele>399.15</ele>
        <time>2021-09-23T08:21:19Z</time>
      </trkpt>
      <trkpt lat="47.75175" lon="5.12228">
        <ele>398.41</ele>
        <time>2021-09-23T08:21:22Z</time>
      </trkpt>
      <trkpt lat="47.75177" lon="5.12224">
        <ele>397.84</ele>
        <time>2021-09-23T08:21:24Z</time>
      </trkpt>
      <trkpt lat="47.75178" lon="5.1222">
        <ele>397.34</ele>
        <time>2021-09-23T08:21:26Z</time>
      </trkpt>
      <trkpt lat="47.7518" lon="5.12216">
        <ele>396.84</ele>
        <time>2021-09-23T08:21:29Z</time>
      </trkpt>
      <trkpt lat="47.75182" lon="5.12212">
        <ele>396.38</ele>
        <time>2021-09-23T08:21:32Z</time>
      </trkpt>
      <trkpt lat="47.75184" lon="5.12208">
        <ele>395.97</ele>
        <time>2021-09-23T08:21:35Z</time>
      </trkpt>
      <trkpt lat="47.75186" lon="5.12202">
        <ele>395.41</ele>
        <time>2021-09-23T08:21:38Z</time>
      </trkpt>
      <trkpt lat="47.75187" lon="5.12198">
        <ele>395.06</ele>
        <time>2021-09-23T08:21:40Z</time>
      </trkpt>
      <trkpt lat="47.75189" lon="5.12194">
        <ele>394.78</ele>
        <time>2021-09-23T08:21:42Z</time>
      </trkpt>
      <trkpt lat="47.75191" lon="5.12191">
        <ele>394.72</ele>
        <time>2021-09-23T08:21:44Z</time>
      </trkpt>
      <trkpt lat="47.75193" lon="5.12189">
        <ele>394.73</ele>
        <time>2021-09-23T08:21:46Z</time>
      </trkpt>
      <trkpt lat="47.75196" lon="5.12187">
        <ele>394.88</ele>
        <time>2021-09-23T08:21:48Z</time>
      </trkpt>
      <trkpt lat="47.75198" lon="5.12184">
        <ele>394.96</ele>
        <time>2021-09-23T08:21:51Z</time>
      </trkpt>
      <trkpt lat="47.752" lon="5.1218">
        <ele>394.98</ele>
        <time>2021-09-23T08:21:54Z</time>
      </trkpt>
      <trkpt lat="47.75202" lon="5.12177">
        <ele>395.02</ele>
        <time>2021-09-23T08:21:57Z</time>
      </trkpt>
      <trkpt lat="47.75205" lon="5.12175">
        <ele>395.17</ele>
        <time>2021-09-23T08:22:00Z</time>
      </trkpt>
      <trkpt lat="47.75207" lon="5.12172">
        <ele>395.18</ele>
        <time>2021-09-23T08:22:03Z</time>
      </trkpt>
      <trkpt lat="47.75209" lon="5.12169">
        <ele>395.18</ele>
        <time>2021-09-23T08:22:05Z</time>
      </trkpt>
      <trkpt lat="47.75212" lon="5.12165">
        <ele>395.12</ele>
        <time>2021-09-23T08:22:08Z</time>
      </trkpt>
      <trkpt lat="47.75214" lon="5.12162">
        <ele>395.02</ele>
        <time>2021-09-23T08:22:13Z</time>
      </trkpt>
      <trkpt lat="47.75217" lon="5.12159">
        <ele>395.02</ele>
        <time>2021-09-23T08:22:17Z</time>
      </trkpt>
      <trkpt lat="47.7522" lon="5.12157">
        <ele>395.12</ele>
        <time>2021-09-23T08:22:20Z</time>
      </trkpt>
      <trkpt lat="47.75223" lon="5.12155">
        <ele>395.29</ele>
        <time>2021-09-23T08:22:23Z</time>
      </trkpt>
      <trkpt lat="47.75225" lon="5.12153">
        <ele>395.47</ele>
        <time>2021-09-23T08:22:26Z</time>
      </trkpt>
      <trkpt lat="47.75227" lon="5.1215">
        <ele>395.56</ele>
        <time>2021-09-23T08:22:43Z</time>
      </trkpt>
      <trkpt lat="47.75229" lon="5.12148">
        <ele>395.71</ele>
        <time>2021-09-23T08:22:51Z</time>
      </trkpt>
      <trkpt lat="47.75231" lon="5.12143">
        <ele>395.61</ele>
        <time>2021-09-23T08:22:55Z</time>
      </trkpt>
      <trkpt lat="47.75232" lon="5.1214">
        <ele>395.5</ele>
        <time>2021-09-23T08:23:00Z</time>
      </trkpt>
      <trkpt lat="47.75235" lon="5.12137">
        <ele>395.64</ele>
        <time>2021-09-23T08:23:07Z</time>
      </trkpt>
      <trkpt lat="47.75237" lon="5.12135">
        <ele>395.7</ele>
        <time>2021-09-23T08:23:10Z</time>
      </trkpt>
      <trkpt lat="47.7524" lon="5.12132">
        <ele>395.75</ele>
        <time>2021-09-23T08:23:12Z</time>
      </trkpt>
      <trkpt lat="47.75243" lon="5.12129">
        <ele>395.75</ele>
        <time>2021-09-23T08:23:14Z</time>
      </trkpt>
      <trkpt lat="47.75245" lon="5.12125">
        <ele>395.46</ele>
        <time>2021-09-23T08:23:19Z</time>
      </trkpt>
      <trkpt lat="47.75247" lon="5.12122">
        <ele>395.27</ele>
        <time>2021-09-23T08:23:24Z</time>
      </trkpt>
      <trkpt lat="47.7525" lon="5.1212">
        <ele>395.28</ele>
        <time>2021-09-23T08:23:36Z</time>
      </trkpt>
      <trkpt lat="47.75252" lon="5.12119">
        <ele>395.42</ele>
        <time>2021-09-23T08:24:08Z</time>
      </trkpt>
      <trkpt lat="47.75252" lon="5.12115">
        <ele>394.85</ele>
        <time>2021-09-23T08:25:49Z</time>
      </trkpt>
      <trkpt lat="47.75254" lon="5.12118">
        <ele>395.57</ele>
        <time>2021-09-23T08:28:00Z</time>
      </trkpt>
      <trkpt lat="47.75253" lon="5.12122">
        <ele>396</ele>
        <time>2021-09-23T08:28:44Z</time>
      </trkpt>
      <trkpt lat="47.75253" lon="5.12118">
        <ele>395.42</ele>
        <time>2021-09-23T08:29:45Z</time>
      </trkpt>
      <trkpt lat="47.75252" lon="5.12114">
        <ele>394.7</ele>
        <time>2021-09-23T08:30:22Z</time>
      </trkpt>
      <trkpt lat="47.7525" lon="5.12111">
        <ele>393.99</ele>
        <time>2021-09-23T08:30:31Z</time>
      </trkpt>
      <trkpt lat="47.75252" lon="5.12109">
        <ele>394.05</ele>
        <time>2021-09-23T08:30:41Z</time>
      </trkpt>
      <trkpt lat="47.75254" lon="5.12106">
        <ele>394</ele>
        <time>2021-09-23T08:30:45Z</time>
      </trkpt>
      <trkpt lat="47.75257" lon="5.12103">
        <ele>394.06</ele>
        <time>2021-09-23T08:30:49Z</time>
      </trkpt>
      <trkpt lat="47.75259" lon="5.12099">
        <ele>393.85</ele>
        <time>2021-09-23T08:30:52Z</time>
      </trkpt>
      <trkpt lat="47.75261" lon="5.12096">
        <ele>393.74</ele>
        <time>2021-09-23T08:30:55Z</time>
      </trkpt>
      <trkpt lat="47.75262" lon="5.12092">
        <ele>393.37</ele>
        <time>2021-09-23T08:30:58Z</time>
      </trkpt>
      <trkpt lat="47.75264" lon="5.12088">
        <ele>393.1</ele>
        <time>2021-09-23T08:31:01Z</time>
      </trkpt>
      <trkpt lat="47.75266" lon="5.12084">
        <ele>392.81</ele>
        <time>2021-09-23T08:31:04Z</time>
      </trkpt>
      <trkpt lat="47.75267" lon="5.12079">
        <ele>392.52</ele>
        <time>2021-09-23T08:31:07Z</time>
      </trkpt>
      <trkpt lat="47.75267" lon="5.12074">
        <ele>392.16</ele>
        <time>2021-09-23T08:31:09Z</time>
      </trkpt>
      <trkpt lat="47.75268" lon="5.1207">
        <ele>391.98</ele>
        <time>2021-09-23T08:31:11Z</time>
      </trkpt>
      <trkpt lat="47.75269" lon="5.12064">
        <ele>391.66</ele>
        <time>2021-09-23T08:31:14Z</time>
      </trkpt>
      <trkpt lat="47.7527" lon="5.12059">
        <ele>391.41</ele>
        <time>2021-09-23T08:31:17Z</time>
      </trkpt>
      <trkpt lat="47.75271" lon="5.12054">
        <ele>391.16</ele>
        <time>2021-09-23T08:31:20Z</time>
      </trkpt>
      <trkpt lat="47.75272" lon="5.1205">
        <ele>390.98</ele>
        <time>2021-09-23T08:31:22Z</time>
      </trkpt>
      <trkpt lat="47.75273" lon="5.12046">
        <ele>390.8</ele>
        <time>2021-09-23T08:31:24Z</time>
      </trkpt>
      <trkpt lat="47.75274" lon="5.12042">
        <ele>390.62</ele>
        <time>2021-09-23T08:31:26Z</time>
      </trkpt>
      <trkpt lat="47.75275" lon="5.12037">
        <ele>390.36</ele>
        <time>2021-09-23T08:31:28Z</time>
      </trkpt>
      <trkpt lat="47.75276" lon="5.12033">
        <ele>390.18</ele>
        <time>2021-09-23T08:31:30Z</time>
      </trkpt>
      <trkpt lat="47.75277" lon="5.12029">
        <ele>390</ele>
        <time>2021-09-23T08:31:32Z</time>
      </trkpt>
      <trkpt lat="47.75279" lon="5.12024">
        <ele>389.64</ele>
        <time>2021-09-23T08:31:35Z</time>
      </trkpt>
      <trkpt lat="47.7528" lon="5.12019">
        <ele>389.16</ele>
        <time>2021-09-23T08:31:38Z</time>
      </trkpt>
      <trkpt lat="47.75281" lon="5.12014">
        <ele>388.69</ele>
        <time>2021-09-23T08:31:41Z</time>
      </trkpt>
      <trkpt lat="47.75282" lon="5.12009">
        <ele>388.23</ele>
        <time>2021-09-23T08:31:45Z</time>
      </trkpt>
      <trkpt lat="47.75284" lon="5.12006">
        <ele>388.05</ele>
        <time>2021-09-23T08:31:48Z</time>
      </trkpt>
      <trkpt lat="47.75286" lon="5.12001">
        <ele>387.69</ele>
        <time>2021-09-23T08:31:51Z</time>
      </trkpt>
      <trkpt lat="47.75286" lon="5.11996">
        <ele>387.35</ele>
        <time>2021-09-23T08:31:53Z</time>
      </trkpt>
      <trkpt lat="47.75287" lon="5.11991">
        <ele>387.12</ele>
        <time>2021-09-23T08:31:56Z</time>
      </trkpt>
      <trkpt lat="47.75288" lon="5.11986">
        <ele>386.91</ele>
        <time>2021-09-23T08:31:59Z</time>
      </trkpt>
      <trkpt lat="47.75289" lon="5.1198">
        <ele>386.66</ele>
        <time>2021-09-23T08:32:02Z</time>
      </trkpt>
      <trkpt lat="47.75289" lon="5.11975">
        <ele>386.37</ele>
        <time>2021-09-23T08:32:05Z</time>
      </trkpt>
      <trkpt lat="47.75289" lon="5.11971">
        <ele>386.17</ele>
        <time>2021-09-23T08:32:07Z</time>
      </trkpt>
      <trkpt lat="47.75289" lon="5.11966">
        <ele>385.99</ele>
        <time>2021-09-23T08:32:09Z</time>
      </trkpt>
      <trkpt lat="47.7529" lon="5.1196">
        <ele>385.88</ele>
        <time>2021-09-23T08:32:12Z</time>
      </trkpt>
      <trkpt lat="47.75291" lon="5.11956">
        <ele>385.84</ele>
        <time>2021-09-23T08:32:14Z</time>
      </trkpt>
      <trkpt lat="47.75292" lon="5.11951">
        <ele>385.77</ele>
        <time>2021-09-23T08:32:16Z</time>
      </trkpt>
      <trkpt lat="47.75294" lon="5.11947">
        <ele>385.84</ele>
        <time>2021-09-23T08:32:18Z</time>
      </trkpt>
      <trkpt lat="47.75296" lon="5.11942">
        <ele>385.68</ele>
        <time>2021-09-23T08:32:21Z</time>
      </trkpt>
      <trkpt lat="47.75297" lon="5.11938">
        <ele>385.29</ele>
        <time>2021-09-23T08:32:24Z</time>
      </trkpt>
      <trkpt lat="47.75299" lon="5.11933">
        <ele>384.84</ele>
        <time>2021-09-23T08:32:27Z</time>
      </trkpt>
      <trkpt lat="47.753" lon="5.11928">
        <ele>384.27</ele>
        <time>2021-09-23T08:32:29Z</time>
      </trkpt>
      <trkpt lat="47.75301" lon="5.11923">
        <ele>383.67</ele>
        <time>2021-09-23T08:32:31Z</time>
      </trkpt>
      <trkpt lat="47.75302" lon="5.11918">
        <ele>383.05</ele>
        <time>2021-09-23T08:32:34Z</time>
      </trkpt>
      <trkpt lat="47.75303" lon="5.11913">
        <ele>382.64</ele>
        <time>2021-09-23T08:32:37Z</time>
      </trkpt>
      <trkpt lat="47.75304" lon="5.11908">
        <ele>382.32</ele>
        <time>2021-09-23T08:32:39Z</time>
      </trkpt>
      <trkpt lat="47.75305" lon="5.11903">
        <ele>382</ele>
        <time>2021-09-23T08:32:42Z</time>
      </trkpt>
      <trkpt lat="47.75307" lon="5.11899">
        <ele>381.96</ele>
        <time>2021-09-23T08:32:45Z</time>
      </trkpt>
      <trkpt lat="47.75308" lon="5.11894">
        <ele>381.7</ele>
        <time>2021-09-23T08:32:47Z</time>
      </trkpt>
      <trkpt lat="47.7531" lon="5.1189">
        <ele>381.59</ele>
        <time>2021-09-23T08:32:49Z</time>
      </trkpt>
      <trkpt lat="47.75311" lon="5.11886">
        <ele>381.34</ele>
        <time>2021-09-23T08:32:51Z</time>
      </trkpt>
      <trkpt lat="47.75313" lon="5.11882">
        <ele>381.18</ele>
        <time>2021-09-23T08:32:54Z</time>
      </trkpt>
      <trkpt lat="47.75314" lon="5.11878">
        <ele>380.89</ele>
        <time>2021-09-23T08:32:58Z</time>
      </trkpt>
      <trkpt lat="47.75315" lon="5.11872">
        <ele>380.39</ele>
        <time>2021-09-23T08:33:02Z</time>
      </trkpt>
      <trkpt lat="47.75317" lon="5.11867">
        <ele>380.01</ele>
        <time>2021-09-23T08:33:05Z</time>
      </trkpt>
      <trkpt lat="47.75318" lon="5.11862">
        <ele>379.54</ele>
        <time>2021-09-23T08:33:08Z</time>
      </trkpt>
      <trkpt lat="47.75319" lon="5.11858">
        <ele>379.21</ele>
        <time>2021-09-23T08:33:10Z</time>
      </trkpt>
      <trkpt lat="47.75321" lon="5.11855">
        <ele>378.99</ele>
        <time>2021-09-23T08:33:12Z</time>
      </trkpt>
      <trkpt lat="47.75322" lon="5.11851">
        <ele>378.65</ele>
        <time>2021-09-23T08:33:14Z</time>
      </trkpt>
      <trkpt lat="47.75323" lon="5.11847">
        <ele>378.29</ele>
        <time>2021-09-23T08:33:16Z</time>
      </trkpt>
      <trkpt lat="47.75325" lon="5.11842">
        <ele>377.84</ele>
        <time>2021-09-23T08:33:19Z</time>
      </trkpt>
      <trkpt lat="47.75326" lon="5.11838">
        <ele>377.46</ele>
        <time>2021-09-23T08:33:22Z</time>
      </trkpt>
      <trkpt lat="47.75328" lon="5.11833">
        <ele>377.01</ele>
        <time>2021-09-23T08:33:25Z</time>
      </trkpt>
      <trkpt lat="47.7533" lon="5.11828">
        <ele>377.15</ele>
        <time>2021-09-23T08:33:28Z</time>
      </trkpt>
      <trkpt lat="47.75332" lon="5.11824">
        <ele>377.3</ele>
        <time>2021-09-23T08:33:31Z</time>
      </trkpt>
      <trkpt lat="47.75333" lon="5.11818">
        <ele>377.54</ele>
        <time>2021-09-23T08:33:34Z</time>
      </trkpt>
      <trkpt lat="47.75335" lon="5.11814">
        <ele>377.75</ele>
        <time>2021-09-23T08:33:37Z</time>
      </trkpt>
      <trkpt lat="47.75337" lon="5.11809">
        <ele>377.93</ele>
        <time>2021-09-23T08:33:40Z</time>
      </trkpt>
      <trkpt lat="47.75338" lon="5.11805">
        <ele>377.96</ele>
        <time>2021-09-23T08:33:43Z</time>
      </trkpt>
      <trkpt lat="47.7534" lon="5.11802">
        <ele>377.77</ele>
        <time>2021-09-23T08:33:47Z</time>
      </trkpt>
      <trkpt lat="47.75343" lon="5.11797">
        <ele>377.49</ele>
        <time>2021-09-23T08:33:51Z</time>
      </trkpt>
      <trkpt lat="47.75344" lon="5.11792">
        <ele>377.21</ele>
        <time>2021-09-23T08:33:53Z</time>
      </trkpt>
      <trkpt lat="47.75346" lon="5.11789">
        <ele>377.08</ele>
        <time>2021-09-23T08:33:55Z</time>
      </trkpt>
      <trkpt lat="47.75349" lon="5.11786">
        <ele>376.99</ele>
        <time>2021-09-23T08:33:57Z</time>
      </trkpt>
      <trkpt lat="47.75351" lon="5.11781">
        <ele>376.79</ele>
        <time>2021-09-23T08:34:00Z</time>
      </trkpt>
      <trkpt lat="47.75352" lon="5.11776">
        <ele>376.63</ele>
        <time>2021-09-23T08:34:03Z</time>
      </trkpt>
      <trkpt lat="47.75354" lon="5.11771">
        <ele>376.56</ele>
        <time>2021-09-23T08:34:06Z</time>
      </trkpt>
      <trkpt lat="47.75355" lon="5.11766">
        <ele>376.45</ele>
        <time>2021-09-23T08:34:09Z</time>
      </trkpt>
      <trkpt lat="47.75358" lon="5.11762">
        <ele>376.38</ele>
        <time>2021-09-23T08:34:12Z</time>
      </trkpt>
      <trkpt lat="47.75361" lon="5.11759">
        <ele>376.32</ele>
        <time>2021-09-23T08:34:15Z</time>
      </trkpt>
      <trkpt lat="47.75363" lon="5.11756">
        <ele>376.49</ele>
        <time>2021-09-23T08:34:18Z</time>
      </trkpt>
      <trkpt lat="47.75364" lon="5.11752">
        <ele>376.49</ele>
        <time>2021-09-23T08:34:21Z</time>
      </trkpt>
      <trkpt lat="47.75366" lon="5.11748">
        <ele>376.74</ele>
        <time>2021-09-23T08:34:24Z</time>
      </trkpt>
      <trkpt lat="47.75367" lon="5.11744">
        <ele>376.93</ele>
        <time>2021-09-23T08:34:27Z</time>
      </trkpt>
      <trkpt lat="47.75368" lon="5.11739">
        <ele>377.09</ele>
        <time>2021-09-23T08:34:29Z</time>
      </trkpt>
      <trkpt lat="47.7537" lon="5.11735">
        <ele>377.3</ele>
        <time>2021-09-23T08:34:31Z</time>
      </trkpt>
      <trkpt lat="47.75373" lon="5.11731">
        <ele>377.52</ele>
        <time>2021-09-23T08:34:33Z</time>
      </trkpt>
      <trkpt lat="47.75374" lon="5.11727">
        <ele>377.53</ele>
        <time>2021-09-23T08:34:35Z</time>
      </trkpt>
      <trkpt lat="47.75377" lon="5.11724">
        <ele>377.62</ele>
        <time>2021-09-23T08:34:38Z</time>
      </trkpt>
      <trkpt lat="47.75379" lon="5.11721">
        <ele>377.69</ele>
        <time>2021-09-23T08:34:41Z</time>
      </trkpt>
      <trkpt lat="47.7538" lon="5.11717">
        <ele>377.87</ele>
        <time>2021-09-23T08:34:43Z</time>
      </trkpt>
      <trkpt lat="47.75381" lon="5.11712">
        <ele>378.08</ele>
        <time>2021-09-23T08:34:45Z</time>
      </trkpt>
      <trkpt lat="47.75383" lon="5.11709">
        <ele>378.26</ele>
        <time>2021-09-23T08:34:48Z</time>
      </trkpt>
      <trkpt lat="47.75386" lon="5.11704">
        <ele>378.55</ele>
        <time>2021-09-23T08:34:51Z</time>
      </trkpt>
      <trkpt lat="47.75388" lon="5.11701">
        <ele>378.73</ele>
        <time>2021-09-23T08:34:53Z</time>
      </trkpt>
      <trkpt lat="47.7539" lon="5.11697">
        <ele>378.88</ele>
        <time>2021-09-23T08:34:55Z</time>
      </trkpt>
      <trkpt lat="47.75392" lon="5.11693">
        <ele>378.93</ele>
        <time>2021-09-23T08:34:57Z</time>
      </trkpt>
      <trkpt lat="47.75395" lon="5.11689">
        <ele>378.93</ele>
        <time>2021-09-23T08:34:59Z</time>
      </trkpt>
      <trkpt lat="47.75397" lon="5.11684">
        <ele>378.97</ele>
        <time>2021-09-23T08:35:01Z</time>
      </trkpt>
      <trkpt lat="47.75399" lon="5.11679">
        <ele>378.99</ele>
        <time>2021-09-23T08:35:03Z</time>
      </trkpt>
      <trkpt lat="47.75401" lon="5.11675">
        <ele>378.96</ele>
        <time>2021-09-23T08:35:05Z</time>
      </trkpt>
      <trkpt lat="47.75402" lon="5.11671">
        <ele>378.97</ele>
        <time>2021-09-23T08:35:07Z</time>
      </trkpt>
      <trkpt lat="47.75404" lon="5.11666">
        <ele>378.95</ele>
        <time>2021-09-23T08:35:10Z</time>
      </trkpt>
      <trkpt lat="47.75406" lon="5.11662">
        <ele>379</ele>
        <time>2021-09-23T08:35:13Z</time>
      </trkpt>
      <trkpt lat="47.75408" lon="5.11659">
        <ele>378.99</ele>
        <time>2021-09-23T08:35:15Z</time>
      </trkpt>
      <trkpt lat="47.75409" lon="5.11655">
        <ele>379.09</ele>
        <time>2021-09-23T08:35:17Z</time>
      </trkpt>
      <trkpt lat="47.75411" lon="5.11651">
        <ele>379.09</ele>
        <time>2021-09-23T08:35:20Z</time>
      </trkpt>
      <trkpt lat="47.75413" lon="5.11646">
        <ele>379.11</ele>
        <time>2021-09-23T08:35:23Z</time>
      </trkpt>
      <trkpt lat="47.75414" lon="5.11642">
        <ele>379.17</ele>
        <time>2021-09-23T08:35:26Z</time>
      </trkpt>
      <trkpt lat="47.75414" lon="5.11637">
        <ele>379.24</ele>
        <time>2021-09-23T08:35:29Z</time>
      </trkpt>
      <trkpt lat="47.75415" lon="5.11633">
        <ele>379.01</ele>
        <time>2021-09-23T08:35:31Z</time>
      </trkpt>
      <trkpt lat="47.75416" lon="5.11628">
        <ele>378.71</ele>
        <time>2021-09-23T08:35:33Z</time>
      </trkpt>
      <trkpt lat="47.75418" lon="5.11623">
        <ele>378.3</ele>
        <time>2021-09-23T08:35:35Z</time>
      </trkpt>
      <trkpt lat="47.75419" lon="5.11619">
        <ele>378.06</ele>
        <time>2021-09-23T08:35:37Z</time>
      </trkpt>
      <trkpt lat="47.7542" lon="5.11614">
        <ele>377.76</ele>
        <time>2021-09-23T08:35:39Z</time>
      </trkpt>
      <trkpt lat="47.75421" lon="5.1161">
        <ele>377.59</ele>
        <time>2021-09-23T08:35:41Z</time>
      </trkpt>
      <trkpt lat="47.75421" lon="5.11605">
        <ele>377.87</ele>
        <time>2021-09-23T08:35:44Z</time>
      </trkpt>
      <trkpt lat="47.75421" lon="5.11601">
        <ele>378.09</ele>
        <time>2021-09-23T08:35:47Z</time>
      </trkpt>
      <trkpt lat="47.75421" lon="5.11596">
        <ele>378.37</ele>
        <time>2021-09-23T08:35:50Z</time>
      </trkpt>
      <trkpt lat="47.75422" lon="5.11591">
        <ele>378.45</ele>
        <time>2021-09-23T08:35:53Z</time>
      </trkpt>
      <trkpt lat="47.75423" lon="5.11587">
        <ele>378.46</ele>
        <time>2021-09-23T08:35:56Z</time>
      </trkpt>
      <trkpt lat="47.75425" lon="5.11583">
        <ele>378.21</ele>
        <time>2021-09-23T08:35:59Z</time>
      </trkpt>
      <trkpt lat="47.75427" lon="5.1158">
        <ele>377.84</ele>
        <time>2021-09-23T08:36:02Z</time>
      </trkpt>
      <trkpt lat="47.75429" lon="5.11576">
        <ele>377.48</ele>
        <time>2021-09-23T08:36:05Z</time>
      </trkpt>
      <trkpt lat="47.75432" lon="5.11571">
        <ele>376.89</ele>
        <time>2021-09-23T08:36:08Z</time>
      </trkpt>
      <trkpt lat="47.75434" lon="5.11567">
        <ele>376.48</ele>
        <time>2021-09-23T08:36:11Z</time>
      </trkpt>
      <trkpt lat="47.75436" lon="5.11563">
        <ele>376.05</ele>
        <time>2021-09-23T08:36:14Z</time>
      </trkpt>
      <trkpt lat="47.75438" lon="5.1156">
        <ele>375.59</ele>
        <time>2021-09-23T08:36:16Z</time>
      </trkpt>
      <trkpt lat="47.7544" lon="5.11558">
        <ele>375.11</ele>
        <time>2021-09-23T08:36:18Z</time>
      </trkpt>
      <trkpt lat="47.75443" lon="5.11555">
        <ele>374.4</ele>
        <time>2021-09-23T08:36:20Z</time>
      </trkpt>
      <trkpt lat="47.75445" lon="5.11552">
        <ele>374.23</ele>
        <time>2021-09-23T08:36:23Z</time>
      </trkpt>
      <trkpt lat="47.75448" lon="5.11549">
        <ele>374.28</ele>
        <time>2021-09-23T08:36:27Z</time>
      </trkpt>
      <trkpt lat="47.75451" lon="5.1155">
        <ele>374.07</ele>
        <time>2021-09-23T08:36:30Z</time>
      </trkpt>
      <trkpt lat="47.75453" lon="5.11554">
        <ele>373.77</ele>
        <time>2021-09-23T08:36:34Z</time>
      </trkpt>
      <trkpt lat="47.75455" lon="5.11557">
        <ele>373.64</ele>
        <time>2021-09-23T08:36:40Z</time>
      </trkpt>
      <trkpt lat="47.75456" lon="5.11561">
        <ele>373.67</ele>
        <time>2021-09-23T08:36:46Z</time>
      </trkpt>
      <trkpt lat="47.75453" lon="5.11562">
        <ele>373.76</ele>
        <time>2021-09-23T08:37:53Z</time>
      </trkpt>
      <trkpt lat="47.75453" lon="5.11567">
        <ele>373.82</ele>
        <time>2021-09-23T08:38:09Z</time>
      </trkpt>
      <trkpt lat="47.75452" lon="5.11562">
        <ele>373.79</ele>
        <time>2021-09-23T08:38:21Z</time>
      </trkpt>
      <trkpt lat="47.7545" lon="5.11559">
        <ele>373.82</ele>
        <time>2021-09-23T08:38:24Z</time>
      </trkpt>
      <trkpt lat="47.75449" lon="5.11555">
        <ele>373.87</ele>
        <time>2021-09-23T08:38:28Z</time>
      </trkpt>
      <trkpt lat="47.75451" lon="5.11551">
        <ele>374.01</ele>
        <time>2021-09-23T08:38:32Z</time>
      </trkpt>
      <trkpt lat="47.75453" lon="5.11548">
        <ele>374.07</ele>
        <time>2021-09-23T08:38:36Z</time>
      </trkpt>
      <trkpt lat="47.75455" lon="5.11543">
        <ele>374.18</ele>
        <time>2021-09-23T08:38:39Z</time>
      </trkpt>
      <trkpt lat="47.75457" lon="5.11538">
        <ele>374.24</ele>
        <time>2021-09-23T08:38:42Z</time>
      </trkpt>
      <trkpt lat="47.75458" lon="5.11533">
        <ele>374.34</ele>
        <time>2021-09-23T08:38:46Z</time>
      </trkpt>
      <trkpt lat="47.7546" lon="5.11529">
        <ele>374.28</ele>
        <time>2021-09-23T08:38:49Z</time>
      </trkpt>
      <trkpt lat="47.75463" lon="5.11525">
        <ele>374.13</ele>
        <time>2021-09-23T08:38:52Z</time>
      </trkpt>
      <trkpt lat="47.75466" lon="5.11522">
        <ele>373.86</ele>
        <time>2021-09-23T08:38:55Z</time>
      </trkpt>
      <trkpt lat="47.75469" lon="5.1152">
        <ele>373.48</ele>
        <time>2021-09-23T08:38:57Z</time>
      </trkpt>
      <trkpt lat="47.75472" lon="5.11516">
        <ele>373.04</ele>
        <time>2021-09-23T08:39:00Z</time>
      </trkpt>
      <trkpt lat="47.75474" lon="5.11514">
        <ele>373</ele>
        <time>2021-09-23T08:39:02Z</time>
      </trkpt>
      <trkpt lat="47.75477" lon="5.11511">
        <ele>373</ele>
        <time>2021-09-23T08:39:04Z</time>
      </trkpt>
      <trkpt lat="47.75479" lon="5.11508">
        <ele>373</ele>
        <time>2021-09-23T08:39:06Z</time>
      </trkpt>
      <trkpt lat="47.75482" lon="5.11505">
        <ele>373</ele>
        <time>2021-09-23T08:39:08Z</time>
      </trkpt>
      <trkpt lat="47.75484" lon="5.11503">
        <ele>373</ele>
        <time>2021-09-23T08:39:10Z</time>
      </trkpt>
      <trkpt lat="47.75487" lon="5.11501">
        <ele>373</ele>
        <time>2021-09-23T08:39:13Z</time>
      </trkpt>
      <trkpt lat="47.75489" lon="5.11498">
        <ele>373.2</ele>
        <time>2021-09-23T08:39:16Z</time>
      </trkpt>
      <trkpt lat="47.7549" lon="5.11494">
        <ele>373.59</ele>
        <time>2021-09-23T08:39:19Z</time>
      </trkpt>
      <trkpt lat="47.75492" lon="5.11491">
        <ele>373.83</ele>
        <time>2021-09-23T08:39:22Z</time>
      </trkpt>
      <trkpt lat="47.75495" lon="5.11488">
        <ele>374.02</ele>
        <time>2021-09-23T08:39:26Z</time>
      </trkpt>
      <trkpt lat="47.75497" lon="5.11485">
        <ele>374.2</ele>
        <time>2021-09-23T08:39:29Z</time>
      </trkpt>
      <trkpt lat="47.75499" lon="5.11482">
        <ele>374.34</ele>
        <time>2021-09-23T08:39:32Z</time>
      </trkpt>
      <trkpt lat="47.75501" lon="5.11478">
        <ele>374.71</ele>
        <time>2021-09-23T08:39:35Z</time>
      </trkpt>
      <trkpt lat="47.75503" lon="5.11474">
        <ele>375.21</ele>
        <time>2021-09-23T08:39:37Z</time>
      </trkpt>
      <trkpt lat="47.75504" lon="5.1147">
        <ele>375.57</ele>
        <time>2021-09-23T08:39:39Z</time>
      </trkpt>
      <trkpt lat="47.75505" lon="5.11465">
        <ele>375.97</ele>
        <time>2021-09-23T08:39:42Z</time>
      </trkpt>
      <trkpt lat="47.75506" lon="5.11459">
        <ele>376.39</ele>
        <time>2021-09-23T08:39:45Z</time>
      </trkpt>
      <trkpt lat="47.75507" lon="5.11454">
        <ele>376.74</ele>
        <time>2021-09-23T08:39:47Z</time>
      </trkpt>
      <trkpt lat="47.75507" lon="5.1145">
        <ele>376.95</ele>
        <time>2021-09-23T08:39:49Z</time>
      </trkpt>
      <trkpt lat="47.75507" lon="5.11445">
        <ele>377.22</ele>
        <time>2021-09-23T08:39:52Z</time>
      </trkpt>
      <trkpt lat="47.75508" lon="5.11439">
        <ele>377.76</ele>
        <time>2021-09-23T08:39:55Z</time>
      </trkpt>
      <trkpt lat="47.75507" lon="5.11433">
        <ele>378.28</ele>
        <time>2021-09-23T08:39:58Z</time>
      </trkpt>
      <trkpt lat="47.75507" lon="5.11428">
        <ele>378.73</ele>
        <time>2021-09-23T08:40:01Z</time>
      </trkpt>
      <trkpt lat="47.75506" lon="5.11421">
        <ele>379.38</ele>
        <time>2021-09-23T08:40:04Z</time>
      </trkpt>
      <trkpt lat="47.75505" lon="5.11417">
        <ele>379.79</ele>
        <time>2021-09-23T08:40:06Z</time>
      </trkpt>
      <trkpt lat="47.75504" lon="5.11413">
        <ele>380.1</ele>
        <time>2021-09-23T08:40:08Z</time>
      </trkpt>
      <trkpt lat="47.75502" lon="5.11408">
        <ele>380.53</ele>
        <time>2021-09-23T08:40:11Z</time>
      </trkpt>
      <trkpt lat="47.75501" lon="5.11404">
        <ele>380.86</ele>
        <time>2021-09-23T08:40:13Z</time>
      </trkpt>
      <trkpt lat="47.755" lon="5.11399">
        <ele>381.27</ele>
        <time>2021-09-23T08:40:15Z</time>
      </trkpt>
      <trkpt lat="47.755" lon="5.11394">
        <ele>381.63</ele>
        <time>2021-09-23T08:40:17Z</time>
      </trkpt>
      <trkpt lat="47.755" lon="5.11389">
        <ele>381.99</ele>
        <time>2021-09-23T08:40:19Z</time>
      </trkpt>
      <trkpt lat="47.755" lon="5.11384">
        <ele>381.82</ele>
        <time>2021-09-23T08:40:22Z</time>
      </trkpt>
      <trkpt lat="47.75501" lon="5.11378">
        <ele>381.49</ele>
        <time>2021-09-23T08:40:25Z</time>
      </trkpt>
      <trkpt lat="47.75501" lon="5.11372">
        <ele>381.25</ele>
        <time>2021-09-23T08:40:28Z</time>
      </trkpt>
      <trkpt lat="47.75501" lon="5.11367">
        <ele>381.05</ele>
        <time>2021-09-23T08:40:31Z</time>
      </trkpt>
      <trkpt lat="47.75502" lon="5.11362">
        <ele>380.68</ele>
        <time>2021-09-23T08:40:34Z</time>
      </trkpt>
      <trkpt lat="47.75503" lon="5.11358">
        <ele>379.99</ele>
        <time>2021-09-23T08:40:36Z</time>
      </trkpt>
      <trkpt lat="47.75503" lon="5.11354">
        <ele>379.38</ele>
        <time>2021-09-23T08:40:38Z</time>
      </trkpt>
      <trkpt lat="47.75502" lon="5.11349">
        <ele>378.83</ele>
        <time>2021-09-23T08:40:40Z</time>
      </trkpt>
      <trkpt lat="47.75501" lon="5.11345">
        <ele>378.46</ele>
        <time>2021-09-23T08:40:42Z</time>
      </trkpt>
      <trkpt lat="47.755" lon="5.11341">
        <ele>378.1</ele>
        <time>2021-09-23T08:40:45Z</time>
      </trkpt>
      <trkpt lat="47.75499" lon="5.11337">
        <ele>377.78</ele>
        <time>2021-09-23T08:40:48Z</time>
      </trkpt>
      <trkpt lat="47.75499" lon="5.11332">
        <ele>377.02</ele>
        <time>2021-09-23T08:40:51Z</time>
      </trkpt>
      <trkpt lat="47.755" lon="5.11326">
        <ele>375.68</ele>
        <time>2021-09-23T08:40:54Z</time>
      </trkpt>
      <trkpt lat="47.75501" lon="5.11321">
        <ele>374.53</ele>
        <time>2021-09-23T08:40:56Z</time>
      </trkpt>
      <trkpt lat="47.75501" lon="5.11317">
        <ele>373.81</ele>
        <time>2021-09-23T08:40:58Z</time>
      </trkpt>
      <trkpt lat="47.75501" lon="5.11313">
        <ele>373.09</ele>
        <time>2021-09-23T08:41:00Z</time>
      </trkpt>
      <trkpt lat="47.755" lon="5.11307">
        <ele>372.26</ele>
        <time>2021-09-23T08:41:03Z</time>
      </trkpt>
      <trkpt lat="47.755" lon="5.11302">
        <ele>372.51</ele>
        <time>2021-09-23T08:41:05Z</time>
      </trkpt>
      <trkpt lat="47.75501" lon="5.11296">
        <ele>373.06</ele>
        <time>2021-09-23T08:41:07Z</time>
      </trkpt>
      <trkpt lat="47.75501" lon="5.11292">
        <ele>373.61</ele>
        <time>2021-09-23T08:41:09Z</time>
      </trkpt>
      <trkpt lat="47.755" lon="5.11288">
        <ele>374.53</ele>
        <time>2021-09-23T08:41:12Z</time>
      </trkpt>
      <trkpt lat="47.755" lon="5.11283">
        <ele>375.25</ele>
        <time>2021-09-23T08:41:16Z</time>
      </trkpt>
      <trkpt lat="47.75501" lon="5.11279">
        <ele>375.4</ele>
        <time>2021-09-23T08:41:18Z</time>
      </trkpt>
      <trkpt lat="47.75501" lon="5.11275">
        <ele>375.96</ele>
        <time>2021-09-23T08:41:20Z</time>
      </trkpt>
      <trkpt lat="47.75503" lon="5.1127">
        <ele>375.76</ele>
        <time>2021-09-23T08:41:22Z</time>
      </trkpt>
      <trkpt lat="47.75504" lon="5.11266">
        <ele>375.85</ele>
        <time>2021-09-23T08:41:24Z</time>
      </trkpt>
      <trkpt lat="47.75506" lon="5.11262">
        <ele>375.43</ele>
        <time>2021-09-23T08:41:26Z</time>
      </trkpt>
      <trkpt lat="47.75508" lon="5.11257">
        <ele>375.11</ele>
        <time>2021-09-23T08:41:28Z</time>
      </trkpt>
      <trkpt lat="47.7551" lon="5.11252">
        <ele>374.72</ele>
        <time>2021-09-23T08:41:30Z</time>
      </trkpt>
      <trkpt lat="47.75511" lon="5.11247">
        <ele>374.74</ele>
        <time>2021-09-23T08:41:32Z</time>
      </trkpt>
      <trkpt lat="47.75512" lon="5.11242">
        <ele>374.69</ele>
        <time>2021-09-23T08:41:35Z</time>
      </trkpt>
      <trkpt lat="47.75513" lon="5.11237">
        <ele>374.63</ele>
        <time>2021-09-23T08:41:39Z</time>
      </trkpt>
      <trkpt lat="47.75515" lon="5.11234">
        <ele>373.86</ele>
        <time>2021-09-23T08:41:41Z</time>
      </trkpt>
      <trkpt lat="47.75516" lon="5.11231">
        <ele>373.59</ele>
        <time>2021-09-23T08:41:43Z</time>
      </trkpt>
      <trkpt lat="47.75519" lon="5.11227">
        <ele>372.34</ele>
        <time>2021-09-23T08:41:46Z</time>
      </trkpt>
      <trkpt lat="47.75521" lon="5.11224">
        <ele>371.52</ele>
        <time>2021-09-23T08:41:48Z</time>
      </trkpt>
      <trkpt lat="47.75523" lon="5.1122">
        <ele>371.11</ele>
        <time>2021-09-23T08:41:50Z</time>
      </trkpt>
      <trkpt lat="47.75525" lon="5.11216">
        <ele>371.02</ele>
        <time>2021-09-23T08:41:52Z</time>
      </trkpt>
      <trkpt lat="47.75527" lon="5.11212">
        <ele>370.98</ele>
        <time>2021-09-23T08:41:54Z</time>
      </trkpt>
      <trkpt lat="47.75529" lon="5.11209">
        <ele>370.92</ele>
        <time>2021-09-23T08:41:56Z</time>
      </trkpt>
      <trkpt lat="47.75531" lon="5.11205">
        <ele>371.17</ele>
        <time>2021-09-23T08:41:58Z</time>
      </trkpt>
      <trkpt lat="47.75533" lon="5.11201">
        <ele>371.31</ele>
        <time>2021-09-23T08:42:00Z</time>
      </trkpt>
      <trkpt lat="47.75534" lon="5.11198">
        <ele>371.56</ele>
        <time>2021-09-23T08:42:02Z</time>
      </trkpt>
      <trkpt lat="47.75537" lon="5.11193">
        <ele>371.62</ele>
        <time>2021-09-23T08:42:05Z</time>
      </trkpt>
      <trkpt lat="47.75538" lon="5.11189">
        <ele>372.82</ele>
        <time>2021-09-23T08:42:07Z</time>
      </trkpt>
      <trkpt lat="47.7554" lon="5.11185">
        <ele>373.43</ele>
        <time>2021-09-23T08:42:10Z</time>
      </trkpt>
      <trkpt lat="47.75541" lon="5.1118">
        <ele>374.84</ele>
        <time>2021-09-23T08:42:13Z</time>
      </trkpt>
      <trkpt lat="47.75543" lon="5.11176">
        <ele>375.17</ele>
        <time>2021-09-23T08:42:16Z</time>
      </trkpt>
      <trkpt lat="47.75544" lon="5.1117">
        <ele>376.71</ele>
        <time>2021-09-23T08:42:19Z</time>
      </trkpt>
      <trkpt lat="47.75545" lon="5.11166">
        <ele>377.29</ele>
        <time>2021-09-23T08:42:21Z</time>
      </trkpt>
      <trkpt lat="47.75547" lon="5.11161">
        <ele>376.46</ele>
        <time>2021-09-23T08:42:24Z</time>
      </trkpt>
      <trkpt lat="47.75548" lon="5.11156">
        <ele>376.32</ele>
        <time>2021-09-23T08:42:27Z</time>
      </trkpt>
      <trkpt lat="47.75549" lon="5.1115">
        <ele>376.28</ele>
        <time>2021-09-23T08:42:30Z</time>
      </trkpt>
      <trkpt lat="47.75551" lon="5.11145">
        <ele>375.46</ele>
        <time>2021-09-23T08:42:33Z</time>
      </trkpt>
      <trkpt lat="47.75552" lon="5.1114">
        <ele>375.31</ele>
        <time>2021-09-23T08:42:35Z</time>
      </trkpt>
      <trkpt lat="47.75554" lon="5.11136">
        <ele>374.56</ele>
        <time>2021-09-23T08:42:37Z</time>
      </trkpt>
      <trkpt lat="47.75556" lon="5.11131">
        <ele>374.22</ele>
        <time>2021-09-23T08:42:39Z</time>
      </trkpt>
      <trkpt lat="47.75558" lon="5.11127">
        <ele>374.01</ele>
        <time>2021-09-23T08:42:41Z</time>
      </trkpt>
      <trkpt lat="47.75559" lon="5.11124">
        <ele>374.06</ele>
        <time>2021-09-23T08:42:43Z</time>
      </trkpt>
      <trkpt lat="47.75561" lon="5.1112">
        <ele>373.78</ele>
        <time>2021-09-23T08:42:46Z</time>
      </trkpt>
      <trkpt lat="47.75563" lon="5.11117">
        <ele>373.3</ele>
        <time>2021-09-23T08:42:49Z</time>
      </trkpt>
      <trkpt lat="47.75564" lon="5.11112">
        <ele>373.6</ele>
        <time>2021-09-23T08:42:52Z</time>
      </trkpt>
      <trkpt lat="47.75565" lon="5.11106">
        <ele>373.91</ele>
        <time>2021-09-23T08:42:55Z</time>
      </trkpt>
      <trkpt lat="47.75565" lon="5.11102">
        <ele>374.44</ele>
        <time>2021-09-23T08:42:57Z</time>
      </trkpt>
      <trkpt lat="47.75566" lon="5.11097">
        <ele>374.58</ele>
        <time>2021-09-23T08:42:59Z</time>
      </trkpt>
      <trkpt lat="47.75567" lon="5.11092">
        <ele>374.7</ele>
        <time>2021-09-23T08:43:01Z</time>
      </trkpt>
      <trkpt lat="47.75568" lon="5.11087">
        <ele>374.81</ele>
        <time>2021-09-23T08:43:03Z</time>
      </trkpt>
      <trkpt lat="47.75569" lon="5.11082">
        <ele>374.86</ele>
        <time>2021-09-23T08:43:05Z</time>
      </trkpt>
      <trkpt lat="47.7557" lon="5.11077">
        <ele>374.77</ele>
        <time>2021-09-23T08:43:07Z</time>
      </trkpt>
      <trkpt lat="47.7557" lon="5.11073">
        <ele>375.12</ele>
        <time>2021-09-23T08:43:09Z</time>
      </trkpt>
      <trkpt lat="47.75571" lon="5.11067">
        <ele>375.1</ele>
        <time>2021-09-23T08:43:12Z</time>
      </trkpt>
      <trkpt lat="47.75571" lon="5.11063">
        <ele>375.45</ele>
        <time>2021-09-23T08:43:15Z</time>
      </trkpt>
      <trkpt lat="47.7557" lon="5.11057">
        <ele>376.55</ele>
        <time>2021-09-23T08:43:18Z</time>
      </trkpt>
      <trkpt lat="47.75569" lon="5.11053">
        <ele>377.07</ele>
        <time>2021-09-23T08:43:20Z</time>
      </trkpt>
      <trkpt lat="47.75568" lon="5.11049">
        <ele>377.31</ele>
        <time>2021-09-23T08:43:22Z</time>
      </trkpt>
      <trkpt lat="47.75566" lon="5.11045">
        <ele>378.04</ele>
        <time>2021-09-23T08:43:24Z</time>
      </trkpt>
      <trkpt lat="47.75565" lon="5.1104">
        <ele>378.08</ele>
        <time>2021-09-23T08:43:26Z</time>
      </trkpt>
      <trkpt lat="47.75564" lon="5.11036">
        <ele>378.18</ele>
        <time>2021-09-23T08:43:28Z</time>
      </trkpt>
      <trkpt lat="47.75563" lon="5.11031">
        <ele>378.12</ele>
        <time>2021-09-23T08:43:30Z</time>
      </trkpt>
      <trkpt lat="47.75562" lon="5.11027">
        <ele>378.15</ele>
        <time>2021-09-23T08:43:32Z</time>
      </trkpt>
      <trkpt lat="47.7556" lon="5.11023">
        <ele>378.65</ele>
        <time>2021-09-23T08:43:34Z</time>
      </trkpt>
      <trkpt lat="47.75559" lon="5.1102">
        <ele>378.78</ele>
        <time>2021-09-23T08:43:36Z</time>
      </trkpt>
      <trkpt lat="47.75558" lon="5.11015">
        <ele>378.69</ele>
        <time>2021-09-23T08:43:38Z</time>
      </trkpt>
      <trkpt lat="47.75557" lon="5.11011">
        <ele>378.66</ele>
        <time>2021-09-23T08:43:40Z</time>
      </trkpt>
      <trkpt lat="47.75556" lon="5.11006">
        <ele>378.49</ele>
        <time>2021-09-23T08:43:42Z</time>
      </trkpt>
      <trkpt lat="47.75556" lon="5.11001">
        <ele>377.96</ele>
        <time>2021-09-23T08:43:44Z</time>
      </trkpt>
      <trkpt lat="47.75554" lon="5.10996">
        <ele>378.66</ele>
        <time>2021-09-23T08:43:46Z</time>
      </trkpt>
      <trkpt lat="47.75554" lon="5.10991">
        <ele>378.65</ele>
        <time>2021-09-23T08:43:48Z</time>
      </trkpt>
      <trkpt lat="47.75553" lon="5.10987">
        <ele>379.06</ele>
        <time>2021-09-23T08:43:50Z</time>
      </trkpt>
      <trkpt lat="47.75552" lon="5.10981">
        <ele>379.45</ele>
        <time>2021-09-23T08:43:53Z</time>
      </trkpt>
      <trkpt lat="47.75551" lon="5.10977">
        <ele>379.83</ele>
        <time>2021-09-23T08:43:55Z</time>
      </trkpt>
      <trkpt lat="47.75549" lon="5.10973">
        <ele>380.6</ele>
        <time>2021-09-23T08:43:57Z</time>
      </trkpt>
      <trkpt lat="47.75547" lon="5.10967">
        <ele>381.07</ele>
        <time>2021-09-23T08:43:59Z</time>
      </trkpt>
      <trkpt lat="47.75547" lon="5.10962">
        <ele>380.77</ele>
        <time>2021-09-23T08:44:01Z</time>
      </trkpt>
      <trkpt lat="47.75547" lon="5.10956">
        <ele>380.4</ele>
        <time>2021-09-23T08:44:04Z</time>
      </trkpt>
      <trkpt lat="47.75546" lon="5.10951">
        <ele>380.52</ele>
        <time>2021-09-23T08:44:07Z</time>
      </trkpt>
      <trkpt lat="47.75546" lon="5.10945">
        <ele>380.16</ele>
        <time>2021-09-23T08:44:10Z</time>
      </trkpt>
      <trkpt lat="47.75546" lon="5.1094">
        <ele>379.81</ele>
        <time>2021-09-23T08:44:12Z</time>
      </trkpt>
      <trkpt lat="47.75547" lon="5.10934">
        <ele>378.94</ele>
        <time>2021-09-23T08:44:15Z</time>
      </trkpt>
      <trkpt lat="47.75547" lon="5.10929">
        <ele>378.58</ele>
        <time>2021-09-23T08:44:18Z</time>
      </trkpt>
      <trkpt lat="47.75546" lon="5.10923">
        <ele>378.58</ele>
        <time>2021-09-23T08:44:21Z</time>
      </trkpt>
      <trkpt lat="47.75546" lon="5.10918">
        <ele>378.22</ele>
        <time>2021-09-23T08:44:23Z</time>
      </trkpt>
      <trkpt lat="47.75545" lon="5.10913">
        <ele>378.15</ele>
        <time>2021-09-23T08:44:26Z</time>
      </trkpt>
      <trkpt lat="47.75544" lon="5.10908">
        <ele>377.98</ele>
        <time>2021-09-23T08:44:29Z</time>
      </trkpt>
      <trkpt lat="47.75544" lon="5.10904">
        <ele>377.51</ele>
        <time>2021-09-23T08:44:32Z</time>
      </trkpt>
      <trkpt lat="47.75544" lon="5.10898">
        <ele>376.81</ele>
        <time>2021-09-23T08:44:35Z</time>
      </trkpt>
      <trkpt lat="47.75544" lon="5.10893">
        <ele>376.22</ele>
        <time>2021-09-23T08:44:37Z</time>
      </trkpt>
      <trkpt lat="47.75544" lon="5.10887">
        <ele>375.61</ele>
        <time>2021-09-23T08:44:39Z</time>
      </trkpt>
      <trkpt lat="47.75544" lon="5.10883">
        <ele>375.32</ele>
        <time>2021-09-23T08:44:41Z</time>
      </trkpt>
      <trkpt lat="47.75543" lon="5.10877">
        <ele>375.21</ele>
        <time>2021-09-23T08:44:44Z</time>
      </trkpt>
      <trkpt lat="47.75542" lon="5.10872">
        <ele>375.18</ele>
        <time>2021-09-23T08:44:47Z</time>
      </trkpt>
      <trkpt lat="47.75541" lon="5.10867">
        <ele>375.14</ele>
        <time>2021-09-23T08:44:50Z</time>
      </trkpt>
      <trkpt lat="47.75541" lon="5.10862">
        <ele>374.78</ele>
        <time>2021-09-23T08:44:52Z</time>
      </trkpt>
      <trkpt lat="47.7554" lon="5.10857">
        <ele>374.87</ele>
        <time>2021-09-23T08:44:54Z</time>
      </trkpt>
      <trkpt lat="47.75539" lon="5.10853">
        <ele>375.02</ele>
        <time>2021-09-23T08:44:56Z</time>
      </trkpt>
      <trkpt lat="47.75537" lon="5.10849">
        <ele>375.43</ele>
        <time>2021-09-23T08:44:58Z</time>
      </trkpt>
      <trkpt lat="47.75536" lon="5.10844">
        <ele>375.47</ele>
        <time>2021-09-23T08:45:01Z</time>
      </trkpt>
      <trkpt lat="47.75535" lon="5.10839">
        <ele>375.48</ele>
        <time>2021-09-23T08:45:04Z</time>
      </trkpt>
      <trkpt lat="47.75534" lon="5.10833">
        <ele>375.43</ele>
        <time>2021-09-23T08:45:06Z</time>
      </trkpt>
      <trkpt lat="47.75534" lon="5.10828">
        <ele>375.33</ele>
        <time>2021-09-23T08:45:08Z</time>
      </trkpt>
      <trkpt lat="47.75533" lon="5.10824">
        <ele>375.47</ele>
        <time>2021-09-23T08:45:10Z</time>
      </trkpt>
      <trkpt lat="47.75532" lon="5.10821">
        <ele>375.63</ele>
        <time>2021-09-23T08:45:12Z</time>
      </trkpt>
      <trkpt lat="47.75531" lon="5.10816">
        <ele>375.71</ele>
        <time>2021-09-23T08:45:14Z</time>
      </trkpt>
      <trkpt lat="47.7553" lon="5.10812">
        <ele>375.79</ele>
        <time>2021-09-23T08:45:16Z</time>
      </trkpt>
      <trkpt lat="47.75529" lon="5.10806">
        <ele>375.79</ele>
        <time>2021-09-23T08:45:18Z</time>
      </trkpt>
      <trkpt lat="47.75529" lon="5.10801">
        <ele>375.62</ele>
        <time>2021-09-23T08:45:20Z</time>
      </trkpt>
      <trkpt lat="47.75529" lon="5.10795">
        <ele>375.4</ele>
        <time>2021-09-23T08:45:22Z</time>
      </trkpt>
      <trkpt lat="47.75529" lon="5.1079">
        <ele>375.22</ele>
        <time>2021-09-23T08:45:24Z</time>
      </trkpt>
      <trkpt lat="47.75529" lon="5.10786">
        <ele>375.08</ele>
        <time>2021-09-23T08:45:26Z</time>
      </trkpt>
      <trkpt lat="47.75529" lon="5.10782">
        <ele>374.93</ele>
        <time>2021-09-23T08:45:30Z</time>
      </trkpt>
      <trkpt lat="47.7553" lon="5.10778">
        <ele>374.61</ele>
        <time>2021-09-23T08:45:33Z</time>
      </trkpt>
      <trkpt lat="47.7553" lon="5.10773">
        <ele>374.1</ele>
        <time>2021-09-23T08:45:35Z</time>
      </trkpt>
      <trkpt lat="47.75529" lon="5.10768">
        <ele>373.74</ele>
        <time>2021-09-23T08:45:37Z</time>
      </trkpt>
      <trkpt lat="47.75529" lon="5.10764">
        <ele>373.31</ele>
        <time>2021-09-23T08:45:39Z</time>
      </trkpt>
      <trkpt lat="47.75529" lon="5.10758">
        <ele>372.68</ele>
        <time>2021-09-23T08:45:43Z</time>
      </trkpt>
      <trkpt lat="47.7553" lon="5.10753">
        <ele>372</ele>
        <time>2021-09-23T08:45:45Z</time>
      </trkpt>
      <trkpt lat="47.75531" lon="5.10747">
        <ele>371.21</ele>
        <time>2021-09-23T08:45:47Z</time>
      </trkpt>
      <trkpt lat="47.75533" lon="5.10743">
        <ele>370.49</ele>
        <time>2021-09-23T08:45:52Z</time>
      </trkpt>
      <trkpt lat="47.75535" lon="5.10741">
        <ele>369.99</ele>
        <time>2021-09-23T08:45:56Z</time>
      </trkpt>
      <trkpt lat="47.75538" lon="5.10738">
        <ele>369.23</ele>
        <time>2021-09-23T08:45:59Z</time>
      </trkpt>
      <trkpt lat="47.75541" lon="5.10736">
        <ele>368.58</ele>
        <time>2021-09-23T08:46:02Z</time>
      </trkpt>
      <trkpt lat="47.75544" lon="5.10734">
        <ele>367.94</ele>
        <time>2021-09-23T08:46:05Z</time>
      </trkpt>
      <trkpt lat="47.75547" lon="5.10733">
        <ele>367.4</ele>
        <time>2021-09-23T08:46:08Z</time>
      </trkpt>
      <trkpt lat="47.7555" lon="5.10732">
        <ele>366.86</ele>
        <time>2021-09-23T08:46:11Z</time>
      </trkpt>
      <trkpt lat="47.75553" lon="5.1073">
        <ele>366.21</ele>
        <time>2021-09-23T08:46:14Z</time>
      </trkpt>
      <trkpt lat="47.75555" lon="5.10728">
        <ele>365.7</ele>
        <time>2021-09-23T08:46:17Z</time>
      </trkpt>
      <trkpt lat="47.75559" lon="5.10727">
        <ele>365.47</ele>
        <time>2021-09-23T08:46:20Z</time>
      </trkpt>
      <trkpt lat="47.75562" lon="5.10727">
        <ele>365.44</ele>
        <time>2021-09-23T08:46:22Z</time>
      </trkpt>
      <trkpt lat="47.75566" lon="5.10728">
        <ele>365.47</ele>
        <time>2021-09-23T08:46:24Z</time>
      </trkpt>
      <trkpt lat="47.75569" lon="5.10728">
        <ele>365.42</ele>
        <time>2021-09-23T08:46:26Z</time>
      </trkpt>
      <trkpt lat="47.75572" lon="5.10727">
        <ele>365.31</ele>
        <time>2021-09-23T08:46:29Z</time>
      </trkpt>
      <trkpt lat="47.75575" lon="5.10727">
        <ele>365.28</ele>
        <time>2021-09-23T08:46:32Z</time>
      </trkpt>
      <trkpt lat="47.75579" lon="5.10727">
        <ele>365.23</ele>
        <time>2021-09-23T08:46:35Z</time>
      </trkpt>
      <trkpt lat="47.75582" lon="5.10725">
        <ele>365.11</ele>
        <time>2021-09-23T08:46:38Z</time>
      </trkpt>
      <trkpt lat="47.75585" lon="5.10724">
        <ele>365.24</ele>
        <time>2021-09-23T08:46:40Z</time>
      </trkpt>
      <trkpt lat="47.75588" lon="5.10723">
        <ele>365.53</ele>
        <time>2021-09-23T08:46:42Z</time>
      </trkpt>
      <trkpt lat="47.75591" lon="5.10722">
        <ele>365.8</ele>
        <time>2021-09-23T08:46:44Z</time>
      </trkpt>
      <trkpt lat="47.75594" lon="5.10721">
        <ele>366.03</ele>
        <time>2021-09-23T08:46:47Z</time>
      </trkpt>
      <trkpt lat="47.75598" lon="5.10721">
        <ele>366.48</ele>
        <time>2021-09-23T08:46:50Z</time>
      </trkpt>
      <trkpt lat="47.75601" lon="5.1072">
        <ele>366.74</ele>
        <time>2021-09-23T08:46:53Z</time>
      </trkpt>
      <trkpt lat="47.75605" lon="5.10719">
        <ele>367.15</ele>
        <time>2021-09-23T08:46:56Z</time>
      </trkpt>
      <trkpt lat="47.75608" lon="5.1072">
        <ele>367.56</ele>
        <time>2021-09-23T08:46:59Z</time>
      </trkpt>
      <trkpt lat="47.75612" lon="5.1072">
        <ele>368.09</ele>
        <time>2021-09-23T08:47:02Z</time>
      </trkpt>
      <trkpt lat="47.75615" lon="5.10721">
        <ele>368.67</ele>
        <time>2021-09-23T08:47:05Z</time>
      </trkpt>
      <trkpt lat="47.75618" lon="5.10723">
        <ele>369.27</ele>
        <time>2021-09-23T08:47:08Z</time>
      </trkpt>
      <trkpt lat="47.75621" lon="5.10725">
        <ele>369.88</ele>
        <time>2021-09-23T08:47:11Z</time>
      </trkpt>
      <trkpt lat="47.75625" lon="5.10727">
        <ele>370.67</ele>
        <time>2021-09-23T08:47:14Z</time>
      </trkpt>
      <trkpt lat="47.75627" lon="5.10728">
        <ele>371.07</ele>
        <time>2021-09-23T08:47:17Z</time>
      </trkpt>
      <trkpt lat="47.7563" lon="5.10728">
        <ele>371.61</ele>
        <time>2021-09-23T08:47:49Z</time>
      </trkpt>
      <trkpt lat="47.75633" lon="5.10729">
        <ele>372.18</ele>
        <time>2021-09-23T08:48:30Z</time>
      </trkpt>
      <trkpt lat="47.75636" lon="5.10729">
        <ele>372.72</ele>
        <time>2021-09-23T08:49:35Z</time>
      </trkpt>
      <trkpt lat="47.75634" lon="5.10726">
        <ele>372.26</ele>
        <time>2021-09-23T08:50:15Z</time>
      </trkpt>
      <trkpt lat="47.75631" lon="5.10728">
        <ele>371.79</ele>
        <time>2021-09-23T08:50:47Z</time>
      </trkpt>
      <trkpt lat="47.75632" lon="5.10732">
        <ele>372.11</ele>
        <time>2021-09-23T08:51:25Z</time>
      </trkpt>
      <trkpt lat="47.75633" lon="5.10736">
        <ele>372.44</ele>
        <time>2021-09-23T08:51:29Z</time>
      </trkpt>
      <trkpt lat="47.75636" lon="5.10738">
        <ele>373.05</ele>
        <time>2021-09-23T08:51:32Z</time>
      </trkpt>
      <trkpt lat="47.75638" lon="5.10741">
        <ele>373.52</ele>
        <time>2021-09-23T08:51:36Z</time>
      </trkpt>
      <trkpt lat="47.75639" lon="5.10745">
        <ele>373.85</ele>
        <time>2021-09-23T08:51:40Z</time>
      </trkpt>
      <trkpt lat="47.75641" lon="5.10748">
        <ele>374.46</ele>
        <time>2021-09-23T08:51:43Z</time>
      </trkpt>
      <trkpt lat="47.75643" lon="5.10753">
        <ele>375.11</ele>
        <time>2021-09-23T08:51:46Z</time>
      </trkpt>
      <trkpt lat="47.75643" lon="5.10757">
        <ele>375.21</ele>
        <time>2021-09-23T08:51:48Z</time>
      </trkpt>
      <trkpt lat="47.75643" lon="5.10762">
        <ele>375.34</ele>
        <time>2021-09-23T08:51:52Z</time>
      </trkpt>
      <trkpt lat="47.75643" lon="5.10766">
        <ele>375.44</ele>
        <time>2021-09-23T08:51:56Z</time>
      </trkpt>
      <trkpt lat="47.75644" lon="5.10771">
        <ele>375.77</ele>
        <time>2021-09-23T08:52:00Z</time>
      </trkpt>
      <trkpt lat="47.75644" lon="5.10775">
        <ele>375.86</ele>
        <time>2021-09-23T08:52:03Z</time>
      </trkpt>
      <trkpt lat="47.75645" lon="5.10781">
        <ele>375.8</ele>
        <time>2021-09-23T08:52:06Z</time>
      </trkpt>
      <trkpt lat="47.75645" lon="5.10785">
        <ele>375.43</ele>
        <time>2021-09-23T08:52:08Z</time>
      </trkpt>
      <trkpt lat="47.75646" lon="5.1079">
        <ele>375.19</ele>
        <time>2021-09-23T08:52:10Z</time>
      </trkpt>
      <trkpt lat="47.75647" lon="5.10794">
        <ele>375.05</ele>
        <time>2021-09-23T08:52:12Z</time>
      </trkpt>
      <trkpt lat="47.75648" lon="5.10798">
        <ele>374.93</ele>
        <time>2021-09-23T08:52:15Z</time>
      </trkpt>
      <trkpt lat="47.75649" lon="5.10802">
        <ele>374.84</ele>
        <time>2021-09-23T08:52:18Z</time>
      </trkpt>
      <trkpt lat="47.7565" lon="5.10807">
        <ele>374.75</ele>
        <time>2021-09-23T08:52:21Z</time>
      </trkpt>
      <trkpt lat="47.75652" lon="5.10811">
        <ele>375.11</ele>
        <time>2021-09-23T08:52:24Z</time>
      </trkpt>
      <trkpt lat="47.75654" lon="5.10816">
        <ele>375.43</ele>
        <time>2021-09-23T08:52:27Z</time>
      </trkpt>
      <trkpt lat="47.75657" lon="5.1082">
        <ele>376.04</ele>
        <time>2021-09-23T08:52:30Z</time>
      </trkpt>
      <trkpt lat="47.75659" lon="5.10824">
        <ele>376.4</ele>
        <time>2021-09-23T08:52:33Z</time>
      </trkpt>
      <trkpt lat="47.75662" lon="5.10826">
        <ele>377.09</ele>
        <time>2021-09-23T08:52:36Z</time>
      </trkpt>
      <trkpt lat="47.75664" lon="5.1083">
        <ele>377.45</ele>
        <time>2021-09-23T08:52:39Z</time>
      </trkpt>
      <trkpt lat="47.75666" lon="5.10834">
        <ele>377.81</ele>
        <time>2021-09-23T08:52:43Z</time>
      </trkpt>
      <trkpt lat="47.75668" lon="5.10836">
        <ele>377.85</ele>
        <time>2021-09-23T08:52:49Z</time>
      </trkpt>
      <trkpt lat="47.75671" lon="5.10839">
        <ele>377.61</ele>
        <time>2021-09-23T08:52:52Z</time>
      </trkpt>
      <trkpt lat="47.75674" lon="5.10844">
        <ele>377.25</ele>
        <time>2021-09-23T08:52:54Z</time>
      </trkpt>
      <trkpt lat="47.75676" lon="5.10848">
        <ele>376.96</ele>
        <time>2021-09-23T08:52:56Z</time>
      </trkpt>
      <trkpt lat="47.75679" lon="5.10851">
        <ele>376.64</ele>
        <time>2021-09-23T08:52:58Z</time>
      </trkpt>
      <trkpt lat="47.75682" lon="5.10853">
        <ele>376.35</ele>
        <time>2021-09-23T08:53:00Z</time>
      </trkpt>
      <trkpt lat="47.75684" lon="5.10857">
        <ele>375.99</ele>
        <time>2021-09-23T08:53:02Z</time>
      </trkpt>
      <trkpt lat="47.75687" lon="5.10861">
        <ele>375.54</ele>
        <time>2021-09-23T08:53:04Z</time>
      </trkpt>
      <trkpt lat="47.75689" lon="5.10863">
        <ele>375.22</ele>
        <time>2021-09-23T08:53:06Z</time>
      </trkpt>
      <trkpt lat="47.75692" lon="5.10866">
        <ele>374.78</ele>
        <time>2021-09-23T08:53:08Z</time>
      </trkpt>
      <trkpt lat="47.75695" lon="5.10869">
        <ele>374.44</ele>
        <time>2021-09-23T08:53:11Z</time>
      </trkpt>
      <trkpt lat="47.75698" lon="5.10872">
        <ele>374.24</ele>
        <time>2021-09-23T08:53:14Z</time>
      </trkpt>
      <trkpt lat="47.75701" lon="5.10875">
        <ele>374</ele>
        <time>2021-09-23T08:53:17Z</time>
      </trkpt>
      <trkpt lat="47.75703" lon="5.10878">
        <ele>373.72</ele>
        <time>2021-09-23T08:53:20Z</time>
      </trkpt>
      <trkpt lat="47.75706" lon="5.10881">
        <ele>373.39</ele>
        <time>2021-09-23T08:53:24Z</time>
      </trkpt>
      <trkpt lat="47.75709" lon="5.10882">
        <ele>373.23</ele>
        <time>2021-09-23T08:53:28Z</time>
      </trkpt>
      <trkpt lat="47.75712" lon="5.10884">
        <ele>372.94</ele>
        <time>2021-09-23T08:53:31Z</time>
      </trkpt>
      <trkpt lat="47.75716" lon="5.10887">
        <ele>372.47</ele>
        <time>2021-09-23T08:53:34Z</time>
      </trkpt>
      <trkpt lat="47.75719" lon="5.10888">
        <ele>372.24</ele>
        <time>2021-09-23T08:53:37Z</time>
      </trkpt>
      <trkpt lat="47.75723" lon="5.10888">
        <ele>372.15</ele>
        <time>2021-09-23T08:53:40Z</time>
      </trkpt>
      <trkpt lat="47.75726" lon="5.10887">
        <ele>372.38</ele>
        <time>2021-09-23T08:53:44Z</time>
      </trkpt>
      <trkpt lat="47.7573" lon="5.10887">
        <ele>372.49</ele>
        <time>2021-09-23T08:53:47Z</time>
      </trkpt>
      <trkpt lat="47.75733" lon="5.10887">
        <ele>372.58</ele>
        <time>2021-09-23T08:53:49Z</time>
      </trkpt>
      <trkpt lat="47.75737" lon="5.10888">
        <ele>372.61</ele>
        <time>2021-09-23T08:53:51Z</time>
      </trkpt>
      <trkpt lat="47.7574" lon="5.10888">
        <ele>372.71</ele>
        <time>2021-09-23T08:53:53Z</time>
      </trkpt>
      <trkpt lat="47.75743" lon="5.10889">
        <ele>372.74</ele>
        <time>2021-09-23T08:53:55Z</time>
      </trkpt>
      <trkpt lat="47.75746" lon="5.1089">
        <ele>372.79</ele>
        <time>2021-09-23T08:53:57Z</time>
      </trkpt>
      <trkpt lat="47.75749" lon="5.10891">
        <ele>372.82</ele>
        <time>2021-09-23T08:53:59Z</time>
      </trkpt>
      <trkpt lat="47.75752" lon="5.10892">
        <ele>372.73</ele>
        <time>2021-09-23T08:54:01Z</time>
      </trkpt>
      <trkpt lat="47.75755" lon="5.10893">
        <ele>372.6</ele>
        <time>2021-09-23T08:54:03Z</time>
      </trkpt>
      <trkpt lat="47.75758" lon="5.10893">
        <ele>372.54</ele>
        <time>2021-09-23T08:54:05Z</time>
      </trkpt>
      <trkpt lat="47.75761" lon="5.10894">
        <ele>372.45</ele>
        <time>2021-09-23T08:54:08Z</time>
      </trkpt>
      <trkpt lat="47.75764" lon="5.10896">
        <ele>372.37</ele>
        <time>2021-09-23T08:54:10Z</time>
      </trkpt>
      <trkpt lat="47.75767" lon="5.10898">
        <ele>372.33</ele>
        <time>2021-09-23T08:54:12Z</time>
      </trkpt>
      <trkpt lat="47.75771" lon="5.10899">
        <ele>372.34</ele>
        <time>2021-09-23T08:54:15Z</time>
      </trkpt>
      <trkpt lat="47.75774" lon="5.109">
        <ele>372.37</ele>
        <time>2021-09-23T08:54:19Z</time>
      </trkpt>
      <trkpt lat="47.75777" lon="5.10901">
        <ele>372.43</ele>
        <time>2021-09-23T08:54:26Z</time>
      </trkpt>
      <trkpt lat="47.7578" lon="5.10902">
        <ele>372.83</ele>
        <time>2021-09-23T08:54:28Z</time>
      </trkpt>
      <trkpt lat="47.75784" lon="5.10904">
        <ele>373.56</ele>
        <time>2021-09-23T08:54:30Z</time>
      </trkpt>
      <trkpt lat="47.75788" lon="5.10906">
        <ele>374.31</ele>
        <time>2021-09-23T08:54:33Z</time>
      </trkpt>
      <trkpt lat="47.75791" lon="5.10906">
        <ele>374.81</ele>
        <time>2021-09-23T08:54:35Z</time>
      </trkpt>
      <trkpt lat="47.75794" lon="5.10907">
        <ele>375.37</ele>
        <time>2021-09-23T08:54:37Z</time>
      </trkpt>
      <trkpt lat="47.75797" lon="5.10909">
        <ele>375.99</ele>
        <time>2021-09-23T08:54:39Z</time>
      </trkpt>
      <trkpt lat="47.758" lon="5.1091">
        <ele>376.57</ele>
        <time>2021-09-23T08:54:41Z</time>
      </trkpt>
      <trkpt lat="47.75802" lon="5.10911">
        <ele>376.98</ele>
        <time>2021-09-23T08:54:43Z</time>
      </trkpt>
      <trkpt lat="47.75806" lon="5.10913">
        <ele>377.73</ele>
        <time>2021-09-23T08:54:46Z</time>
      </trkpt>
      <trkpt lat="47.75809" lon="5.10915">
        <ele>377.79</ele>
        <time>2021-09-23T08:54:48Z</time>
      </trkpt>
      <trkpt lat="47.75812" lon="5.10917">
        <ele>377.77</ele>
        <time>2021-09-23T08:54:51Z</time>
      </trkpt>
      <trkpt lat="47.75815" lon="5.10918">
        <ele>377.68</ele>
        <time>2021-09-23T08:54:54Z</time>
      </trkpt>
      <trkpt lat="47.75818" lon="5.10919">
        <ele>377.59</ele>
        <time>2021-09-23T08:54:56Z</time>
      </trkpt>
      <trkpt lat="47.75821" lon="5.10921">
        <ele>377.53</ele>
        <time>2021-09-23T08:54:58Z</time>
      </trkpt>
      <trkpt lat="47.75823" lon="5.10924">
        <ele>377.54</ele>
        <time>2021-09-23T08:55:00Z</time>
      </trkpt>
      <trkpt lat="47.75826" lon="5.10926">
        <ele>377.51</ele>
        <time>2021-09-23T08:55:03Z</time>
      </trkpt>
      <trkpt lat="47.75829" lon="5.10928">
        <ele>377.5</ele>
        <time>2021-09-23T08:55:06Z</time>
      </trkpt>
      <trkpt lat="47.75833" lon="5.10931">
        <ele>377.52</ele>
        <time>2021-09-23T08:55:09Z</time>
      </trkpt>
      <trkpt lat="47.75835" lon="5.10933">
        <ele>377.82</ele>
        <time>2021-09-23T08:55:11Z</time>
      </trkpt>
      <trkpt lat="47.75838" lon="5.10935">
        <ele>378.28</ele>
        <time>2021-09-23T08:55:14Z</time>
      </trkpt>
      <trkpt lat="47.75841" lon="5.10938">
        <ele>378.72</ele>
        <time>2021-09-23T08:55:17Z</time>
      </trkpt>
      <trkpt lat="47.75843" lon="5.1094">
        <ele>379</ele>
        <time>2021-09-23T08:55:20Z</time>
      </trkpt>
      <trkpt lat="47.75847" lon="5.10941">
        <ele>379.47</ele>
        <time>2021-09-23T08:55:23Z</time>
      </trkpt>
      <trkpt lat="47.7585" lon="5.10943">
        <ele>379.81</ele>
        <time>2021-09-23T08:55:26Z</time>
      </trkpt>
      <trkpt lat="47.75853" lon="5.10944">
        <ele>380.13</ele>
        <time>2021-09-23T08:55:28Z</time>
      </trkpt>
      <trkpt lat="47.75856" lon="5.10947">
        <ele>380.32</ele>
        <time>2021-09-23T08:55:31Z</time>
      </trkpt>
      <trkpt lat="47.75859" lon="5.10949">
        <ele>380.58</ele>
        <time>2021-09-23T08:55:34Z</time>
      </trkpt>
      <trkpt lat="47.75862" lon="5.1095">
        <ele>380.97</ele>
        <time>2021-09-23T08:55:36Z</time>
      </trkpt>
      <trkpt lat="47.75865" lon="5.10951">
        <ele>381.5</ele>
        <time>2021-09-23T08:55:38Z</time>
      </trkpt>
      <trkpt lat="47.75868" lon="5.10951">
        <ele>382.08</ele>
        <time>2021-09-23T08:55:40Z</time>
      </trkpt>
      <trkpt lat="47.75871" lon="5.10952">
        <ele>382.57</ele>
        <time>2021-09-23T08:55:43Z</time>
      </trkpt>
      <trkpt lat="47.75875" lon="5.10953">
        <ele>383.23</ele>
        <time>2021-09-23T08:55:46Z</time>
      </trkpt>
      <trkpt lat="47.75878" lon="5.10955">
        <ele>383.57</ele>
        <time>2021-09-23T08:55:48Z</time>
      </trkpt>
      <trkpt lat="47.75881" lon="5.10957">
        <ele>383.87</ele>
        <time>2021-09-23T08:55:51Z</time>
      </trkpt>
      <trkpt lat="47.75885" lon="5.1096">
        <ele>384.16</ele>
        <time>2021-09-23T08:55:54Z</time>
      </trkpt>
      <trkpt lat="47.75888" lon="5.10962">
        <ele>384.34</ele>
        <time>2021-09-23T08:55:56Z</time>
      </trkpt>
      <trkpt lat="47.75891" lon="5.10964">
        <ele>384.2</ele>
        <time>2021-09-23T08:55:58Z</time>
      </trkpt>
      <trkpt lat="47.75894" lon="5.10966">
        <ele>383.88</ele>
        <time>2021-09-23T08:56:00Z</time>
      </trkpt>
      <trkpt lat="47.75897" lon="5.10968">
        <ele>383.49</ele>
        <time>2021-09-23T08:56:02Z</time>
      </trkpt>
      <trkpt lat="47.75899" lon="5.1097">
        <ele>383.07</ele>
        <time>2021-09-23T08:56:04Z</time>
      </trkpt>
      <trkpt lat="47.75902" lon="5.10973">
        <ele>382.35</ele>
        <time>2021-09-23T08:56:06Z</time>
      </trkpt>
      <trkpt lat="47.75905" lon="5.10975">
        <ele>381.75</ele>
        <time>2021-09-23T08:56:08Z</time>
      </trkpt>
      <trkpt lat="47.75907" lon="5.10977">
        <ele>381.15</ele>
        <time>2021-09-23T08:56:10Z</time>
      </trkpt>
      <trkpt lat="47.7591" lon="5.10979">
        <ele>380.46</ele>
        <time>2021-09-23T08:56:13Z</time>
      </trkpt>
      <trkpt lat="47.75914" lon="5.10981">
        <ele>379.66</ele>
        <time>2021-09-23T08:56:16Z</time>
      </trkpt>
      <trkpt lat="47.75917" lon="5.10984">
        <ele>378.67</ele>
        <time>2021-09-23T08:56:19Z</time>
      </trkpt>
      <trkpt lat="47.7592" lon="5.10987">
        <ele>378.34</ele>
        <time>2021-09-23T08:56:22Z</time>
      </trkpt>
      <trkpt lat="47.75923" lon="5.1099">
        <ele>378.02</ele>
        <time>2021-09-23T08:56:25Z</time>
      </trkpt>
      <trkpt lat="47.75925" lon="5.10994">
        <ele>377.23</ele>
        <time>2021-09-23T08:56:27Z</time>
      </trkpt>
      <trkpt lat="47.75927" lon="5.10997">
        <ele>376.72</ele>
        <time>2021-09-23T08:56:29Z</time>
      </trkpt>
      <trkpt lat="47.7593" lon="5.11">
        <ele>376.4</ele>
        <time>2021-09-23T08:56:31Z</time>
      </trkpt>
      <trkpt lat="47.75932" lon="5.11003">
        <ele>376.11</ele>
        <time>2021-09-23T08:56:34Z</time>
      </trkpt>
      <trkpt lat="47.75935" lon="5.11006">
        <ele>376</ele>
        <time>2021-09-23T08:56:37Z</time>
      </trkpt>
      <trkpt lat="47.75937" lon="5.1101">
        <ele>375.5</ele>
        <time>2021-09-23T08:56:41Z</time>
      </trkpt>
      <trkpt lat="47.7594" lon="5.11014">
        <ele>375.18</ele>
        <time>2021-09-23T08:56:44Z</time>
      </trkpt>
      <trkpt lat="47.75942" lon="5.11016">
        <ele>375.1</ele>
        <time>2021-09-23T08:56:46Z</time>
      </trkpt>
      <trkpt lat="47.75945" lon="5.11018">
        <ele>375.24</ele>
        <time>2021-09-23T08:56:48Z</time>
      </trkpt>
      <trkpt lat="47.75948" lon="5.11021">
        <ele>375.33</ele>
        <time>2021-09-23T08:56:51Z</time>
      </trkpt>
      <trkpt lat="47.75952" lon="5.11023">
        <ele>375.89</ele>
        <time>2021-09-23T08:56:55Z</time>
      </trkpt>
      <trkpt lat="47.75955" lon="5.11027">
        <ele>375.82</ele>
        <time>2021-09-23T08:56:58Z</time>
      </trkpt>
      <trkpt lat="47.75957" lon="5.1103">
        <ele>376.13</ele>
        <time>2021-09-23T08:57:00Z</time>
      </trkpt>
      <trkpt lat="47.75959" lon="5.11034">
        <ele>376.55</ele>
        <time>2021-09-23T08:57:02Z</time>
      </trkpt>
      <trkpt lat="47.75962" lon="5.11036">
        <ele>377.24</ele>
        <time>2021-09-23T08:57:05Z</time>
      </trkpt>
      <trkpt lat="47.75965" lon="5.11038">
        <ele>377.91</ele>
        <time>2021-09-23T08:57:08Z</time>
      </trkpt>
      <trkpt lat="47.75968" lon="5.1104">
        <ele>378.56</ele>
        <time>2021-09-23T08:57:11Z</time>
      </trkpt>
      <trkpt lat="47.7597" lon="5.11042">
        <ele>378.97</ele>
        <time>2021-09-23T08:57:16Z</time>
      </trkpt>
      <trkpt lat="47.75973" lon="5.11044">
        <ele>379.67</ele>
        <time>2021-09-23T08:57:19Z</time>
      </trkpt>
      <trkpt lat="47.75975" lon="5.11046">
        <ele>380.25</ele>
        <time>2021-09-23T08:57:21Z</time>
      </trkpt>
      <trkpt lat="47.75977" lon="5.11049">
        <ele>380.73</ele>
        <time>2021-09-23T08:57:23Z</time>
      </trkpt>
      <trkpt lat="47.7598" lon="5.11052">
        <ele>381.48</ele>
        <time>2021-09-23T08:57:26Z</time>
      </trkpt>
      <trkpt lat="47.75982" lon="5.11055">
        <ele>381.86</ele>
        <time>2021-09-23T08:57:28Z</time>
      </trkpt>
      <trkpt lat="47.75985" lon="5.11059">
        <ele>382.13</ele>
        <time>2021-09-23T08:57:30Z</time>
      </trkpt>
      <trkpt lat="47.75987" lon="5.11061">
        <ele>382.37</ele>
        <time>2021-09-23T08:57:32Z</time>
      </trkpt>
      <trkpt lat="47.75989" lon="5.11064">
        <ele>382.43</ele>
        <time>2021-09-23T08:57:34Z</time>
      </trkpt>
      <trkpt lat="47.75992" lon="5.11067">
        <ele>382.75</ele>
        <time>2021-09-23T08:57:36Z</time>
      </trkpt>
      <trkpt lat="47.75994" lon="5.11069">
        <ele>382.96</ele>
        <time>2021-09-23T08:57:38Z</time>
      </trkpt>
      <trkpt lat="47.75996" lon="5.11073">
        <ele>382.8</ele>
        <time>2021-09-23T08:57:41Z</time>
      </trkpt>
      <trkpt lat="47.75998" lon="5.11077">
        <ele>382.62</ele>
        <time>2021-09-23T08:57:43Z</time>
      </trkpt>
      <trkpt lat="47.76" lon="5.1108">
        <ele>382.6</ele>
        <time>2021-09-23T08:57:45Z</time>
      </trkpt>
      <trkpt lat="47.76003" lon="5.11084">
        <ele>382.75</ele>
        <time>2021-09-23T08:57:48Z</time>
      </trkpt>
      <trkpt lat="47.76004" lon="5.11087">
        <ele>382.57</ele>
        <time>2021-09-23T08:57:50Z</time>
      </trkpt>
      <trkpt lat="47.76007" lon="5.11092">
        <ele>382.77</ele>
        <time>2021-09-23T08:57:53Z</time>
      </trkpt>
      <trkpt lat="47.76008" lon="5.11096">
        <ele>382.55</ele>
        <time>2021-09-23T08:57:56Z</time>
      </trkpt>
      <trkpt lat="47.76011" lon="5.111">
        <ele>383.12</ele>
        <time>2021-09-23T08:58:00Z</time>
      </trkpt>
      <trkpt lat="47.76012" lon="5.11104">
        <ele>383.02</ele>
        <time>2021-09-23T08:58:02Z</time>
      </trkpt>
      <trkpt lat="47.76015" lon="5.11107">
        <ele>383.9</ele>
        <time>2021-09-23T08:58:04Z</time>
      </trkpt>
      <trkpt lat="47.76016" lon="5.11111">
        <ele>383.92</ele>
        <time>2021-09-23T08:58:06Z</time>
      </trkpt>
      <trkpt lat="47.76019" lon="5.11115">
        <ele>384.93</ele>
        <time>2021-09-23T08:58:09Z</time>
      </trkpt>
      <trkpt lat="47.76021" lon="5.11118">
        <ele>385.58</ele>
        <time>2021-09-23T08:58:12Z</time>
      </trkpt>
      <trkpt lat="47.76023" lon="5.11121">
        <ele>386.22</ele>
        <time>2021-09-23T08:58:14Z</time>
      </trkpt>
      <trkpt lat="47.76026" lon="5.11125">
        <ele>387.23</ele>
        <time>2021-09-23T08:58:16Z</time>
      </trkpt>
      <trkpt lat="47.76028" lon="5.11128">
        <ele>387.84</ele>
        <time>2021-09-23T08:58:18Z</time>
      </trkpt>
      <trkpt lat="47.7603" lon="5.11131">
        <ele>388.11</ele>
        <time>2021-09-23T08:58:21Z</time>
      </trkpt>
      <trkpt lat="47.76032" lon="5.11135">
        <ele>388.32</ele>
        <time>2021-09-23T08:58:25Z</time>
      </trkpt>
      <trkpt lat="47.76033" lon="5.11138">
        <ele>388.37</ele>
        <time>2021-09-23T08:58:28Z</time>
      </trkpt>
      <trkpt lat="47.76035" lon="5.11142">
        <ele>388.65</ele>
        <time>2021-09-23T08:58:32Z</time>
      </trkpt>
      <trkpt lat="47.76036" lon="5.11146">
        <ele>388.66</ele>
        <time>2021-09-23T08:58:36Z</time>
      </trkpt>
      <trkpt lat="47.76038" lon="5.11149">
        <ele>388.94</ele>
        <time>2021-09-23T08:58:40Z</time>
      </trkpt>
      <trkpt lat="47.76039" lon="5.11153">
        <ele>388.91</ele>
        <time>2021-09-23T08:58:42Z</time>
      </trkpt>
      <trkpt lat="47.76041" lon="5.11158">
        <ele>388.99</ele>
        <time>2021-09-23T08:58:44Z</time>
      </trkpt>
      <trkpt lat="47.76043" lon="5.11164">
        <ele>388.94</ele>
        <time>2021-09-23T08:58:46Z</time>
      </trkpt>
      <trkpt lat="47.76046" lon="5.11168">
        <ele>389.17</ele>
        <time>2021-09-23T08:58:48Z</time>
      </trkpt>
      <trkpt lat="47.76049" lon="5.11174">
        <ele>389.15</ele>
        <time>2021-09-23T08:58:50Z</time>
      </trkpt>
      <trkpt lat="47.76052" lon="5.11179">
        <ele>389.14</ele>
        <time>2021-09-23T08:58:52Z</time>
      </trkpt>
      <trkpt lat="47.76053" lon="5.11183">
        <ele>388.88</ele>
        <time>2021-09-23T08:58:54Z</time>
      </trkpt>
      <trkpt lat="47.76055" lon="5.11187">
        <ele>388.73</ele>
        <time>2021-09-23T08:58:56Z</time>
      </trkpt>
      <trkpt lat="47.76057" lon="5.11191">
        <ele>388.78</ele>
        <time>2021-09-23T08:59:00Z</time>
      </trkpt>
      <trkpt lat="47.76059" lon="5.11195">
        <ele>388.93</ele>
        <time>2021-09-23T08:59:04Z</time>
      </trkpt>
      <trkpt lat="47.76061" lon="5.11199">
        <ele>389.11</ele>
        <time>2021-09-23T08:59:06Z</time>
      </trkpt>
      <trkpt lat="47.76062" lon="5.11203">
        <ele>389</ele>
        <time>2021-09-23T08:59:08Z</time>
      </trkpt>
      <trkpt lat="47.76064" lon="5.11208">
        <ele>389.12</ele>
        <time>2021-09-23T08:59:10Z</time>
      </trkpt>
      <trkpt lat="47.76066" lon="5.11213">
        <ele>389.26</ele>
        <time>2021-09-23T08:59:13Z</time>
      </trkpt>
      <trkpt lat="47.76068" lon="5.11217">
        <ele>389.51</ele>
        <time>2021-09-23T08:59:16Z</time>
      </trkpt>
      <trkpt lat="47.7607" lon="5.11221">
        <ele>389.79</ele>
        <time>2021-09-23T08:59:19Z</time>
      </trkpt>
      <trkpt lat="47.76072" lon="5.11225">
        <ele>389.95</ele>
        <time>2021-09-23T08:59:22Z</time>
      </trkpt>
      <trkpt lat="47.76075" lon="5.11228">
        <ele>390.45</ele>
        <time>2021-09-23T08:59:25Z</time>
      </trkpt>
      <trkpt lat="47.76077" lon="5.11231">
        <ele>390.58</ele>
        <time>2021-09-23T08:59:27Z</time>
      </trkpt>
      <trkpt lat="47.7608" lon="5.11233">
        <ele>391.12</ele>
        <time>2021-09-23T08:59:29Z</time>
      </trkpt>
      <trkpt lat="47.76082" lon="5.11238">
        <ele>390.81</ele>
        <time>2021-09-23T08:59:32Z</time>
      </trkpt>
      <trkpt lat="47.76084" lon="5.11243">
        <ele>390.5</ele>
        <time>2021-09-23T08:59:35Z</time>
      </trkpt>
      <trkpt lat="47.76085" lon="5.11247">
        <ele>390.17</ele>
        <time>2021-09-23T08:59:37Z</time>
      </trkpt>
      <trkpt lat="47.76087" lon="5.11252">
        <ele>390.31</ele>
        <time>2021-09-23T08:59:39Z</time>
      </trkpt>
      <trkpt lat="47.76089" lon="5.11257">
        <ele>390.74</ele>
        <time>2021-09-23T08:59:41Z</time>
      </trkpt>
      <trkpt lat="47.7609" lon="5.11261">
        <ele>390.85</ele>
        <time>2021-09-23T08:59:43Z</time>
      </trkpt>
      <trkpt lat="47.76092" lon="5.11264">
        <ele>391.42</ele>
        <time>2021-09-23T08:59:45Z</time>
      </trkpt>
      <trkpt lat="47.76094" lon="5.11267">
        <ele>392</ele>
        <time>2021-09-23T08:59:47Z</time>
      </trkpt>
      <trkpt lat="47.76096" lon="5.11272">
        <ele>392.43</ele>
        <time>2021-09-23T08:59:50Z</time>
      </trkpt>
      <trkpt lat="47.76098" lon="5.11276">
        <ele>392.94</ele>
        <time>2021-09-23T08:59:53Z</time>
      </trkpt>
      <trkpt lat="47.761" lon="5.1128">
        <ele>393.39</ele>
        <time>2021-09-23T08:59:56Z</time>
      </trkpt>
      <trkpt lat="47.76102" lon="5.11283">
        <ele>393.89</ele>
        <time>2021-09-23T08:59:58Z</time>
      </trkpt>
      <trkpt lat="47.76103" lon="5.11287">
        <ele>393.89</ele>
        <time>2021-09-23T09:00:00Z</time>
      </trkpt>
      <trkpt lat="47.76105" lon="5.11291">
        <ele>394.26</ele>
        <time>2021-09-23T09:00:02Z</time>
      </trkpt>
      <trkpt lat="47.76107" lon="5.11296">
        <ele>394.5</ele>
        <time>2021-09-23T09:00:05Z</time>
      </trkpt>
      <trkpt lat="47.76108" lon="5.113">
        <ele>394.46</ele>
        <time>2021-09-23T09:00:07Z</time>
      </trkpt>
      <trkpt lat="47.7611" lon="5.11304">
        <ele>394.77</ele>
        <time>2021-09-23T09:00:09Z</time>
      </trkpt>
      <trkpt lat="47.76111" lon="5.11309">
        <ele>394.71</ele>
        <time>2021-09-23T09:00:12Z</time>
      </trkpt>
      <trkpt lat="47.76112" lon="5.11313">
        <ele>394.7</ele>
        <time>2021-09-23T09:00:15Z</time>
      </trkpt>
      <trkpt lat="47.76113" lon="5.11317">
        <ele>394.68</ele>
        <time>2021-09-23T09:00:19Z</time>
      </trkpt>
      <trkpt lat="47.76114" lon="5.11321">
        <ele>394.67</ele>
        <time>2021-09-23T09:00:22Z</time>
      </trkpt>
      <trkpt lat="47.76115" lon="5.11326">
        <ele>394.61</ele>
        <time>2021-09-23T09:00:25Z</time>
      </trkpt>
      <trkpt lat="47.76117" lon="5.11331">
        <ele>394.85</ele>
        <time>2021-09-23T09:00:29Z</time>
      </trkpt>
      <trkpt lat="47.76118" lon="5.11335">
        <ele>394.77</ele>
        <time>2021-09-23T09:00:32Z</time>
      </trkpt>
      <trkpt lat="47.76119" lon="5.11339">
        <ele>394.57</ele>
        <time>2021-09-23T09:00:37Z</time>
      </trkpt>
      <trkpt lat="47.7612" lon="5.11344">
        <ele>394.27</ele>
        <time>2021-09-23T09:00:41Z</time>
      </trkpt>
      <trkpt lat="47.76121" lon="5.11349">
        <ele>393.99</ele>
        <time>2021-09-23T09:00:43Z</time>
      </trkpt>
      <trkpt lat="47.76121" lon="5.11354">
        <ele>393.4</ele>
        <time>2021-09-23T09:00:45Z</time>
      </trkpt>
      <trkpt lat="47.76122" lon="5.11358">
        <ele>393.28</ele>
        <time>2021-09-23T09:00:47Z</time>
      </trkpt>
      <trkpt lat="47.76122" lon="5.11364">
        <ele>392.65</ele>
        <time>2021-09-23T09:00:50Z</time>
      </trkpt>
      <trkpt lat="47.76123" lon="5.1137">
        <ele>392.46</ele>
        <time>2021-09-23T09:00:54Z</time>
      </trkpt>
      <trkpt lat="47.76123" lon="5.11375">
        <ele>391.99</ele>
        <time>2021-09-23T09:00:56Z</time>
      </trkpt>
      <trkpt lat="47.76123" lon="5.1138">
        <ele>391.53</ele>
        <time>2021-09-23T09:00:58Z</time>
      </trkpt>
      <trkpt lat="47.76124" lon="5.11384">
        <ele>391.55</ele>
        <time>2021-09-23T09:01:01Z</time>
      </trkpt>
      <trkpt lat="47.76125" lon="5.11389">
        <ele>391.49</ele>
        <time>2021-09-23T09:01:09Z</time>
      </trkpt>
      <trkpt lat="47.76127" lon="5.11392">
        <ele>391.88</ele>
        <time>2021-09-23T09:01:13Z</time>
      </trkpt>
      <trkpt lat="47.76129" lon="5.11395">
        <ele>392.22</ele>
        <time>2021-09-23T09:01:19Z</time>
      </trkpt>
      <trkpt lat="47.76129" lon="5.11399">
        <ele>391.65</ele>
        <time>2021-09-23T09:01:22Z</time>
      </trkpt>
      <trkpt lat="47.7613" lon="5.11405">
        <ele>391.14</ele>
        <time>2021-09-23T09:01:25Z</time>
      </trkpt>
      <trkpt lat="47.76131" lon="5.1141">
        <ele>390.72</ele>
        <time>2021-09-23T09:01:28Z</time>
      </trkpt>
      <trkpt lat="47.76131" lon="5.11415">
        <ele>389.98</ele>
        <time>2021-09-23T09:01:31Z</time>
      </trkpt>
      <trkpt lat="47.76131" lon="5.11419">
        <ele>389.75</ele>
        <time>2021-09-23T09:01:34Z</time>
      </trkpt>
      <trkpt lat="47.76131" lon="5.11423">
        <ele>389.79</ele>
        <time>2021-09-23T09:01:39Z</time>
      </trkpt>
      <trkpt lat="47.76131" lon="5.11428">
        <ele>389.84</ele>
        <time>2021-09-23T09:01:43Z</time>
      </trkpt>
      <trkpt lat="47.76131" lon="5.11433">
        <ele>389.89</ele>
        <time>2021-09-23T09:01:46Z</time>
      </trkpt>
      <trkpt lat="47.76132" lon="5.11439">
        <ele>390.22</ele>
        <time>2021-09-23T09:01:48Z</time>
      </trkpt>
      <trkpt lat="47.76132" lon="5.11444">
        <ele>390.26</ele>
        <time>2021-09-23T09:01:50Z</time>
      </trkpt>
      <trkpt lat="47.76132" lon="5.11449">
        <ele>390.3</ele>
        <time>2021-09-23T09:01:52Z</time>
      </trkpt>
      <trkpt lat="47.76133" lon="5.11453">
        <ele>390.58</ele>
        <time>2021-09-23T09:01:54Z</time>
      </trkpt>
      <trkpt lat="47.76132" lon="5.11459">
        <ele>390.39</ele>
        <time>2021-09-23T09:01:57Z</time>
      </trkpt>
      <trkpt lat="47.76131" lon="5.11463">
        <ele>390.2</ele>
        <time>2021-09-23T09:02:00Z</time>
      </trkpt>
      <trkpt lat="47.76128" lon="5.11465">
        <ele>389.55</ele>
        <time>2021-09-23T09:02:03Z</time>
      </trkpt>
      <trkpt lat="47.76125" lon="5.11467">
        <ele>388.91</ele>
        <time>2021-09-23T09:02:06Z</time>
      </trkpt>
      <trkpt lat="47.76123" lon="5.11469">
        <ele>388.5</ele>
        <time>2021-09-23T09:02:09Z</time>
      </trkpt>
      <trkpt lat="47.7612" lon="5.11472">
        <ele>387.91</ele>
        <time>2021-09-23T09:02:13Z</time>
      </trkpt>
      <trkpt lat="47.76118" lon="5.11475">
        <ele>387.41</ele>
        <time>2021-09-23T09:02:17Z</time>
      </trkpt>
      <trkpt lat="47.76115" lon="5.11478">
        <ele>386.66</ele>
        <time>2021-09-23T09:02:20Z</time>
      </trkpt>
      <trkpt lat="47.76112" lon="5.1148">
        <ele>385.92</ele>
        <time>2021-09-23T09:02:23Z</time>
      </trkpt>
      <trkpt lat="47.76111" lon="5.11484">
        <ele>385.57</ele>
        <time>2021-09-23T09:02:28Z</time>
      </trkpt>
      <trkpt lat="47.7611" lon="5.11489">
        <ele>385.36</ele>
        <time>2021-09-23T09:02:31Z</time>
      </trkpt>
      <trkpt lat="47.76109" lon="5.11494">
        <ele>385.18</ele>
        <time>2021-09-23T09:02:34Z</time>
      </trkpt>
      <trkpt lat="47.76107" lon="5.11497">
        <ele>385.08</ele>
        <time>2021-09-23T09:02:41Z</time>
      </trkpt>
      <trkpt lat="47.76106" lon="5.11501">
        <ele>384.98</ele>
        <time>2021-09-23T09:02:44Z</time>
      </trkpt>
      <trkpt lat="47.76106" lon="5.11505">
        <ele>384.89</ele>
        <time>2021-09-23T09:02:49Z</time>
      </trkpt>
      <trkpt lat="47.76105" lon="5.11511">
        <ele>384.78</ele>
        <time>2021-09-23T09:02:53Z</time>
      </trkpt>
      <trkpt lat="47.76105" lon="5.11516">
        <ele>384.68</ele>
        <time>2021-09-23T09:02:55Z</time>
      </trkpt>
      <trkpt lat="47.76105" lon="5.1152">
        <ele>384.6</ele>
        <time>2021-09-23T09:02:57Z</time>
      </trkpt>
      <trkpt lat="47.76103" lon="5.11524">
        <ele>384.64</ele>
        <time>2021-09-23T09:03:00Z</time>
      </trkpt>
      <trkpt lat="47.76101" lon="5.11527">
        <ele>384.74</ele>
        <time>2021-09-23T09:03:03Z</time>
      </trkpt>
      <trkpt lat="47.76098" lon="5.1153">
        <ele>384.94</ele>
        <time>2021-09-23T09:03:06Z</time>
      </trkpt>
      <trkpt lat="47.76095" lon="5.11534">
        <ele>385.16</ele>
        <time>2021-09-23T09:03:08Z</time>
      </trkpt>
      <trkpt lat="47.76092" lon="5.11541">
        <ele>385.38</ele>
        <time>2021-09-23T09:03:10Z</time>
      </trkpt>
      <trkpt lat="47.76091" lon="5.11545">
        <ele>385.45</ele>
        <time>2021-09-23T09:03:11Z</time>
      </trkpt>
      <trkpt lat="47.7609" lon="5.11549">
        <ele>385.52</ele>
        <time>2021-09-23T09:03:12Z</time>
      </trkpt>
      <trkpt lat="47.7609" lon="5.11556">
        <ele>385.52</ele>
        <time>2021-09-23T09:03:14Z</time>
      </trkpt>
      <trkpt lat="47.7609" lon="5.1156">
        <ele>385.56</ele>
        <time>2021-09-23T09:03:16Z</time>
      </trkpt>
      <trkpt lat="47.76091" lon="5.11563">
        <ele>385.52</ele>
        <time>2021-09-23T09:03:19Z</time>
      </trkpt>
      <trkpt lat="47.76094" lon="5.11566">
        <ele>385.38</ele>
        <time>2021-09-23T09:03:24Z</time>
      </trkpt>
      <trkpt lat="47.76097" lon="5.11567">
        <ele>385.22</ele>
        <time>2021-09-23T09:03:28Z</time>
      </trkpt>
      <trkpt lat="47.76098" lon="5.11571">
        <ele>385.24</ele>
        <time>2021-09-23T09:03:40Z</time>
      </trkpt>
      <trkpt lat="47.76098" lon="5.11576">
        <ele>385.33</ele>
        <time>2021-09-23T09:03:44Z</time>
      </trkpt>
      <trkpt lat="47.76097" lon="5.11581">
        <ele>385.47</ele>
        <time>2021-09-23T09:03:46Z</time>
      </trkpt>
      <trkpt lat="47.76096" lon="5.11586">
        <ele>385.64</ele>
        <time>2021-09-23T09:03:49Z</time>
      </trkpt>
      <trkpt lat="47.76095" lon="5.1159">
        <ele>385.82</ele>
        <time>2021-09-23T09:03:53Z</time>
      </trkpt>
      <trkpt lat="47.76095" lon="5.11595">
        <ele>386</ele>
        <time>2021-09-23T09:03:59Z</time>
      </trkpt>
      <trkpt lat="47.76094" lon="5.11599">
        <ele>386.18</ele>
        <time>2021-09-23T09:04:02Z</time>
      </trkpt>
      <trkpt lat="47.76094" lon="5.11604">
        <ele>386.36</ele>
        <time>2021-09-23T09:04:04Z</time>
      </trkpt>
      <trkpt lat="47.76094" lon="5.11608">
        <ele>386.5</ele>
        <time>2021-09-23T09:04:06Z</time>
      </trkpt>
      <trkpt lat="47.76095" lon="5.11614">
        <ele>386.54</ele>
        <time>2021-09-23T09:04:08Z</time>
      </trkpt>
      <trkpt lat="47.76095" lon="5.11619">
        <ele>386.46</ele>
        <time>2021-09-23T09:04:10Z</time>
      </trkpt>
      <trkpt lat="47.76096" lon="5.11624">
        <ele>386.33</ele>
        <time>2021-09-23T09:04:13Z</time>
      </trkpt>
      <trkpt lat="47.76096" lon="5.11628">
        <ele>386.27</ele>
        <time>2021-09-23T09:04:17Z</time>
      </trkpt>
      <trkpt lat="47.76097" lon="5.11633">
        <ele>386.12</ele>
        <time>2021-09-23T09:04:20Z</time>
      </trkpt>
      <trkpt lat="47.76097" lon="5.11637">
        <ele>386.05</ele>
        <time>2021-09-23T09:04:22Z</time>
      </trkpt>
      <trkpt lat="47.76097" lon="5.11643">
        <ele>386.02</ele>
        <time>2021-09-23T09:04:24Z</time>
      </trkpt>
      <trkpt lat="47.76097" lon="5.11647">
        <ele>386.02</ele>
        <time>2021-09-23T09:04:26Z</time>
      </trkpt>
      <trkpt lat="47.76097" lon="5.11651">
        <ele>386.02</ele>
        <time>2021-09-23T09:04:29Z</time>
      </trkpt>
      <trkpt lat="47.76098" lon="5.11656">
        <ele>385.94</ele>
        <time>2021-09-23T09:04:33Z</time>
      </trkpt>
      <trkpt lat="47.76098" lon="5.11661">
        <ele>385.94</ele>
        <time>2021-09-23T09:04:35Z</time>
      </trkpt>
      <trkpt lat="47.76099" lon="5.11667">
        <ele>385.86</ele>
        <time>2021-09-23T09:04:37Z</time>
      </trkpt>
      <trkpt lat="47.76099" lon="5.11673">
        <ele>385.61</ele>
        <time>2021-09-23T09:04:39Z</time>
      </trkpt>
      <trkpt lat="47.761" lon="5.11679">
        <ele>385.27</ele>
        <time>2021-09-23T09:04:41Z</time>
      </trkpt>
      <trkpt lat="47.761" lon="5.11684">
        <ele>385.05</ele>
        <time>2021-09-23T09:04:43Z</time>
      </trkpt>
      <trkpt lat="47.76101" lon="5.11689">
        <ele>384.71</ele>
        <time>2021-09-23T09:04:45Z</time>
      </trkpt>
      <trkpt lat="47.76102" lon="5.11693">
        <ele>384.38</ele>
        <time>2021-09-23T09:04:48Z</time>
      </trkpt>
      <trkpt lat="47.76102" lon="5.11698">
        <ele>384.23</ele>
        <time>2021-09-23T09:04:52Z</time>
      </trkpt>
      <trkpt lat="47.76102" lon="5.11704">
        <ele>384.08</ele>
        <time>2021-09-23T09:04:55Z</time>
      </trkpt>
      <trkpt lat="47.76102" lon="5.11708">
        <ele>383.98</ele>
        <time>2021-09-23T09:04:58Z</time>
      </trkpt>
      <trkpt lat="47.76103" lon="5.11713">
        <ele>383.7</ele>
        <time>2021-09-23T09:05:01Z</time>
      </trkpt>
      <trkpt lat="47.76104" lon="5.11718">
        <ele>383.39</ele>
        <time>2021-09-23T09:05:04Z</time>
      </trkpt>
      <trkpt lat="47.76104" lon="5.11723">
        <ele>383.27</ele>
        <time>2021-09-23T09:05:07Z</time>
      </trkpt>
      <trkpt lat="47.76104" lon="5.11728">
        <ele>383.23</ele>
        <time>2021-09-23T09:05:10Z</time>
      </trkpt>
      <trkpt lat="47.76103" lon="5.11732">
        <ele>383.36</ele>
        <time>2021-09-23T09:05:13Z</time>
      </trkpt>
      <trkpt lat="47.76103" lon="5.11737">
        <ele>383.3</ele>
        <time>2021-09-23T09:05:16Z</time>
      </trkpt>
      <trkpt lat="47.76103" lon="5.11741">
        <ele>383.26</ele>
        <time>2021-09-23T09:05:19Z</time>
      </trkpt>
      <trkpt lat="47.76105" lon="5.11748">
        <ele>382.9</ele>
        <time>2021-09-23T09:05:22Z</time>
      </trkpt>
      <trkpt lat="47.76106" lon="5.11753">
        <ele>382.76</ele>
        <time>2021-09-23T09:05:24Z</time>
      </trkpt>
      <trkpt lat="47.76106" lon="5.11759">
        <ele>382.8</ele>
        <time>2021-09-23T09:05:26Z</time>
      </trkpt>
      <trkpt lat="47.76107" lon="5.11763">
        <ele>382.66</ele>
        <time>2021-09-23T09:05:28Z</time>
      </trkpt>
      <trkpt lat="47.76107" lon="5.11767">
        <ele>382.68</ele>
        <time>2021-09-23T09:05:30Z</time>
      </trkpt>
      <trkpt lat="47.76108" lon="5.11771">
        <ele>382.53</ele>
        <time>2021-09-23T09:05:32Z</time>
      </trkpt>
      <trkpt lat="47.76108" lon="5.11776">
        <ele>382.55</ele>
        <time>2021-09-23T09:05:34Z</time>
      </trkpt>
      <trkpt lat="47.76109" lon="5.11781">
        <ele>382.37</ele>
        <time>2021-09-23T09:05:36Z</time>
      </trkpt>
      <trkpt lat="47.76108" lon="5.11785">
        <ele>382.53</ele>
        <time>2021-09-23T09:05:39Z</time>
      </trkpt>
      <trkpt lat="47.76107" lon="5.1179">
        <ele>382.67</ele>
        <time>2021-09-23T09:05:43Z</time>
      </trkpt>
      <trkpt lat="47.76107" lon="5.11794">
        <ele>382.65</ele>
        <time>2021-09-23T09:05:47Z</time>
      </trkpt>
      <trkpt lat="47.76107" lon="5.118">
        <ele>382.62</ele>
        <time>2021-09-23T09:05:51Z</time>
      </trkpt>
      <trkpt lat="47.76107" lon="5.11805">
        <ele>382.59</ele>
        <time>2021-09-23T09:05:54Z</time>
      </trkpt>
      <trkpt lat="47.76107" lon="5.11809">
        <ele>382.49</ele>
        <time>2021-09-23T09:05:57Z</time>
      </trkpt>
      <trkpt lat="47.76107" lon="5.11814">
        <ele>382.33</ele>
        <time>2021-09-23T09:06:00Z</time>
      </trkpt>
      <trkpt lat="47.76108" lon="5.11819">
        <ele>382.02</ele>
        <time>2021-09-23T09:06:02Z</time>
      </trkpt>
      <trkpt lat="47.76108" lon="5.11823">
        <ele>381.89</ele>
        <time>2021-09-23T09:06:04Z</time>
      </trkpt>
      <trkpt lat="47.76108" lon="5.11827">
        <ele>381.76</ele>
        <time>2021-09-23T09:06:06Z</time>
      </trkpt>
      <trkpt lat="47.76108" lon="5.11831">
        <ele>381.63</ele>
        <time>2021-09-23T09:06:10Z</time>
      </trkpt>
      <trkpt lat="47.76108" lon="5.11836">
        <ele>381.72</ele>
        <time>2021-09-23T09:06:14Z</time>
      </trkpt>
      <trkpt lat="47.76109" lon="5.11841">
        <ele>381.87</ele>
        <time>2021-09-23T09:06:16Z</time>
      </trkpt>
      <trkpt lat="47.76109" lon="5.11845">
        <ele>382.12</ele>
        <time>2021-09-23T09:06:18Z</time>
      </trkpt>
      <trkpt lat="47.76109" lon="5.1185">
        <ele>382.44</ele>
        <time>2021-09-23T09:06:21Z</time>
      </trkpt>
      <trkpt lat="47.76109" lon="5.11854">
        <ele>382.7</ele>
        <time>2021-09-23T09:06:24Z</time>
      </trkpt>
      <trkpt lat="47.76108" lon="5.11858">
        <ele>383.04</ele>
        <time>2021-09-23T09:06:26Z</time>
      </trkpt>
      <trkpt lat="47.76108" lon="5.11863">
        <ele>383.29</ele>
        <time>2021-09-23T09:06:28Z</time>
      </trkpt>
      <trkpt lat="47.76108" lon="5.11867">
        <ele>383.44</ele>
        <time>2021-09-23T09:06:30Z</time>
      </trkpt>
      <trkpt lat="47.76108" lon="5.11872">
        <ele>383.62</ele>
        <time>2021-09-23T09:06:34Z</time>
      </trkpt>
      <trkpt lat="47.76107" lon="5.11876">
        <ele>383.83</ele>
        <time>2021-09-23T09:06:39Z</time>
      </trkpt>
      <trkpt lat="47.76106" lon="5.11881">
        <ele>384.08</ele>
        <time>2021-09-23T09:06:44Z</time>
      </trkpt>
      <trkpt lat="47.76106" lon="5.11886">
        <ele>384.26</ele>
        <time>2021-09-23T09:06:47Z</time>
      </trkpt>
      <trkpt lat="47.76107" lon="5.11891">
        <ele>384.44</ele>
        <time>2021-09-23T09:06:49Z</time>
      </trkpt>
      <trkpt lat="47.76107" lon="5.11895">
        <ele>384.7</ele>
        <time>2021-09-23T09:06:51Z</time>
      </trkpt>
      <trkpt lat="47.76107" lon="5.11901">
        <ele>385.1</ele>
        <time>2021-09-23T09:06:54Z</time>
      </trkpt>
      <trkpt lat="47.76108" lon="5.11905">
        <ele>385.32</ele>
        <time>2021-09-23T09:06:57Z</time>
      </trkpt>
      <trkpt lat="47.7611" lon="5.11909">
        <ele>385.5</ele>
        <time>2021-09-23T09:07:00Z</time>
      </trkpt>
      <trkpt lat="47.7611" lon="5.11913">
        <ele>385.78</ele>
        <time>2021-09-23T09:07:02Z</time>
      </trkpt>
      <trkpt lat="47.76111" lon="5.11918">
        <ele>386</ele>
        <time>2021-09-23T09:07:05Z</time>
      </trkpt>
      <trkpt lat="47.76112" lon="5.11923">
        <ele>386.01</ele>
        <time>2021-09-23T09:07:11Z</time>
      </trkpt>
      <trkpt lat="47.76114" lon="5.11927">
        <ele>386.04</ele>
        <time>2021-09-23T09:07:14Z</time>
      </trkpt>
      <trkpt lat="47.76114" lon="5.11932">
        <ele>386.06</ele>
        <time>2021-09-23T09:07:16Z</time>
      </trkpt>
      <trkpt lat="47.76114" lon="5.11939">
        <ele>386.08</ele>
        <time>2021-09-23T09:07:18Z</time>
      </trkpt>
      <trkpt lat="47.76114" lon="5.11945">
        <ele>386.1</ele>
        <time>2021-09-23T09:07:20Z</time>
      </trkpt>
      <trkpt lat="47.76114" lon="5.1195">
        <ele>386.1</ele>
        <time>2021-09-23T09:07:23Z</time>
      </trkpt>
      <trkpt lat="47.76114" lon="5.11954">
        <ele>386.1</ele>
        <time>2021-09-23T09:07:26Z</time>
      </trkpt>
      <trkpt lat="47.76114" lon="5.11958">
        <ele>386.1</ele>
        <time>2021-09-23T09:07:29Z</time>
      </trkpt>
      <trkpt lat="47.76113" lon="5.11964">
        <ele>386.07</ele>
        <time>2021-09-23T09:07:33Z</time>
      </trkpt>
      <trkpt lat="47.76112" lon="5.11969">
        <ele>386.03</ele>
        <time>2021-09-23T09:07:36Z</time>
      </trkpt>
      <trkpt lat="47.76112" lon="5.11974">
        <ele>386.04</ele>
        <time>2021-09-23T09:07:38Z</time>
      </trkpt>
      <trkpt lat="47.76112" lon="5.11978">
        <ele>386.05</ele>
        <time>2021-09-23T09:07:40Z</time>
      </trkpt>
      <trkpt lat="47.76112" lon="5.11982">
        <ele>386.07</ele>
        <time>2021-09-23T09:07:42Z</time>
      </trkpt>
      <trkpt lat="47.76113" lon="5.11986">
        <ele>386.17</ele>
        <time>2021-09-23T09:07:44Z</time>
      </trkpt>
      <trkpt lat="47.76113" lon="5.1199">
        <ele>386.2</ele>
        <time>2021-09-23T09:07:46Z</time>
      </trkpt>
      <trkpt lat="47.76114" lon="5.11995">
        <ele>386.36</ele>
        <time>2021-09-23T09:07:49Z</time>
      </trkpt>
      <trkpt lat="47.76114" lon="5.11999">
        <ele>386.4</ele>
        <time>2021-09-23T09:07:52Z</time>
      </trkpt>
      <trkpt lat="47.76113" lon="5.12004">
        <ele>386.42</ele>
        <time>2021-09-23T09:07:55Z</time>
      </trkpt>
      <trkpt lat="47.76113" lon="5.12009">
        <ele>386.6</ele>
        <time>2021-09-23T09:07:58Z</time>
      </trkpt>
      <trkpt lat="47.76112" lon="5.12013">
        <ele>386.6</ele>
        <time>2021-09-23T09:08:08Z</time>
      </trkpt>
      <trkpt lat="47.76112" lon="5.12019">
        <ele>386.81</ele>
        <time>2021-09-23T09:08:12Z</time>
      </trkpt>
      <trkpt lat="47.76112" lon="5.12024">
        <ele>386.99</ele>
        <time>2021-09-23T09:08:14Z</time>
      </trkpt>
      <trkpt lat="47.76112" lon="5.12028">
        <ele>387.13</ele>
        <time>2021-09-23T09:08:16Z</time>
      </trkpt>
      <trkpt lat="47.76113" lon="5.12034">
        <ele>387.29</ele>
        <time>2021-09-23T09:08:19Z</time>
      </trkpt>
      <trkpt lat="47.76113" lon="5.12039">
        <ele>387.3</ele>
        <time>2021-09-23T09:08:22Z</time>
      </trkpt>
      <trkpt lat="47.76112" lon="5.12044">
        <ele>387.15</ele>
        <time>2021-09-23T09:08:25Z</time>
      </trkpt>
      <trkpt lat="47.76112" lon="5.12049">
        <ele>387.15</ele>
        <time>2021-09-23T09:08:28Z</time>
      </trkpt>
      <trkpt lat="47.76112" lon="5.12053">
        <ele>387.16</ele>
        <time>2021-09-23T09:08:31Z</time>
      </trkpt>
      <trkpt lat="47.76112" lon="5.12058">
        <ele>387.15</ele>
        <time>2021-09-23T09:08:34Z</time>
      </trkpt>
      <trkpt lat="47.76112" lon="5.12062">
        <ele>387.15</ele>
        <time>2021-09-23T09:08:36Z</time>
      </trkpt>
      <trkpt lat="47.76112" lon="5.12066">
        <ele>387.14</ele>
        <time>2021-09-23T09:08:38Z</time>
      </trkpt>
      <trkpt lat="47.76112" lon="5.12071">
        <ele>387.12</ele>
        <time>2021-09-23T09:08:41Z</time>
      </trkpt>
      <trkpt lat="47.76111" lon="5.12077">
        <ele>387</ele>
        <time>2021-09-23T09:08:44Z</time>
      </trkpt>
      <trkpt lat="47.76111" lon="5.12082">
        <ele>387</ele>
        <time>2021-09-23T09:08:46Z</time>
      </trkpt>
      <trkpt lat="47.76111" lon="5.12087">
        <ele>387</ele>
        <time>2021-09-23T09:08:48Z</time>
      </trkpt>
      <trkpt lat="47.76111" lon="5.12091">
        <ele>387</ele>
        <time>2021-09-23T09:08:51Z</time>
      </trkpt>
      <trkpt lat="47.76111" lon="5.12096">
        <ele>387</ele>
        <time>2021-09-23T09:08:55Z</time>
      </trkpt>
      <trkpt lat="47.7611" lon="5.121">
        <ele>387</ele>
        <time>2021-09-23T09:08:58Z</time>
      </trkpt>
      <trkpt lat="47.76109" lon="5.12104">
        <ele>387</ele>
        <time>2021-09-23T09:09:01Z</time>
      </trkpt>
      <trkpt lat="47.76109" lon="5.12109">
        <ele>387</ele>
        <time>2021-09-23T09:09:03Z</time>
      </trkpt>
      <trkpt lat="47.76108" lon="5.12114">
        <ele>387.1</ele>
        <time>2021-09-23T09:09:05Z</time>
      </trkpt>
      <trkpt lat="47.76108" lon="5.12118">
        <ele>387.25</ele>
        <time>2021-09-23T09:09:07Z</time>
      </trkpt>
      <trkpt lat="47.76106" lon="5.12121">
        <ele>387.36</ele>
        <time>2021-09-23T09:09:10Z</time>
      </trkpt>
      <trkpt lat="47.76104" lon="5.12125">
        <ele>387.5</ele>
        <time>2021-09-23T09:09:13Z</time>
      </trkpt>
      <trkpt lat="47.76102" lon="5.1213">
        <ele>387.68</ele>
        <time>2021-09-23T09:09:16Z</time>
      </trkpt>
      <trkpt lat="47.76101" lon="5.12135">
        <ele>387.86</ele>
        <time>2021-09-23T09:09:18Z</time>
      </trkpt>
      <trkpt lat="47.761" lon="5.12141">
        <ele>388.03</ele>
        <time>2021-09-23T09:09:20Z</time>
      </trkpt>
      <trkpt lat="47.76099" lon="5.12147">
        <ele>388.13</ele>
        <time>2021-09-23T09:09:22Z</time>
      </trkpt>
      <trkpt lat="47.76099" lon="5.12151">
        <ele>388.19</ele>
        <time>2021-09-23T09:09:24Z</time>
      </trkpt>
      <trkpt lat="47.76098" lon="5.12156">
        <ele>388.29</ele>
        <time>2021-09-23T09:09:28Z</time>
      </trkpt>
      <trkpt lat="47.76097" lon="5.12161">
        <ele>388.4</ele>
        <time>2021-09-23T09:09:32Z</time>
      </trkpt>
      <trkpt lat="47.76097" lon="5.12166">
        <ele>388.5</ele>
        <time>2021-09-23T09:09:35Z</time>
      </trkpt>
      <trkpt lat="47.76098" lon="5.12171">
        <ele>388.55</ele>
        <time>2021-09-23T09:09:38Z</time>
      </trkpt>
      <trkpt lat="47.76097" lon="5.12176">
        <ele>388.68</ele>
        <time>2021-09-23T09:09:42Z</time>
      </trkpt>
      <trkpt lat="47.76095" lon="5.12181">
        <ele>388.88</ele>
        <time>2021-09-23T09:09:45Z</time>
      </trkpt>
      <trkpt lat="47.76094" lon="5.12186">
        <ele>389.04</ele>
        <time>2021-09-23T09:09:48Z</time>
      </trkpt>
      <trkpt lat="47.76093" lon="5.1219">
        <ele>389.2</ele>
        <time>2021-09-23T09:09:50Z</time>
      </trkpt>
      <trkpt lat="47.76093" lon="5.12196">
        <ele>389.28</ele>
        <time>2021-09-23T09:09:53Z</time>
      </trkpt>
      <trkpt lat="47.76091" lon="5.12202">
        <ele>389.37</ele>
        <time>2021-09-23T09:09:56Z</time>
      </trkpt>
      <trkpt lat="47.7609" lon="5.12206">
        <ele>389.42</ele>
        <time>2021-09-23T09:09:58Z</time>
      </trkpt>
      <trkpt lat="47.76088" lon="5.1221">
        <ele>389.57</ele>
        <time>2021-09-23T09:10:00Z</time>
      </trkpt>
      <trkpt lat="47.76087" lon="5.12215">
        <ele>389.64</ele>
        <time>2021-09-23T09:10:03Z</time>
      </trkpt>
      <trkpt lat="47.76086" lon="5.12219">
        <ele>389.72</ele>
        <time>2021-09-23T09:10:05Z</time>
      </trkpt>
      <trkpt lat="47.76086" lon="5.12224">
        <ele>389.77</ele>
        <time>2021-09-23T09:10:08Z</time>
      </trkpt>
      <trkpt lat="47.76087" lon="5.12229">
        <ele>389.82</ele>
        <time>2021-09-23T09:10:12Z</time>
      </trkpt>
      <trkpt lat="47.76087" lon="5.12233">
        <ele>389.94</ele>
        <time>2021-09-23T09:10:14Z</time>
      </trkpt>
      <trkpt lat="47.76087" lon="5.12238">
        <ele>390.1</ele>
        <time>2021-09-23T09:10:16Z</time>
      </trkpt>
      <trkpt lat="47.76087" lon="5.12244">
        <ele>390.28</ele>
        <time>2021-09-23T09:10:19Z</time>
      </trkpt>
      <trkpt lat="47.76087" lon="5.12248">
        <ele>390.41</ele>
        <time>2021-09-23T09:10:21Z</time>
      </trkpt>
      <trkpt lat="47.76087" lon="5.12253">
        <ele>390.57</ele>
        <time>2021-09-23T09:10:23Z</time>
      </trkpt>
      <trkpt lat="47.76087" lon="5.12258">
        <ele>390.72</ele>
        <time>2021-09-23T09:10:25Z</time>
      </trkpt>
      <trkpt lat="47.76087" lon="5.12263">
        <ele>390.88</ele>
        <time>2021-09-23T09:10:28Z</time>
      </trkpt>
      <trkpt lat="47.76088" lon="5.12269">
        <ele>390.9</ele>
        <time>2021-09-23T09:10:30Z</time>
      </trkpt>
      <trkpt lat="47.76088" lon="5.12274">
        <ele>391.05</ele>
        <time>2021-09-23T09:10:32Z</time>
      </trkpt>
      <trkpt lat="47.76088" lon="5.12278">
        <ele>391.17</ele>
        <time>2021-09-23T09:10:34Z</time>
      </trkpt>
      <trkpt lat="47.76089" lon="5.12284">
        <ele>391.16</ele>
        <time>2021-09-23T09:10:37Z</time>
      </trkpt>
      <trkpt lat="47.76089" lon="5.12289">
        <ele>391.3</ele>
        <time>2021-09-23T09:10:40Z</time>
      </trkpt>
      <trkpt lat="47.7609" lon="5.12294">
        <ele>391.24</ele>
        <time>2021-09-23T09:10:43Z</time>
      </trkpt>
      <trkpt lat="47.76091" lon="5.12299">
        <ele>391.17</ele>
        <time>2021-09-23T09:10:46Z</time>
      </trkpt>
      <trkpt lat="47.76091" lon="5.12303">
        <ele>391.28</ele>
        <time>2021-09-23T09:10:51Z</time>
      </trkpt>
      <trkpt lat="47.76091" lon="5.12308">
        <ele>391.17</ele>
        <time>2021-09-23T09:10:57Z</time>
      </trkpt>
      <trkpt lat="47.76092" lon="5.12312">
        <ele>390.66</ele>
        <time>2021-09-23T09:10:59Z</time>
      </trkpt>
      <trkpt lat="47.76092" lon="5.12317">
        <ele>390.3</ele>
        <time>2021-09-23T09:11:01Z</time>
      </trkpt>
      <trkpt lat="47.76092" lon="5.12321">
        <ele>390.02</ele>
        <time>2021-09-23T09:11:03Z</time>
      </trkpt>
      <trkpt lat="47.76092" lon="5.12325">
        <ele>389.73</ele>
        <time>2021-09-23T09:11:05Z</time>
      </trkpt>
      <trkpt lat="47.76092" lon="5.1233">
        <ele>389.37</ele>
        <time>2021-09-23T09:11:07Z</time>
      </trkpt>
      <trkpt lat="47.76092" lon="5.12336">
        <ele>388.97</ele>
        <time>2021-09-23T09:11:09Z</time>
      </trkpt>
      <trkpt lat="47.76091" lon="5.12342">
        <ele>388.81</ele>
        <time>2021-09-23T09:11:11Z</time>
      </trkpt>
      <trkpt lat="47.7609" lon="5.12346">
        <ele>388.76</ele>
        <time>2021-09-23T09:11:14Z</time>
      </trkpt>
      <trkpt lat="47.76087" lon="5.12348">
        <ele>389.22</ele>
        <time>2021-09-23T09:11:23Z</time>
      </trkpt>
      <trkpt lat="47.76085" lon="5.12349">
        <ele>389.55</ele>
        <time>2021-09-23T09:11:28Z</time>
      </trkpt>
      <trkpt lat="47.76082" lon="5.12347">
        <ele>390.11</ele>
        <time>2021-09-23T09:11:37Z</time>
      </trkpt>
      <trkpt lat="47.76083" lon="5.12342">
        <ele>390.4</ele>
        <time>2021-09-23T09:11:53Z</time>
      </trkpt>
      <trkpt lat="47.76085" lon="5.12341">
        <ele>390.1</ele>
        <time>2021-09-23T09:11:56Z</time>
      </trkpt>
      <trkpt lat="47.76126" lon="5.12351">
        <ele>391.3</ele>
      </trkpt>
      <trkpt lat="47.76121" lon="5.12395">
        <ele>390.4</ele>
      </trkpt>
      <trkpt lat="47.76116" lon="5.12437">
        <ele>390.1</ele>
      </trkpt>
      <trkpt lat="47.76114" lon="5.12455">
        <ele>390.3</ele>
      </trkpt>
      <trkpt lat="47.76113" lon="5.12469">
        <ele>390.5</ele>
      </trkpt>
      <trkpt lat="47.76109" lon="5.12497">
        <ele>390.9</ele>
      </trkpt>
      <trkpt lat="47.76102" lon="5.12527">
        <ele>391.2</ele>
      </trkpt>
      <trkpt lat="47.76095" lon="5.12557">
        <ele>391.6</ele>
      </trkpt>
      <trkpt lat="47.76084" lon="5.1253">
        <ele>390.7</ele>
      </trkpt>
      <trkpt lat="47.76074" lon="5.12497">
        <ele>391.1</ele>
      </trkpt>
      <trkpt lat="47.76064" lon="5.12467">
        <ele>391.5</ele>
      </trkpt>
      <trkpt lat="47.76052" lon="5.12451">
        <ele>392.8</ele>
      </trkpt>
      <trkpt lat="47.76042" lon="5.12449">
        <ele>394.2</ele>
      </trkpt>
      <trkpt lat="47.76021" lon="5.12453">
        <ele>397.4</ele>
      </trkpt>
      <trkpt lat="47.75988" lon="5.12499">
        <ele>402.4</ele>
      </trkpt>
      <trkpt lat="47.75972" lon="5.12527">
        <ele>404</ele>
      </trkpt>
      <trkpt lat="47.7597" lon="5.1253">
        <ele>404.1</ele>
      </trkpt>
      <trkpt lat="47.7595" lon="5.12569">
        <ele>406.3</ele>
      </trkpt>
      <trkpt lat="47.75914" lon="5.12614">
        <ele>408.8</ele>
      </trkpt>
      <trkpt lat="47.75891" lon="5.12638">
        <ele>410.4</ele>
      </trkpt>
      <trkpt lat="47.75889" lon="5.1264">
        <ele>410.6</ele>
      </trkpt>
      <trkpt lat="47.75878" lon="5.1265">
        <ele>411.6</ele>
      </trkpt>
      <trkpt lat="47.75847" lon="5.12699">
        <ele>412</ele>
      </trkpt>
      <trkpt lat="47.75833" lon="5.12729">
        <ele>410.6</ele>
      </trkpt>
      <trkpt lat="47.75829" lon="5.12737">
        <ele>410.1</ele>
      </trkpt>
      <trkpt lat="47.75811" lon="5.12759">
        <ele>410.3</ele>
      </trkpt>
      <trkpt lat="47.75786" lon="5.12711">
        <ele>418.7</ele>
      </trkpt>
      <trkpt lat="47.75759" lon="5.12663">
        <ele>427</ele>
      </trkpt>
      <trkpt lat="47.75744" lon="5.12637">
        <ele>429.6</ele>
      </trkpt>
      <trkpt lat="47.75723" lon="5.12594">
        <ele>433.7</ele>
      </trkpt>
      <trkpt lat="47.75638" lon="5.12434">
        <ele>441</ele>
      </trkpt>
      <trkpt lat="47.75637" lon="5.12431">
        <ele>441</ele>
      </trkpt>
    </trkseg>
  </trk>
</gpx>